Provisional Data: Kitchen Creek near Huntington Mills, PA


Please select a monitoring station.
Please select start date.
Please select start date.

Toggle Unit: C/F Toggle Unit: C/F
Sample Time Temperature (C) Temperature (F) Specific Conductivity (mS/cm) pH   Turbidity (NTU+) DO (mg/L)
6/29/2021 12:00:00 AM 20.18 68.324 0.073 6.58 1.88 8.8
6/29/2021 12:15:00 AM 20.13 68.234 0.073 6.58 1.9 8.82
6/29/2021 12:30:00 AM 20.09 68.162 0.073 6.58 1.83 8.82
6/29/2021 12:45:00 AM 20.04 68.07201 0.073 6.57 1.73 8.84
6/29/2021 1:00:00 AM 20 68 0.073 6.57 1.76 8.84
6/29/2021 1:15:00 AM 19.96 67.92799 0.073 6.57 1.72 8.85
6/29/2021 1:30:00 AM 19.91 67.838 0.073 6.57 1.7 8.86
6/29/2021 1:45:00 AM 19.87 67.766 0.073 6.57 1.76 8.87
6/29/2021 2:00:00 AM 19.83 67.694 0.073 6.57 1.73 8.88
6/29/2021 2:15:00 AM 19.8 67.64 0.073 6.57 1.72 8.88
6/29/2021 2:30:00 AM 19.76 67.568 0.073 6.57 1.74 8.89
6/29/2021 2:45:00 AM 19.72 67.496 0.073 6.56 2.44 8.9
6/29/2021 3:00:00 AM 19.69 67.442 0.073 6.56 1.72 8.9
6/29/2021 3:15:00 AM 19.65 67.37 0.073 6.55 1.84 8.92
6/29/2021 3:30:00 AM 19.61 67.298 0.073 6.54 1.89 8.92
6/29/2021 3:45:00 AM 19.57 67.226 0.074 6.55 1.73 8.93
6/29/2021 4:00:00 AM 19.53 67.154 0.074 6.55 1.78 8.94
6/29/2021 4:15:00 AM 19.5 67.1 0.074 6.55 1.83 8.94
6/29/2021 4:30:00 AM 19.46 67.028 0.074 6.54 1.69 8.95
6/29/2021 4:45:00 AM 19.42 66.956 0.074 6.54 1.84 8.96
6/29/2021 5:00:00 AM 19.39 66.902 0.074 6.54 1.82 8.97
6/29/2021 5:15:00 AM 19.35 66.83 0.074 6.53 1.78 8.97
6/29/2021 5:30:00 AM 19.32 66.776 0.074 6.54 1.98 8.98
6/29/2021 5:45:00 AM 19.28 66.704 0.074 6.54 1.84 8.99
6/29/2021 6:00:00 AM 19.25 66.65 0.074 6.54 1.89 9.01
6/29/2021 6:15:00 AM 19.22 66.596 0.074 6.54 1.98 9.03
6/29/2021 6:30:00 AM 19.19 66.542 0.074 6.55 1.8 9.05
6/29/2021 6:45:00 AM 19.16 66.488 0.074 6.55 1.76 9.07
6/29/2021 7:00:00 AM 19.13 66.434 0.074 6.55 1.87 9.1
6/29/2021 7:15:00 AM 19.12 66.416 0.074 6.55 1.81 9.12
6/29/2021 7:30:00 AM 19.1 66.38 0.074 6.56 1.75 9.14
6/29/2021 7:45:00 AM 19.1 66.38 0.074 6.56 1.82 9.16
6/29/2021 8:00:00 AM 19.1 66.38 0.074 6.56 1.77 9.18
6/29/2021 8:15:00 AM 19.1 66.38 0.074 6.56 1.84 9.2
6/29/2021 8:30:00 AM 19.12 66.416 0.074 6.56 1.84 9.22
6/29/2021 8:45:00 AM 19.15 66.47 0.074 6.58 1.85 9.24
6/29/2021 9:00:00 AM 19.2 66.56 0.073 6.59 1.81 9.26
6/29/2021 9:15:00 AM 19.27 66.686 0.073 6.64 1.84 9.27
6/29/2021 9:30:00 AM 19.35 66.83 0.073 6.66 1.95 9.28
6/29/2021 9:45:00 AM 19.42 66.956 0.073 6.68 2.13 9.29
6/29/2021 10:00:00 AM 19.52 67.136 0.073 6.7 2.15 9.3
6/29/2021 10:15:00 AM 19.63 67.334 0.073 6.72 2.07 9.3
6/29/2021 10:30:00 AM 19.75 67.55 0.073 6.73 2.03 9.29
6/29/2021 10:45:00 AM 19.88 67.784 0.073 6.75 2.03 9.29
6/29/2021 11:00:00 AM 20.03 68.054 0.073 6.76 1.92 9.28
6/29/2021 11:15:00 AM 20.2 68.36 0.073 6.78 1.93 9.27
6/29/2021 11:30:00 AM 20.37 68.666 0.073 6.79 1.94 9.24
6/29/2021 11:45:00 AM 20.55 68.99 0.073 6.8 2.03 9.22
6/29/2021 12:00:00 PM 20.74 69.332 0.073 6.8 2.02 9.19
6/29/2021 12:15:00 PM 20.99 69.782 0.073 6.82 2 9.15
6/29/2021 12:30:00 PM 21.25 70.25 0.072 6.83 1.9 9.11
6/29/2021 12:45:00 PM 21.54 70.772 0.072 6.84 1.93 9.06
6/29/2021 1:00:00 PM 21.81 71.258 0.071 6.84 1.87 9
6/29/2021 1:15:00 PM 22.05 71.69 0.071 6.85 1.88 8.95
6/29/2021 1:30:00 PM 22.29 72.122 0.07 6.85 1.94 8.9
6/29/2021 1:45:00 PM 22.52 72.536 0.07 6.86 1.86 8.86
6/29/2021 2:00:00 PM 22.71 72.878 0.07 6.86 1.88 8.82
6/29/2021 2:15:00 PM 22.84 73.112 0.07 6.85 1.89 8.77
6/29/2021 2:30:00 PM 22.91 73.238 0.07 6.85 1.9 8.75
6/29/2021 2:45:00 PM 22.94 73.292 0.07 6.84 1.94 8.71
6/29/2021 3:00:00 PM 22.93 73.274 0.07 6.83 1.82 8.69
6/29/2021 3:15:00 PM 22.85 73.13 0.07 6.82 1.92 8.67
6/29/2021 3:30:00 PM 22.84 73.112 0.07 6.82 1.93 8.69
6/29/2021 3:45:00 PM 22.83 73.094 0.07 6.81 1.83 8.67
6/29/2021 4:00:00 PM 22.79 73.022 0.07 6.8 1.81 8.66
6/29/2021 4:15:00 PM 22.74 72.932 0.071 6.8 1.83 8.67
6/29/2021 4:30:00 PM 22.67 72.806 0.071 6.79 1.85 8.65
6/29/2021 4:45:00 PM 22.6 72.68 0.071 6.79 1.76 8.66
6/29/2021 5:00:00 PM 22.55 72.59 0.071 6.78 1.79 8.67
6/29/2021 5:15:00 PM 22.5 72.5 0.071 6.78 1.76 8.68
6/29/2021 5:30:00 PM 22.44 72.392 0.071 6.77 1.86 8.65
6/29/2021 5:45:00 PM 22.37 72.266 0.071 6.75 1.85 8.64
6/29/2021 6:00:00 PM 22.32 72.176 0.071 6.74 1.81 8.64
6/29/2021 6:15:00 PM 22.27 72.086 0.071 6.74 1.77 8.65
6/29/2021 6:30:00 PM 22.23 72.014 0.071 6.73 1.8 8.66
6/29/2021 6:45:00 PM 22.17 71.906 0.071 6.72 1.74 8.64
6/29/2021 7:00:00 PM 22.12 71.816 0.071 6.7 1.75 8.61
6/29/2021 7:15:00 PM 22.07 71.726 0.072 6.7 1.73 8.61
6/29/2021 7:30:00 PM 22.01 71.618 0.072 6.68 1.71 8.61
6/29/2021 7:45:00 PM 21.96 71.528 0.072 6.67 1.68 8.59
6/29/2021 8:00:00 PM 21.9 71.42 0.072 6.66 1.72 8.57
6/29/2021 8:15:00 PM 21.84 71.312 0.072 6.65 1.71 8.55
6/29/2021 8:30:00 PM 21.79 71.222 0.072 6.63 1.75 8.54
6/29/2021 8:45:00 PM 21.74 71.132 0.072 6.63 1.7 8.53
6/29/2021 9:00:00 PM 21.68 71.024 0.072 6.62 1.8 8.53
6/29/2021 9:15:00 PM 21.63 70.934 0.072 6.6 1.83 8.53
6/29/2021 9:30:00 PM 21.58 70.844 0.072 6.6 1.88 8.53
6/29/2021 9:45:00 PM 21.53 70.754 0.072 6.59 1.85 8.54
6/29/2021 10:00:00 PM 21.47 70.646 0.072 6.59 1.81 8.55
6/29/2021 10:15:00 PM 21.43 70.574 0.072 6.59 1.81 8.56
6/29/2021 10:30:00 PM 21.38 70.484 0.072 6.58 1.86 8.56
6/29/2021 10:45:00 PM 21.33 70.394 0.072 6.58 1.77 8.57
6/29/2021 11:00:00 PM 21.28 70.304 0.072 6.58 1.91 8.58
6/29/2021 11:15:00 PM 21.23 70.214 0.072 6.56 2.3 8.59
6/29/2021 11:30:00 PM 21.19 70.142 0.072 6.55 1.87 8.6
6/29/2021 11:45:00 PM 21.15 70.07 0.072 6.56 1.89 8.61
6/30/2021 12:00:00 AM 21.12 70.016 0.072 6.56 1.87 8.62
6/30/2021 12:15:00 AM 21.08 69.944 0.072 6.56 1.82 8.63
6/30/2021 12:30:00 AM 21.05 69.89 0.072 6.57 1.8 8.64
6/30/2021 12:45:00 AM 21.01 69.818 0.072 6.57 1.85 8.65
6/30/2021 1:00:00 AM 20.96 69.728 0.072 6.58 1.77 8.66
6/30/2021 1:15:00 AM 20.9 69.62 0.072 6.58 1.76 8.67
6/30/2021 1:30:00 AM 20.85 69.53 0.072 6.58 1.89 8.68
6/30/2021 1:45:00 AM 20.79 69.422 0.072 6.59 1.79 8.69
6/30/2021 2:00:00 AM 20.74 69.332 0.072 6.6 1.74 8.7
6/30/2021 2:15:00 AM 20.69 69.242 0.072 6.6 1.75 8.71
6/30/2021 2:30:00 AM 20.63 69.134 0.072 6.6 1.78 8.72
6/30/2021 2:45:00 AM 20.58 69.044 0.072 6.62 1.87 8.72
6/30/2021 3:00:00 AM 20.53 68.954 0.072 6.62 1.74 8.73
6/30/2021 3:15:00 AM 20.47 68.846 0.072 6.62 1.81 8.74
6/30/2021 3:30:00 AM 20.42 68.756 0.072 6.62 1.84 8.75
6/30/2021 3:45:00 AM 20.36 68.648 0.072 6.62 1.83 8.76
6/30/2021 4:00:00 AM 20.3 68.54 0.072 6.61 1.8 8.76
6/30/2021 4:15:00 AM 20.24 68.432 0.072 6.61 2.49 8.79
6/30/2021 4:30:00 AM 20.16 68.288 0.072 6.6 2.63 8.83
6/30/2021 4:45:00 AM 20.1 68.18 0.072 6.61 2.46 8.85
6/30/2021 5:00:00 AM 20.03 68.054 0.072 6.6 2.53 8.87
6/30/2021 5:15:00 AM 19.97 67.946 0.071 6.59 2.58 8.88
6/30/2021 5:30:00 AM 19.93 67.874 0.071 6.59 2.7 8.9
6/30/2021 5:45:00 AM 19.88 67.784 0.071 6.61 3.08 8.91
6/30/2021 6:00:00 AM 19.83 67.694 0.071 6.59 2.87 8.94
6/30/2021 6:15:00 AM 19.79 67.622 0.071 6.59 2.73 8.96
6/30/2021 6:30:00 AM 19.75 67.55 0.069 6.6 2.65 8.98
6/30/2021 6:45:00 AM 19.72 67.496 0.068 6.59 2.62 8.99
6/30/2021 7:00:00 AM 19.69 67.442 0.067 6.59 2.39 9.01
6/30/2021 7:15:00 AM 19.66 67.388 0.065 6.59 2.58 9.03
6/30/2021 7:30:00 AM 19.64 67.352 0.065 6.59 2.68 9.05
6/30/2021 7:45:00 AM 19.62 67.316 0.064 6.58 2.58 9.07
6/30/2021 8:00:00 AM 19.6 67.28 0.063 6.57 2.56 9.09
6/30/2021 8:15:00 AM 19.6 67.28 0.062 6.56 2.5 9.1
6/30/2021 8:30:00 AM 19.6 67.28 0.062 6.57 2.43 9.12
6/30/2021 8:45:00 AM 19.62 67.316 0.061 6.58 2.56 9.14
6/30/2021 9:00:00 AM 19.66 67.388 0.061 6.58 2.43 9.15
6/30/2021 9:15:00 AM 19.72 67.496 0.061 6.59 2.72 9.15
6/30/2021 9:30:00 AM 19.78 67.604 0.06 6.61 2.37 9.16
6/30/2021 9:45:00 AM 19.85 67.73 0.06 6.63 2.33 9.16
6/30/2021 10:00:00 AM 19.95 67.91 0.06 6.65 2.49 9.16
6/30/2021 10:15:00 AM 20.04 68.07201 0.059 6.67 2.38 9.16
6/30/2021 10:30:00 AM 20.15 68.27 0.059 6.68 2.47 9.15
6/30/2021 10:45:00 AM 20.28 68.504 0.059 6.69 2.32 9.15
6/30/2021 11:00:00 AM 20.41 68.738 0.058 6.7 2.4 9.13
6/30/2021 11:15:00 AM 20.57 69.026 0.058 6.71 2.36 9.11
6/30/2021 11:30:00 AM 20.73 69.314 0.058 6.72 2.44 9.09
6/30/2021 11:45:00 AM 20.91 69.638 0.058 6.72 2.27 9.06
6/30/2021 12:00:00 PM 21.12 70.016 0.058 6.72 2.33 9.03
6/30/2021 12:15:00 PM 21.37 70.466 0.058 6.73 2.24 8.99
6/30/2021 12:30:00 PM 21.61 70.898 0.059 6.74 2.34 8.95
6/30/2021 12:45:00 PM 21.87 71.366 0.059 6.75 2.25 8.92
6/30/2021 1:00:00 PM 22.12 71.816 0.059 6.75 2.29 8.89
6/30/2021 1:15:00 PM 22.36 72.248 0.059 6.76 2.32 8.84
6/30/2021 1:30:00 PM 22.54 72.57201 0.059 6.76 2.36 8.8
6/30/2021 1:45:00 PM 22.69 72.842 0.059 6.76 2.29 8.78
6/30/2021 2:00:00 PM 22.82 73.076 0.059 6.77 2.23 8.74
6/30/2021 2:15:00 PM 22.92 73.256 0.058 6.77 2.44 8.72
6/30/2021 2:30:00 PM 22.89 73.202 0.058 6.76 2.57 8.68
6/30/2021 2:45:00 PM 22.79 73.022 0.058 6.74 2.32 8.67
6/30/2021 3:00:00 PM 22.82 73.076 0.058 6.74 2.28 8.67
6/30/2021 3:15:00 PM 22.76 72.968 0.058 6.73 2.27 8.65
6/30/2021 3:30:00 PM 22.62 72.716 0.058 6.7 2.19 8.63
6/30/2021 3:45:00 PM 22.53 72.554 0.058 6.68 2.25 8.57
6/30/2021 4:00:00 PM 22.43 72.374 0.058 6.68 2.25 8.58
6/30/2021 4:15:00 PM 22.34 72.212 0.057 6.69 2.18 8.66
6/30/2021 4:30:00 PM 22.25 72.05 0.057 6.69 2.19 8.66
6/30/2021 4:45:00 PM 22.16 71.888 0.057 6.67 2.16 8.61
6/30/2021 5:00:00 PM 22.08 71.744 0.057 6.65 2.09 8.57
6/30/2021 5:15:00 PM 22 71.6 0.057 6.63 2.16 8.54
6/30/2021 5:30:00 PM 21.91 71.438 0.057 6.61 2.15 8.53
6/30/2021 5:45:00 PM 21.83 71.294 0.057 6.6 2.28 8.54
6/30/2021 6:00:00 PM 21.76 71.168 0.057 6.59 2.38 8.56
6/30/2021 6:15:00 PM 21.69 71.042 0.057 6.59 2.33 8.57
6/30/2021 6:30:00 PM 21.64 70.952 0.057 6.59 2.44 8.6
6/30/2021 6:45:00 PM 21.61 70.898 0.057 6.6 2.36 8.63
6/30/2021 7:00:00 PM 21.58 70.844 0.057 6.6 2.53 8.65
6/30/2021 7:15:00 PM 21.54 70.772 0.057 6.6 2.66 8.65
6/30/2021 7:30:00 PM 21.5 70.7 0.056 6.59 2.51 8.64
6/30/2021 7:45:00 PM 21.46 70.628 0.056 6.58 2.66 8.64
6/30/2021 8:00:00 PM 21.41 70.538 0.056 6.57 2.69 8.65
6/30/2021 8:15:00 PM 21.35 70.43 0.056 6.57 2.74 8.65
6/30/2021 8:30:00 PM 21.3 70.34 0.056 6.57 2.63 8.65
6/30/2021 8:45:00 PM 21.24 70.232 0.057 6.57 2.66 8.64
6/30/2021 9:00:00 PM 21.18 70.124 0.057 6.57 2.61 8.64
6/30/2021 9:15:00 PM 21.12 70.016 0.057 6.56 2.73 8.65
6/30/2021 9:30:00 PM 21.05 69.89 0.057 6.56 2.55 8.66
6/30/2021 9:45:00 PM 20.99 69.782 0.057 6.55 2.59 8.67
6/30/2021 10:00:00 PM 20.92 69.656 0.058 6.56 2.47 8.68
6/30/2021 10:15:00 PM 20.86 69.548 0.058 6.56 2.49 8.69
6/30/2021 10:30:00 PM 20.8 69.44 0.058 6.55 2.41 8.7
6/30/2021 10:45:00 PM 20.73 69.314 0.058 6.55 2.46 8.72
6/30/2021 11:00:00 PM 20.67 69.206 0.059 6.56 2.36 8.72
6/30/2021 11:15:00 PM 20.61 69.098 0.059 6.56 2.44 8.74
6/30/2021 11:30:00 PM 20.56 69.008 0.059 6.56 2.35 8.75
6/30/2021 11:45:00 PM 20.5 68.9 0.059 6.56 2.38 8.76
7/1/2021 12:00:00 AM 20.45 68.81 0.059 6.56 2.41 8.77
7/1/2021 12:15:00 AM 20.4 68.72 0.059 6.56 2.34 8.78
7/1/2021 12:30:00 AM 20.35 68.63 0.058 6.56 2.47 8.79
7/1/2021 12:45:00 AM 20.31 68.558 0.058 6.56 2.35 8.8
7/1/2021 1:00:00 AM 20.26 68.468 0.058 6.56 2.42 8.8
7/1/2021 1:15:00 AM 20.22 68.396 0.058 6.56 2.35 8.82
7/1/2021 1:30:00 AM 20.18 68.324 0.058 6.55 2.43 8.82
7/1/2021 1:45:00 AM 20.14 68.252 0.058 6.55 2.28 8.83
7/1/2021 2:00:00 AM 20.1 68.18 0.058 6.55 2.19 8.83
7/1/2021 2:15:00 AM 20.07 68.126 0.058 6.55 2.14 8.84
7/1/2021 2:30:00 AM 20.03 68.054 0.058 6.56 2.21 8.85
7/1/2021 2:45:00 AM 19.99 67.982 0.058 6.55 2.35 8.86
7/1/2021 3:00:00 AM 19.96 67.92799 0.058 6.54 2.2 8.86
7/1/2021 3:15:00 AM 19.93 67.874 0.058 6.55 2.31 8.87
7/1/2021 3:30:00 AM 19.89 67.802 0.058 6.55 2.16 8.87
7/1/2021 3:45:00 AM 19.86 67.748 0.058 6.55 2.09 8.88
7/1/2021 4:00:00 AM 19.83 67.694 0.059 6.55 2.25 8.88
7/1/2021 4:15:00 AM 19.8 67.64 0.059 6.55 2.07 8.89
7/1/2021 4:30:00 AM 19.77 67.586 0.059 6.56 2.02 8.89
7/1/2021 4:45:00 AM 19.74 67.532 0.059 6.55 2.12 8.9
7/1/2021 5:00:00 AM 19.71 67.478 0.059 6.55 2.09 8.9
7/1/2021 5:15:00 AM 19.69 67.442 0.059 6.56 2.12 8.9
7/1/2021 5:30:00 AM 19.66 67.388 0.058 6.56 2.19 8.91
7/1/2021 5:45:00 AM 19.64 67.352 0.058 6.56 2.16 8.92
7/1/2021 6:00:00 AM 19.62 67.316 0.058 6.56 2.08 8.92
7/1/2021 6:15:00 AM 19.6 67.28 0.058 6.56 2.14 8.94
7/1/2021 6:30:00 AM 19.58 67.244 0.058 6.56 2.17 8.94
7/1/2021 6:45:00 AM 19.56 67.208 0.058 6.56 2.14 8.95
7/1/2021 7:00:00 AM 19.54 67.172 0.058 6.56 2.12 8.96
7/1/2021 7:15:00 AM 19.53 67.154 0.058 6.55 2.37 8.96
7/1/2021 7:30:00 AM 19.52 67.136 0.058 6.55 2.24 8.96
7/1/2021 7:45:00 AM 19.51 67.118 0.058 6.56 2.16 8.98
7/1/2021 8:00:00 AM 19.5 67.1 0.058 6.58 2.15 9.01
7/1/2021 8:15:00 AM 19.5 67.1 0.058 6.58 2.13 9.03
7/1/2021 8:30:00 AM 19.49 67.082 0.058 6.6 2.13 9.06
7/1/2021 8:45:00 AM 19.49 67.082 0.058 6.6 2.18 9.09
7/1/2021 9:00:00 AM 19.5 67.1 0.058 6.62 2.2 9.12
7/1/2021 9:15:00 AM 19.51 67.118 0.058 6.63 2.14 9.14
7/1/2021 9:30:00 AM 19.51 67.118 0.058 6.63 2.14 9.14
7/1/2021 9:45:00 AM 19.51 67.118 0.058 6.63 2.25 9.11
7/1/2021 10:00:00 AM 19.52 67.136 0.058 6.63 2.13 9.12
7/1/2021 10:15:00 AM 19.53 67.154 0.058 6.64 2.32 9.14
7/1/2021 10:30:00 AM 19.53 67.154 0.058 6.64 2.26 9.11
7/1/2021 10:45:00 AM 19.53 67.154 0.058 6.64 2.1 9.12
7/1/2021 11:00:00 AM 19.55 67.19 0.058 6.65 2.19 9.15
7/1/2021 11:15:00 AM 19.56 67.208 0.058 6.67 2.1 9.17
7/1/2021 11:30:00 AM 19.57 67.226 0.058 6.68 2.21 9.16
7/1/2021 11:45:00 AM 19.58 67.244 0.058 6.69 2.17 9.18
7/1/2021 12:00:00 PM 19.58 67.244 0.058 6.68 2.23 9.13
7/1/2021 12:15:00 PM 19.6 67.28 0.058 6.68 2.19 9.16
7/1/2021 12:30:00 PM 19.62 67.316 0.058 6.7 2.07 9.2
7/1/2021 12:45:00 PM 19.63 67.334 0.058 6.69 2.08 9.15
7/1/2021 1:00:00 PM 19.62 67.316 0.058 6.68 2.18 9.12
7/1/2021 1:15:00 PM 19.62 67.316 0.058 6.68 2.3 9.14
7/1/2021 1:30:00 PM 19.64 67.352 0.058 6.69 2.09 9.16
7/1/2021 1:45:00 PM 19.63 67.334 0.058 6.71 2.22 9.16
7/1/2021 2:00:00 PM 19.64 67.352 0.058 6.71 2.16 9.17
7/1/2021 2:15:00 PM 19.65 67.37 0.058 6.72 2.1 9.17
7/1/2021 2:30:00 PM 19.65 67.37 0.058 6.71 2.19 9.14
7/1/2021 2:45:00 PM 19.65 67.37 0.058 6.7 2.3 9.12
7/1/2021 3:00:00 PM 19.66 67.388 0.058 6.71 2.18 9.12
7/1/2021 3:15:00 PM 19.67 67.406 0.058 6.73 2.22 9.17
7/1/2021 3:30:00 PM 19.71 67.478 0.058 6.75 2.42 9.19
7/1/2021 3:45:00 PM 19.72 67.496 0.058 6.74 2.21 9.15
7/1/2021 4:00:00 PM 19.72 67.496 0.058 6.74 2.34 9.15
7/1/2021 4:15:00 PM 19.74 67.532 0.058 6.74 2.19 9.14
7/1/2021 4:30:00 PM 19.74 67.532 0.058 6.73 2.34 9.11
7/1/2021 4:45:00 PM 19.72 67.496 0.058 6.72 2.28 9.05
7/1/2021 5:00:00 PM 19.71 67.478 0.058 6.7 2.16 9.05
7/1/2021 5:15:00 PM 19.7 67.46 0.058 6.68 2.19 9.03
7/1/2021 5:30:00 PM 19.68 67.424 0.058 6.67 2.27 9.01
7/1/2021 5:45:00 PM 19.66 67.388 0.058 6.65 2.14 9
7/1/2021 6:00:00 PM 19.66 67.388 0.058 6.66 2.08 9.06
7/1/2021 6:15:00 PM 19.65 67.37 0.058 6.68 2.11 9.07
7/1/2021 6:30:00 PM 19.64 67.352 0.058 6.68 2.11 9.07
7/1/2021 6:45:00 PM 19.62 67.316 0.059 6.66 2.07 9.04
7/1/2021 7:00:00 PM 19.6 67.28 0.059 6.64 2.2 9
7/1/2021 7:15:00 PM 19.58 67.244 0.059 6.61 2.16 8.98
7/1/2021 7:30:00 PM 19.56 67.208 0.059 6.59 2.14 8.96
7/1/2021 7:45:00 PM 19.54 67.172 0.059 6.59 2.08 8.96
7/1/2021 8:00:00 PM 19.52 67.136 0.059 6.59 2.1 8.96
7/1/2021 8:15:00 PM 19.49 67.082 0.059 6.58 2.18 8.95
7/1/2021 8:30:00 PM 19.47 67.046 0.059 6.58 2.07 8.95
7/1/2021 8:45:00 PM 19.44 66.992 0.059 6.58 2.14 8.94
7/1/2021 9:00:00 PM 19.41 66.938 0.059 6.57 2.26 8.94
7/1/2021 9:15:00 PM 19.38 66.884 0.059 6.57 2.16 8.94
7/1/2021 9:30:00 PM 19.35 66.83 0.059 6.56 2.26 8.95
7/1/2021 9:45:00 PM 19.33 66.794 0.059 6.56 2.25 8.95
7/1/2021 10:00:00 PM 19.3 66.74 0.059 6.56 2.42 8.96
7/1/2021 10:15:00 PM 19.28 66.704 0.059 6.56 2.24 8.97
7/1/2021 10:30:00 PM 19.25 66.65 0.059 6.56 2.29 8.97
7/1/2021 10:45:00 PM 19.22 66.596 0.059 6.57 2.17 8.98
7/1/2021 11:00:00 PM 19.19 66.542 0.059 6.58 2.23 8.99
7/1/2021 11:15:00 PM 19.16 66.488 0.059 6.57 2.37 8.99
7/1/2021 11:30:00 PM 19.14 66.452 0.059 6.56 2.21 9
7/1/2021 11:45:00 PM 19.11 66.398 0.059 6.57 2.19 9
7/2/2021 12:00:00 AM 19.08 66.344 0.058 6.57 2.21 9.01
7/2/2021 12:15:00 AM 19.05 66.29 0.058 6.57 2.27 9.02
7/2/2021 12:30:00 AM 19.02 66.236 0.058 6.57 2.29 9.02
7/2/2021 12:45:00 AM 19 66.2 0.058 6.56 2.19 9.03
7/2/2021 1:00:00 AM 18.97 66.146 0.058 6.56 2.14 9.03
7/2/2021 1:15:00 AM 18.94 66.092 0.058 6.56 2.13 9.04
7/2/2021 1:30:00 AM 18.91 66.038 0.058 6.56 2.22 9.05
7/2/2021 1:45:00 AM 18.89 66.002 0.058 6.56 2.19 9.05
7/2/2021 2:00:00 AM 18.86 65.948 0.058 6.56 2.18 9.06
7/2/2021 2:15:00 AM 18.83 65.894 0.058 6.56 2.1 9.06
7/2/2021 2:30:00 AM 18.8 65.84 0.058 6.55 2.26 9.07
7/2/2021 2:45:00 AM 18.77 65.786 0.058 6.55 2.21 9.07
7/2/2021 3:00:00 AM 18.73 65.714 0.058 6.55 2.21 9.08
7/2/2021 3:15:00 AM 18.71 65.67799 0.058 6.55 2.23 9.08
7/2/2021 3:30:00 AM 18.68 65.624 0.058 6.55 2.08 9.09
7/2/2021 3:45:00 AM 18.65 65.57 0.058 6.55 2.27 9.09
7/2/2021 4:00:00 AM 18.63 65.534 0.058 6.55 2.11 9.1
7/2/2021 4:15:00 AM 18.6 65.48 0.058 6.55 2.25 9.1
7/2/2021 4:30:00 AM 18.57 65.426 0.058 6.55 2.24 9.11
7/2/2021 4:45:00 AM 18.53 65.354 0.058 6.55 2.29 9.12
7/2/2021 5:00:00 AM 18.5 65.3 0.058 6.55 2.15 9.12
7/2/2021 5:15:00 AM 18.47 65.246 0.058 6.55 2.14 9.13
7/2/2021 5:30:00 AM 18.45 65.21 0.058 6.55 2.23 9.14
7/2/2021 5:45:00 AM 18.42 65.156 0.058 6.55 2.23 9.14
7/2/2021 6:00:00 AM 18.39 65.102 0.058 6.55 2.26 9.15
7/2/2021 6:15:00 AM 18.36 65.048 0.058 6.55 2.23 9.16
7/2/2021 6:30:00 AM 18.34 65.012 0.057 6.55 2.13 9.18
7/2/2021 6:45:00 AM 18.32 64.976 0.057 6.56 2.19 9.21
7/2/2021 7:00:00 AM 18.3 64.94 0.057 6.56 2.1 9.22
7/2/2021 7:15:00 AM 18.28 64.904 0.057 6.56 2.16 9.24
7/2/2021 7:30:00 AM 18.27 64.886 0.057 6.58 2.21 9.27
7/2/2021 7:45:00 AM 18.26 64.868 0.057 6.6 2.19 9.3
7/2/2021 8:00:00 AM 18.26 64.868 0.057 6.62 2.31 9.32
7/2/2021 8:15:00 AM 18.26 64.868 0.057 6.63 2.13 9.33
7/2/2021 8:30:00 AM 18.26 64.868 0.057 6.64 2.14 9.35
7/2/2021 8:45:00 AM 18.27 64.886 0.057 6.66 2.14 9.38
7/2/2021 9:00:00 AM 18.28 64.904 0.057 6.67 2.26 9.39
7/2/2021 9:15:00 AM 18.29 64.922 0.057 6.68 2.24 9.4
7/2/2021 9:30:00 AM 18.31 64.958 0.057 6.7 2.35 9.41
7/2/2021 9:45:00 AM 18.34 65.012 0.057 6.71 2.2 9.43
7/2/2021 10:00:00 AM 18.39 65.102 0.057 6.72 2.1 9.43
7/2/2021 10:15:00 AM 18.43 65.174 0.057 6.73 2.35 9.44
7/2/2021 10:30:00 AM 18.46 65.228 0.057 6.74 3.33 9.42
7/2/2021 10:45:00 AM 18.53 65.354 0.057 6.76 2.13 9.44
7/2/2021 11:00:00 AM 18.59 65.462 0.057 6.77 2.28 9.43
7/2/2021 11:15:00 AM 18.7 65.66 0.057 6.76 2.02 9.42
7/2/2021 11:30:00 AM 18.76 65.768 0.057 6.77 1.96 9.4
7/2/2021 11:45:00 AM 18.83 65.894 0.056 6.78 1.92 9.41
7/2/2021 12:00:00 PM 18.93 66.074 0.056 6.79 2 9.4
7/2/2021 12:15:00 PM 19.06 66.308 0.056 6.8 2.25 9.39
7/2/2021 12:30:00 PM 19.19 66.542 0.056 6.81 2 9.37
7/2/2021 12:45:00 PM 19.28 66.704 0.056 6.79 1.87 9.32
7/2/2021 1:00:00 PM 19.29 66.722 0.056 6.75 2.08 9.2
7/2/2021 1:15:00 PM 19.23 66.614 0.056 6.69 2.43 9.13
7/2/2021 1:30:00 PM 19.13 66.434 0.055 6.68 2.49 9.14
7/2/2021 1:45:00 PM 19.17 66.506 0.055 6.7 2.28 9.2
7/2/2021 2:00:00 PM 19.37 66.866 0.055 6.72 2.21 9.24
7/2/2021 2:15:00 PM 19.52 67.136 0.055 6.74 2.09 9.23
7/2/2021 2:30:00 PM 19.54 67.172 0.055 6.76 2.11 9.23
7/2/2021 2:45:00 PM 19.59 67.262 0.055 6.78 2.15 9.23
7/2/2021 3:00:00 PM 19.52 67.136 0.056 6.78 2.34 9.21
7/2/2021 3:15:00 PM 19.49 67.082 0.056 6.77 2.21 9.19
7/2/2021 3:30:00 PM 19.46 67.028 0.056 6.74 2.12 9.12
7/2/2021 3:45:00 PM 19.41 66.938 0.056 6.7 2.12 9.06
7/2/2021 4:00:00 PM 19.4 66.92 0.056 6.69 2.08 9.03
7/2/2021 4:15:00 PM 19.36 66.848 0.056 6.67 2.06 9.03
7/2/2021 4:30:00 PM 19.28 66.704 0.056 6.66 2.11 9.03
7/2/2021 4:45:00 PM 19.17 66.506 0.056 6.66 2.01 9.04
7/2/2021 5:00:00 PM 19.08 66.344 0.057 6.66 2.02 9.06
7/2/2021 5:15:00 PM 19 66.2 0.057 6.66 2.05 9.09
7/2/2021 5:30:00 PM 18.93 66.074 0.056 6.66 1.94 9.12
7/2/2021 5:45:00 PM 18.87 65.966 0.057 6.68 2.01 9.14
7/2/2021 6:00:00 PM 18.84 65.912 0.057 6.69 1.96 9.18
7/2/2021 6:15:00 PM 18.82 65.876 0.057 6.68 1.98 9.2
7/2/2021 6:30:00 PM 18.79 65.82201 0.057 6.69 1.88 9.22
7/2/2021 6:45:00 PM 18.76 65.768 0.057 6.69 1.97 9.21
7/2/2021 7:00:00 PM 18.72 65.696 0.057 6.68 1.92 9.19
7/2/2021 7:15:00 PM 18.66 65.588 0.057 6.67 1.92 9.18
7/2/2021 7:30:00 PM 18.58 65.444 0.057 6.66 1.82 9.16
7/2/2021 7:45:00 PM 18.52 65.336 0.057 6.65 1.88 9.15
7/2/2021 8:00:00 PM 18.44 65.192 0.058 6.64 1.91 9.16
7/2/2021 8:15:00 PM 18.37 65.066 0.058 6.64 1.94 9.16
7/2/2021 8:30:00 PM 18.29 64.922 0.058 6.63 1.85 9.16
7/2/2021 8:45:00 PM 18.21 64.778 0.058 6.63 1.87 9.17
7/2/2021 9:00:00 PM 18.14 64.652 0.058 6.62 1.9 9.18
7/2/2021 9:15:00 PM 18.07 64.526 0.059 6.62 1.91 9.19
7/2/2021 9:30:00 PM 17.99 64.382 0.059 6.61 1.91 9.2
7/2/2021 9:45:00 PM 17.92 64.256 0.059 6.61 1.85 9.22
7/2/2021 10:00:00 PM 17.86 64.148 0.059 6.6 1.96 9.23
7/2/2021 10:15:00 PM 17.8 64.04 0.059 6.61 1.8 9.25
7/2/2021 10:30:00 PM 17.74 63.932 0.059 6.6 1.88 9.26
7/2/2021 10:45:00 PM 17.69 63.842 0.059 6.6 1.74 9.27
7/2/2021 11:00:00 PM 17.64 63.752 0.059 6.59 1.79 9.29
7/2/2021 11:15:00 PM 17.59 63.662 0.059 6.59 1.81 9.29
7/2/2021 11:30:00 PM 17.53 63.554 0.059 6.59 1.85 9.31
7/2/2021 11:45:00 PM 17.48 63.464 0.059 6.59 1.74 9.32
7/3/2021 12:00:00 AM 17.43 63.374 0.059 6.58 1.72 9.33
7/3/2021 12:15:00 AM 17.38 63.284 0.059 6.58 1.72 9.33
7/3/2021 12:30:00 AM 17.33 63.194 0.059 6.58 1.79 9.34
7/3/2021 12:45:00 AM 17.28 63.104 0.059 6.58 1.77 9.36
7/3/2021 1:00:00 AM 17.23 63.014 0.059 6.58 1.76 9.36
7/3/2021 1:15:00 AM 17.17 62.906 0.059 6.57 1.7 9.38
7/3/2021 1:30:00 AM 17.11 62.798 0.059 6.58 1.85 9.39
7/3/2021 1:45:00 AM 17.05 62.69 0.059 6.57 1.72 9.4
7/3/2021 2:00:00 AM 17.01 62.618 0.059 6.57 1.77 9.41
7/3/2021 2:15:00 AM 16.95 62.51 0.059 6.57 1.63 9.42
7/3/2021 2:30:00 AM 16.91 62.438 0.059 6.57 1.8 9.43
7/3/2021 2:45:00 AM 16.86 62.348 0.059 6.56 1.77 9.45
7/3/2021 3:00:00 AM 16.81 62.258 0.059 6.57 1.72 9.45
7/3/2021 3:15:00 AM 16.76 62.168 0.059 6.57 1.69 9.46
7/3/2021 3:30:00 AM 16.7 62.06 0.059 6.58 1.77 9.47
7/3/2021 3:45:00 AM 16.66 61.988 0.059 6.57 1.67 9.48
7/3/2021 4:00:00 AM 16.62 61.916 0.059 6.56 1.75 9.49
7/3/2021 4:15:00 AM 16.58 61.844 0.059 6.57 1.75 9.5
7/3/2021 4:30:00 AM 16.55 61.79 0.059 6.57 1.65 9.51
7/3/2021 4:45:00 AM 16.52 61.736 0.059 6.57 1.71 9.52
7/3/2021 5:00:00 AM 16.48 61.664 0.059 6.57 1.76 9.52
7/3/2021 5:15:00 AM 16.45 61.61 0.059 6.57 1.73 9.53
7/3/2021 5:30:00 AM 16.42 61.556 0.06 6.57 1.78 9.53
7/3/2021 5:45:00 AM 16.4 61.52 0.06 6.57 1.7 9.54
7/3/2021 6:00:00 AM 16.37 61.466 0.06 6.57 1.78 9.56
7/3/2021 6:15:00 AM 16.35 61.43 0.06 6.57 1.75 9.57
7/3/2021 6:30:00 AM 16.33 61.394 0.06 6.57 1.83 9.59
7/3/2021 6:45:00 AM 16.32 61.376 0.06 6.59 1.81 9.62
7/3/2021 7:00:00 AM 16.31 61.358 0.06 6.59 1.77 9.66
7/3/2021 7:15:00 AM 16.31 61.358 0.059 6.61 1.72 9.7
7/3/2021 7:30:00 AM 16.32 61.376 0.059 6.63 1.82 9.73
7/3/2021 7:45:00 AM 16.33 61.394 0.059 6.64 1.75 9.74
7/3/2021 8:00:00 AM 16.34 61.412 0.059 6.64 1.71 9.74
7/3/2021 8:15:00 AM 16.34 61.412 0.059 6.64 1.74 9.74
7/3/2021 8:30:00 AM 16.36 61.448 0.059 6.65 1.75 9.77
7/3/2021 8:45:00 AM 16.38 61.484 0.059 6.66 1.79 9.78
7/3/2021 9:00:00 AM 16.42 61.556 0.059 6.68 1.73 9.81
7/3/2021 9:15:00 AM 16.46 61.628 0.059 6.69 1.85 9.81
7/3/2021 9:30:00 AM 16.49 61.682 0.059 6.7 1.9 9.81
7/3/2021 9:45:00 AM 16.53 61.754 0.059 6.72 1.8 9.81
7/3/2021 10:00:00 AM 16.59 61.862 0.059 6.73 1.73 9.83
7/3/2021 10:15:00 AM 16.63 61.934 0.059 6.74 1.81 9.83
7/3/2021 10:30:00 AM 16.72 62.096 0.059 6.77 1.84 9.84
7/3/2021 10:45:00 AM 16.78 62.204 0.058 6.77 1.75 9.83
7/3/2021 11:00:00 AM 16.85 62.33 0.058 6.79 1.76 9.84
7/3/2021 11:15:00 AM 16.91 62.438 0.058 6.81 1.91 9.83
7/3/2021 11:30:00 AM 16.96 62.528 0.058 6.8 1.84 9.78
7/3/2021 11:45:00 AM 17 62.6 0.058 6.79 1.77 9.75
7/3/2021 12:00:00 PM 17.04 62.672 0.058 6.79 1.78 9.74
7/3/2021 12:15:00 PM 17.1 62.78 0.058 6.78 1.79 9.69
7/3/2021 12:30:00 PM 17.12 62.816 0.058 6.76 1.85 9.65
7/3/2021 12:45:00 PM 17.16 62.888 0.058 6.77 1.84 9.68
7/3/2021 1:00:00 PM 17.4 63.32 0.058 6.79 2.05 9.7
7/3/2021 1:15:00 PM 17.66 63.788 0.058 6.81 1.84 9.68
7/3/2021 1:30:00 PM 17.78 64.004 0.058 6.83 1.84 9.66
7/3/2021 1:45:00 PM 17.78 64.004 0.058 6.82 1.82 9.59
7/3/2021 2:00:00 PM 17.77 63.986 0.058 6.79 1.79 9.53
7/3/2021 2:15:00 PM 17.8 64.04 0.058 6.81 1.97 9.6
7/3/2021 2:30:00 PM 17.93 64.274 0.058 6.81 1.86 9.57
7/3/2021 2:45:00 PM 18.06 64.508 0.058 6.82 2.06 9.55
7/3/2021 3:00:00 PM 18.14 64.652 0.058 6.82 1.99 9.53
7/3/2021 3:15:00 PM 18.15 64.67 0.058 6.82 1.85 9.51
7/3/2021 3:30:00 PM 18.11 64.598 0.058 6.81 1.91 9.51
7/3/2021 3:45:00 PM 18.09 64.562 0.058 6.82 1.84 9.53
7/3/2021 4:00:00 PM 18.07 64.526 0.058 6.83 1.86 9.54
7/3/2021 4:15:00 PM 18.06 64.508 0.057 6.82 1.86 9.53
7/3/2021 4:30:00 PM 18.01 64.418 0.058 6.78 1.99 9.45
7/3/2021 4:45:00 PM 17.97 64.346 0.057 6.77 1.72 9.45
7/3/2021 5:00:00 PM 17.96 64.328 0.057 6.78 1.82 9.49
7/3/2021 5:15:00 PM 17.94 64.292 0.057 6.78 1.82 9.49
7/3/2021 5:30:00 PM 17.92 64.256 0.057 6.77 1.93 9.48
7/3/2021 5:45:00 PM 17.89 64.202 0.057 6.73 1.88 9.43
7/3/2021 6:00:00 PM 17.86 64.148 0.057 6.72 1.99 9.41
7/3/2021 6:15:00 PM 17.84 64.112 0.057 6.7 1.99 9.39
7/3/2021 6:30:00 PM 17.82 64.076 0.057 6.68 1.91 9.36
7/3/2021 6:45:00 PM 17.79 64.022 0.057 6.68 1.91 9.34
7/3/2021 7:00:00 PM 17.75 63.95 0.057 6.66 2.07 9.34
7/3/2021 7:15:00 PM 17.71 63.878 0.057 6.66 2.06 9.35
7/3/2021 7:30:00 PM 17.67 63.806 0.057 6.66 1.85 9.36
7/3/2021 7:45:00 PM 17.64 63.752 0.057 6.65 2.11 9.37
7/3/2021 8:00:00 PM 17.61 63.698 0.057 6.65 2.01 9.4
7/3/2021 8:15:00 PM 17.57 63.626 0.057 6.65 1.98 9.41
7/3/2021 8:30:00 PM 17.54 63.572 0.057 6.64 2.05 9.39
7/3/2021 8:45:00 PM 17.49 63.482 0.057 6.63 2.01 9.38
7/3/2021 9:00:00 PM 17.45 63.41 0.057 6.62 2.14 9.39
7/3/2021 9:15:00 PM 17.39 63.302 0.057 6.61 2.11 9.39
7/3/2021 9:30:00 PM 17.33 63.194 0.057 6.61 2.14 9.4
7/3/2021 9:45:00 PM 17.28 63.104 0.057 6.6 2.14 9.41
7/3/2021 10:00:00 PM 17.23 63.014 0.057 6.59 2.09 9.42
7/3/2021 10:15:00 PM 17.18 62.924 0.056 6.59 2.07 9.43
7/3/2021 10:30:00 PM 17.13 62.834 0.056 6.59 2.12 9.45
7/3/2021 10:45:00 PM 17.08 62.744 0.056 6.59 2.07 9.46
7/3/2021 11:00:00 PM 17.03 62.654 0.056 6.58 2.04 9.47
7/3/2021 11:15:00 PM 16.98 62.564 0.056 6.57 2.15 9.48
7/3/2021 11:30:00 PM 16.92 62.456 0.056 6.56 2.02 9.49
7/3/2021 11:45:00 PM 16.88 62.384 0.056 6.56 2.03 9.5
7/4/2021 12:00:00 AM 16.82 62.276 0.056 6.57 2.05 9.51
7/4/2021 12:15:00 AM 16.77 62.186 0.056 6.56 2.02 9.52
7/4/2021 12:30:00 AM 16.72 62.096 0.056 6.55 1.97 9.53
7/4/2021 12:45:00 AM 16.67 62.006 0.055 6.55 2.05 9.55
7/4/2021 1:00:00 AM 16.61 61.898 0.055 6.56 2.12 9.56
7/4/2021 1:15:00 AM 16.56 61.808 0.055 6.55 2.04 9.57
7/4/2021 1:30:00 AM 16.52 61.736 0.055 6.55 2.05 9.58
7/4/2021 1:45:00 AM 16.47 61.646 0.055 6.55 2.05 9.59
7/4/2021 2:00:00 AM 16.42 61.556 0.055 6.55 2.05 9.59
7/4/2021 2:15:00 AM 16.36 61.448 0.055 6.55 2.01 9.61
7/4/2021 2:30:00 AM 16.31 61.358 0.055 6.55 2 9.62
7/4/2021 2:45:00 AM 16.26 61.268 0.055 6.54 1.93 9.63
7/4/2021 3:00:00 AM 16.21 61.178 0.055 6.54 1.97 9.64
7/4/2021 3:15:00 AM 16.15 61.07 0.055 6.54 2.09 9.65
7/4/2021 3:30:00 AM 16.1 60.98 0.055 6.53 2.03 9.66
7/4/2021 3:45:00 AM 16.04 60.872 0.055 6.52 2.06 9.67
7/4/2021 4:00:00 AM 15.99 60.782 0.055 6.52 1.94 9.68
7/4/2021 4:15:00 AM 15.93 60.674 0.055 6.52 1.96 9.7
7/4/2021 4:30:00 AM 15.88 60.584 0.055 6.52 1.98 9.71
7/4/2021 4:45:00 AM 15.83 60.494 0.055 6.51 1.93 9.72
7/4/2021 5:00:00 AM 15.78 60.404 0.055 6.51 1.98 9.73
7/4/2021 5:15:00 AM 15.73 60.314 0.055 6.52 1.97 9.74
7/4/2021 5:30:00 AM 15.67 60.206 0.055 6.51 2 9.75
7/4/2021 5:45:00 AM 15.62 60.116 0.055 6.51 2 9.76
7/4/2021 6:00:00 AM 15.58 60.044 0.055 6.51 1.98 9.78
7/4/2021 6:15:00 AM 15.55 59.99 0.055 6.52 1.94 9.8
7/4/2021 6:30:00 AM 15.51 59.918 0.055 6.52 2.04 9.82
7/4/2021 6:45:00 AM 15.48 59.864 0.055 6.54 1.98 9.85
7/4/2021 7:00:00 AM 15.46 59.828 0.055 6.54 1.97 9.86
7/4/2021 7:15:00 AM 15.44 59.792 0.055 6.54 1.92 9.88
7/4/2021 7:30:00 AM 15.42 59.756 0.055 6.55 1.9 9.89
7/4/2021 7:45:00 AM 15.42 59.756 0.055 6.56 1.91 9.92
7/4/2021 8:00:00 AM 15.41 59.738 0.055 6.57 1.94 9.95
7/4/2021 8:15:00 AM 15.42 59.756 0.055 6.58 1.91 9.98
7/4/2021 8:30:00 AM 15.43 59.774 0.055 6.59 1.89 10.02
7/4/2021 8:45:00 AM 15.45 59.81 0.055 6.6 1.96 10.02
7/4/2021 9:00:00 AM 15.47 59.846 0.055 6.62 1.86 10.03
7/4/2021 9:15:00 AM 15.5 59.9 0.055 6.63 1.87 10.05
7/4/2021 9:30:00 AM 15.56 60.008 0.055 6.65 1.9 10.07
7/4/2021 9:45:00 AM 15.63 60.134 0.055 6.65 1.85 10.03
7/4/2021 10:00:00 AM 15.74 60.332 0.055 6.65 1.87 10.02
7/4/2021 10:15:00 AM 15.87 60.566 0.055 6.67 1.94 10
7/4/2021 10:30:00 AM 15.99 60.782 0.055 6.69 1.93 9.98
7/4/2021 10:45:00 AM 16.12 61.016 0.055 6.7 1.8 9.98
7/4/2021 11:00:00 AM 16.27 61.286 0.055 6.72 1.88 9.97
7/4/2021 11:15:00 AM 16.45 61.61 0.055 6.73 1.97 9.96
7/4/2021 11:30:00 AM 16.63 61.934 0.055 6.76 1.9 9.95
7/4/2021 11:45:00 AM 16.73 62.114 0.055 6.75 1.87 9.87
7/4/2021 12:00:00 PM 16.95 62.51 0.055 6.77 1.76 9.85
7/4/2021 12:15:00 PM 17.14 62.852 0.055 6.77 1.94 9.83
7/4/2021 12:30:00 PM 17.34 63.212 0.055 6.79 1.82 9.8
7/4/2021 12:45:00 PM 17.42 63.356 0.055 6.76 1.9 9.68
7/4/2021 1:00:00 PM 17.41 63.338 0.055 6.74 1.96 9.67
7/4/2021 1:15:00 PM 17.58 63.644 0.055 6.77 1.92 9.7
7/4/2021 1:30:00 PM 17.62 63.716 0.055 6.76 1.86 9.65
7/4/2021 1:45:00 PM 17.69 63.842 0.055 6.76 1.85 9.67
7/4/2021 2:00:00 PM 17.82 64.076 0.055 6.75 1.86 9.6
7/4/2021 2:15:00 PM 17.7 63.86 0.055 6.74 1.87 9.6
7/4/2021 2:30:00 PM 17.8 64.04 0.055 6.74 2 9.6
7/4/2021 2:45:00 PM 17.89 64.202 0.055 6.75 1.87 9.58
7/4/2021 3:00:00 PM 17.9 64.22 0.055 6.74 1.9 9.59
7/4/2021 3:15:00 PM 18.03 64.454 0.055 6.76 1.86 9.58
7/4/2021 3:30:00 PM 18 64.4 0.055 6.73 1.8 9.51
7/4/2021 3:45:00 PM 17.93 64.274 0.055 6.71 2.01 9.49
7/4/2021 4:00:00 PM 17.93 64.274 0.055 6.71 1.82 9.54
7/4/2021 4:15:00 PM 17.96 64.328 0.055 6.72 1.91 9.53
7/4/2021 4:30:00 PM 17.96 64.328 0.055 6.72 1.87 9.52
7/4/2021 4:45:00 PM 17.97 64.346 0.055 6.73 1.85 9.54
7/4/2021 5:00:00 PM 17.95 64.31 0.055 6.72 1.75 9.54
7/4/2021 5:15:00 PM 17.92 64.256 0.055 6.72 1.89 9.53
7/4/2021 5:30:00 PM 17.9 64.22 0.056 6.7 1.84 9.52
7/4/2021 5:45:00 PM 17.91 64.238 0.056 6.71 1.83 9.53
7/4/2021 6:00:00 PM 17.91 64.238 0.056 6.69 1.85 9.49
7/4/2021 6:15:00 PM 17.91 64.238 0.056 6.68 1.83 9.46
7/4/2021 6:30:00 PM 17.92 64.256 0.056 6.66 1.84 9.42
7/4/2021 6:45:00 PM 17.92 64.256 0.056 6.64 1.89 9.4
7/4/2021 7:00:00 PM 17.91 64.238 0.056 6.64 1.82 9.38
7/4/2021 7:15:00 PM 17.89 64.202 0.056 6.63 1.85 9.37
7/4/2021 7:30:00 PM 17.87 64.166 0.056 6.62 1.97 9.37
7/4/2021 7:45:00 PM 17.84 64.112 0.056 6.61 1.95 9.37
7/4/2021 8:00:00 PM 17.8 64.04 0.056 6.61 1.78 9.37
7/4/2021 8:15:00 PM 17.76 63.968 0.056 6.61 1.85 9.37
7/4/2021 8:30:00 PM 17.72 63.896 0.056 6.6 1.71 9.36
7/4/2021 8:45:00 PM 17.69 63.842 0.056 6.6 1.82 9.36
7/4/2021 9:00:00 PM 17.65 63.77 0.056 6.59 1.85 9.36
7/4/2021 9:15:00 PM 17.61 63.698 0.056 6.6 1.91 9.37
7/4/2021 9:30:00 PM 17.56 63.608 0.057 6.6 1.8 9.37
7/4/2021 9:45:00 PM 17.52 63.536 0.057 6.59 1.81 9.38
7/4/2021 10:00:00 PM 17.48 63.464 0.057 6.59 1.73 9.39
7/4/2021 10:15:00 PM 17.43 63.374 0.057 6.6 1.72 9.4
7/4/2021 10:30:00 PM 17.39 63.302 0.057 6.6 1.76 9.41
7/4/2021 10:45:00 PM 17.34 63.212 0.057 6.59 1.72 9.42
7/4/2021 11:00:00 PM 17.29 63.122 0.057 6.59 1.73 9.43
7/4/2021 11:15:00 PM 17.24 63.032 0.057 6.59 1.73 9.45
7/4/2021 11:30:00 PM 17.2 62.96 0.057 6.59 1.82 9.46
7/4/2021 11:45:00 PM 17.15 62.87 0.057 6.59 1.78 9.46
7/5/2021 12:00:00 AM 17.1 62.78 0.057 6.59 1.78 9.48
7/5/2021 12:15:00 AM 17.05 62.69 0.057 6.59 1.68 9.49
7/5/2021 12:30:00 AM 17 62.6 0.057 6.58 1.69 9.5
7/5/2021 12:45:00 AM 16.95 62.51 0.057 6.58 1.77 9.51
7/5/2021 1:00:00 AM 16.9 62.42 0.057 6.58 1.75 9.52
7/5/2021 1:15:00 AM 16.85 62.33 0.057 6.58 1.67 9.53
7/5/2021 1:30:00 AM 16.8 62.24 0.057 6.58 1.77 9.54
7/5/2021 1:45:00 AM 16.75 62.15 0.057 6.58 1.8 9.55
7/5/2021 2:00:00 AM 16.7 62.06 0.057 6.57 1.75 9.56
7/5/2021 2:15:00 AM 16.66 61.988 0.057 6.57 1.67 9.57
7/5/2021 2:30:00 AM 16.61 61.898 0.058 6.57 1.74 9.58
7/5/2021 2:45:00 AM 16.56 61.808 0.058 6.57 1.77 9.59
7/5/2021 3:00:00 AM 16.51 61.718 0.058 6.57 1.88 9.6
7/5/2021 3:15:00 AM 16.46 61.628 0.058 6.57 1.69 9.61
7/5/2021 3:30:00 AM 16.41 61.538 0.058 6.57 1.76 9.62
7/5/2021 3:45:00 AM 16.37 61.466 0.058 6.57 1.75 9.63
7/5/2021 4:00:00 AM 16.33 61.394 0.058 6.57 1.72 9.64
7/5/2021 4:15:00 AM 16.28 61.304 0.058 6.56 1.65 9.65
7/5/2021 4:30:00 AM 16.23 61.214 0.058 6.56 1.69 9.66
7/5/2021 4:45:00 AM 16.18 61.124 0.058 6.56 2.65 9.67
7/5/2021 5:00:00 AM 16.14 61.052 0.058 6.56 1.74 9.68
7/5/2021 5:15:00 AM 16.09 60.962 0.058 6.56 1.75 9.69
7/5/2021 5:30:00 AM 16.04 60.872 0.058 6.56 1.85 9.7
7/5/2021 5:45:00 AM 15.99 60.782 0.058 6.56 1.75 9.71
7/5/2021 6:00:00 AM 15.95 60.71 0.058 6.55 1.82 9.73
7/5/2021 6:15:00 AM 15.9 60.62 0.058 6.56 1.77 9.75
7/5/2021 6:30:00 AM 15.87 60.566 0.058 6.57 1.76 9.78
7/5/2021 6:45:00 AM 15.83 60.494 0.058 6.57 1.65 9.8
7/5/2021 7:00:00 AM 15.81 60.458 0.058 6.58 1.78 9.82
7/5/2021 7:15:00 AM 15.79 60.422 0.058 6.59 1.73 9.84
7/5/2021 7:30:00 AM 15.78 60.404 0.058 6.6 1.72 9.87
7/5/2021 7:45:00 AM 15.77 60.386 0.058 6.6 1.69 9.89
7/5/2021 8:00:00 AM 15.77 60.386 0.058 6.61 1.76 9.91
7/5/2021 8:15:00 AM 15.78 60.404 0.058 6.62 1.73 9.92
7/5/2021 8:30:00 AM 15.81 60.458 0.058 6.63 1.73 9.94
7/5/2021 8:45:00 AM 15.85 60.53 0.058 6.63 1.63 9.96
7/5/2021 9:00:00 AM 15.91 60.638 0.058 6.65 1.73 9.97
7/5/2021 9:15:00 AM 15.99 60.782 0.058 6.67 1.62 9.98
7/5/2021 9:30:00 AM 16.07 60.926 0.058 6.67 1.68 9.99
7/5/2021 9:45:00 AM 16.15 61.07 0.058 6.69 1.75 9.99
7/5/2021 10:00:00 AM 16.26 61.268 0.058 6.71 1.71 9.99
7/5/2021 10:15:00 AM 16.38 61.484 0.058 6.73 1.77 9.99
7/5/2021 10:30:00 AM 16.51 61.718 0.058 6.74 1.79 9.98
7/5/2021 10:45:00 AM 16.65 61.97 0.058 6.76 1.65 9.97
7/5/2021 11:00:00 AM 16.8 62.24 0.058 6.77 1.65 9.96
7/5/2021 11:15:00 AM 16.97 62.546 0.058 6.79 1.67 9.94
7/5/2021 11:30:00 AM 17.13 62.834 0.058 6.81 1.73 9.92
7/5/2021 11:45:00 AM 17.32 63.176 0.058 6.82 1.72 9.89
7/5/2021 12:00:00 PM 17.54 63.572 0.058 6.83 1.63 9.84
7/5/2021 12:15:00 PM 17.8 64.04 0.058 6.84 1.75 9.79
7/5/2021 12:30:00 PM 18.03 64.454 0.058 6.85 1.75 9.74
7/5/2021 12:45:00 PM 18.28 64.904 0.058 6.85 1.75 9.68
7/5/2021 1:00:00 PM 18.49 65.282 0.058 6.86 1.78 9.63
7/5/2021 1:15:00 PM 18.76 65.768 0.058 6.86 1.68 9.59
7/5/2021 1:30:00 PM 19.03 66.254 0.058 6.88 1.7 9.54
7/5/2021 1:45:00 PM 19.24 66.632 0.058 6.88 1.79 9.49
7/5/2021 2:00:00 PM 19.37 66.866 0.058 6.88 1.73 9.46
7/5/2021 2:15:00 PM 19.52 67.136 0.058 6.88 1.72 9.42
7/5/2021 2:30:00 PM 19.65 67.37 0.058 6.88 1.8 9.39
7/5/2021 2:45:00 PM 19.69 67.442 0.058 6.88 1.65 9.36
7/5/2021 3:00:00 PM 19.7 67.46 0.058 6.87 1.77 9.34
7/5/2021 3:15:00 PM 19.69 67.442 0.058 6.87 2.09 9.33
7/5/2021 3:30:00 PM 19.71 67.478 0.058 6.86 1.7 9.31
7/5/2021 3:45:00 PM 19.71 67.478 0.058 6.85 1.73 9.3
7/5/2021 4:00:00 PM 19.69 67.442 0.058 6.84 1.68 9.29
7/5/2021 4:15:00 PM 19.66 67.388 0.058 6.84 1.65 9.27
7/5/2021 4:30:00 PM 19.62 67.316 0.058 6.83 1.76 9.27
7/5/2021 4:45:00 PM 19.58 67.244 0.058 6.82 1.8 9.26
7/5/2021 5:00:00 PM 19.53 67.154 0.058 6.8 1.62 9.25
7/5/2021 5:15:00 PM 19.49 67.082 0.058 6.8 1.66 9.25
7/5/2021 5:30:00 PM 19.47 67.046 0.058 6.79 1.67 9.24
7/5/2021 5:45:00 PM 19.44 66.992 0.058 6.77 1.74 9.23
7/5/2021 6:00:00 PM 19.41 66.938 0.059 6.76 1.66 9.22
7/5/2021 6:15:00 PM 19.38 66.884 0.059 6.74 1.65 9.21
7/5/2021 6:30:00 PM 19.35 66.83 0.059 6.73 1.77 9.19
7/5/2021 6:45:00 PM 19.32 66.776 0.059 6.72 1.69 9.18
7/5/2021 7:00:00 PM 19.3 66.74 0.059 6.71 1.62 9.17
7/5/2021 7:15:00 PM 19.27 66.686 0.059 6.7 1.61 9.15
7/5/2021 7:30:00 PM 19.24 66.632 0.059 6.68 1.65 9.14
7/5/2021 7:45:00 PM 19.22 66.596 0.059 6.68 1.69 9.13
7/5/2021 8:00:00 PM 19.19 66.542 0.059 6.67 1.69 9.11
7/5/2021 8:15:00 PM 19.16 66.488 0.059 6.65 1.73 9.1
7/5/2021 8:30:00 PM 19.13 66.434 0.059 6.64 1.66 9.08
7/5/2021 8:45:00 PM 19.09 66.362 0.059 6.63 1.68 9.06
7/5/2021 9:00:00 PM 19.06 66.308 0.06 6.62 1.71 9.06
7/5/2021 9:15:00 PM 19.02 66.236 0.06 6.62 1.78 9.06
7/5/2021 9:30:00 PM 18.98 66.164 0.06 6.62 1.76 9.06
7/5/2021 9:45:00 PM 18.94 66.092 0.06 6.62 1.7 9.07
7/5/2021 10:00:00 PM 18.9 66.02 0.06 6.61 1.69 9.08
7/5/2021 10:15:00 PM 18.86 65.948 0.06 6.61 1.66 9.09
7/5/2021 10:30:00 PM 18.81 65.858 0.06 6.61 1.68 9.1
7/5/2021 10:45:00 PM 18.77 65.786 0.06 6.61 1.68 9.11
7/5/2021 11:00:00 PM 18.72 65.696 0.06 6.61 1.66 9.11
7/5/2021 11:15:00 PM 18.67 65.606 0.06 6.61 1.64 9.13
7/5/2021 11:30:00 PM 18.63 65.534 0.06 6.61 1.64 9.14
7/5/2021 11:45:00 PM 18.58 65.444 0.06 6.61 1.68 9.14
7/6/2021 12:00:00 AM 18.53 65.354 0.06 6.6 1.73 9.15
7/6/2021 12:15:00 AM 18.49 65.282 0.06 6.61 1.6 9.16
7/6/2021 12:30:00 AM 18.44 65.192 0.06 6.6 1.68 9.17
7/6/2021 12:45:00 AM 18.4 65.12 0.06 6.6 1.59 9.18
7/6/2021 1:00:00 AM 18.35 65.03 0.06 6.6 1.58 9.19
7/6/2021 1:15:00 AM 18.31 64.958 0.06 6.61 1.65 9.2
7/6/2021 1:30:00 AM 18.27 64.886 0.06 6.61 1.57 9.2
7/6/2021 1:45:00 AM 18.22 64.796 0.06 6.6 1.65 9.22
7/6/2021 2:00:00 AM 18.18 64.724 0.06 6.6 1.68 9.22
7/6/2021 2:15:00 AM 18.14 64.652 0.06 6.6 1.69 9.22
7/6/2021 2:30:00 AM 18.1 64.58 0.06 6.6 1.69 9.23
7/6/2021 2:45:00 AM 18.06 64.508 0.06 6.6 1.58 9.24
7/6/2021 3:00:00 AM 18.02 64.436 0.06 6.59 1.62 9.25
7/6/2021 3:15:00 AM 17.98 64.364 0.06 6.59 1.6 9.26
7/6/2021 3:30:00 AM 17.95 64.31 0.06 6.59 1.6 9.27
7/6/2021 3:45:00 AM 17.91 64.238 0.06 6.59 1.57 9.27
7/6/2021 4:00:00 AM 17.87 64.166 0.06 6.59 1.61 9.28
7/6/2021 4:15:00 AM 17.83 64.094 0.06 6.59 1.55 9.29
7/6/2021 4:30:00 AM 17.79 64.022 0.061 6.58 1.68 9.29
7/6/2021 4:45:00 AM 17.76 63.968 0.061 6.58 1.64 9.3
7/6/2021 5:00:00 AM 17.72 63.896 0.061 6.58 1.7 9.31
7/6/2021 5:15:00 AM 17.68 63.824 0.061 6.57 1.77 9.32
7/6/2021 5:30:00 AM 17.64 63.752 0.061 6.58 1.68 9.33
7/6/2021 5:45:00 AM 17.61 63.698 0.061 6.58 1.72 9.34
7/6/2021 6:00:00 AM 17.57 63.626 0.061 6.57 1.73 9.35
7/6/2021 6:15:00 AM 17.54 63.572 0.061 6.58 1.66 9.37
7/6/2021 6:30:00 AM 17.52 63.536 0.061 6.58 1.62 9.41
7/6/2021 6:45:00 AM 17.49 63.482 0.061 6.58 1.66 9.43
7/6/2021 7:00:00 AM 17.48 63.464 0.061 6.59 1.61 9.47
7/6/2021 7:15:00 AM 17.47 63.446 0.061 6.6 1.64 9.49
7/6/2021 7:30:00 AM 17.47 63.446 0.061 6.61 1.64 9.53
7/6/2021 7:45:00 AM 17.47 63.446 0.061 6.61 1.66 9.56
7/6/2021 8:00:00 AM 17.48 63.464 0.061 6.62 1.68 9.58
7/6/2021 8:15:00 AM 17.49 63.482 0.06 6.62 1.59 9.59
7/6/2021 8:30:00 AM 17.52 63.536 0.06 6.63 1.61 9.6
7/6/2021 8:45:00 AM 17.55 63.59 0.061 6.63 1.69 9.62
7/6/2021 9:00:00 AM 17.61 63.698 0.061 6.64 1.61 9.64
7/6/2021 9:15:00 AM 17.69 63.842 0.06 6.68 1.7 9.65
7/6/2021 9:30:00 AM 17.77 63.986 0.06 6.7 1.8 9.66
7/6/2021 9:45:00 AM 17.89 64.202 0.06 6.74 1.58 9.66
7/6/2021 10:00:00 AM 17.99 64.382 0.06 6.77 1.63 9.66
7/6/2021 10:15:00 AM 18.14 64.652 0.06 6.8 1.7 9.65
7/6/2021 10:30:00 AM 18.28 64.904 0.06 6.81 1.64 9.64
7/6/2021 10:45:00 AM 18.4 65.12 0.06 6.83 1.7 9.64
7/6/2021 11:00:00 AM 18.56 65.408 0.06 6.85 1.86 9.62
7/6/2021 11:15:00 AM 18.71 65.67799 0.06 6.87 1.77 9.6
7/6/2021 11:30:00 AM 18.91 66.038 0.06 6.88 1.56 9.58
7/6/2021 11:45:00 AM 19.08 66.344 0.06 6.89 1.68 9.53
7/6/2021 12:00:00 PM 19.28 66.704 0.06 6.9 1.69 9.51
7/6/2021 12:15:00 PM 19.53 67.154 0.06 6.91 1.63 9.47
7/6/2021 12:30:00 PM 19.78 67.604 0.06 6.92 1.61 9.42
7/6/2021 12:45:00 PM 20.06 68.108 0.06 6.94 1.67 9.37
7/6/2021 1:00:00 PM 20.3 68.54 0.06 6.93 1.64 9.3
7/6/2021 1:15:00 PM 20.53 68.954 0.06 6.94 1.65 9.26
7/6/2021 1:30:00 PM 20.72 69.296 0.06 6.94 1.65 9.23
7/6/2021 1:45:00 PM 20.87 69.566 0.06 6.94 1.66 9.19
7/6/2021 2:00:00 PM 21.03 69.854 0.06 6.94 1.62 9.15
7/6/2021 2:15:00 PM 21.18 70.124 0.06 6.94 1.63 9.11
7/6/2021 2:30:00 PM 21.28 70.304 0.06 6.94 1.71 9.08
7/6/2021 2:45:00 PM 21.35 70.43 0.06 6.92 1.65 9.04
7/6/2021 3:00:00 PM 21.41 70.538 0.06 6.92 1.69 9.01
7/6/2021 3:15:00 PM 21.48 70.664 0.06 6.92 1.68 9.01
7/6/2021 3:30:00 PM 21.51 70.718 0.061 6.91 1.64 8.99
7/6/2021 3:45:00 PM 21.47 70.646 0.061 6.91 1.65 8.97
7/6/2021 4:00:00 PM 21.42 70.556 0.061 6.89 1.71 8.89
7/6/2021 4:15:00 PM 21.26 70.268 0.061 6.84 1.56 8.83
7/6/2021 4:30:00 PM 21.12 70.016 0.061 6.83 1.58 8.85
7/6/2021 4:45:00 PM 21.02 69.836 0.061 6.83 1.67 8.89
7/6/2021 5:00:00 PM 20.94 69.692 0.061 6.83 1.65 8.89
7/6/2021 5:15:00 PM 20.86 69.548 0.061 6.81 1.61 8.89
7/6/2021 5:30:00 PM 20.79 69.422 0.061 6.81 1.61 8.92
7/6/2021 5:45:00 PM 20.75 69.35 0.061 6.8 1.56 8.94
7/6/2021 6:00:00 PM 20.71 69.278 0.061 6.81 1.64 8.97
7/6/2021 6:15:00 PM 20.67 69.206 0.061 6.79 1.56 8.96
7/6/2021 6:30:00 PM 20.6 69.08 0.061 6.77 1.58 8.91
7/6/2021 6:45:00 PM 20.54 68.972 0.061 6.75 1.59 8.91
7/6/2021 7:00:00 PM 20.49 68.882 0.061 6.74 1.56 8.91
7/6/2021 7:15:00 PM 20.45 68.81 0.061 6.73 1.59 8.9
7/6/2021 7:30:00 PM 20.4 68.72 0.062 6.7 1.65 8.87
7/6/2021 7:45:00 PM 20.36 68.648 0.062 6.68 1.7 8.85
7/6/2021 8:00:00 PM 20.31 68.558 0.062 6.67 1.72 8.85
7/6/2021 8:15:00 PM 20.28 68.504 0.062 6.66 1.67 8.83
7/6/2021 8:30:00 PM 20.25 68.45 0.062 6.64 1.72 8.81
7/6/2021 8:45:00 PM 20.22 68.396 0.062 6.62 1.68 8.81
7/6/2021 9:00:00 PM 20.18 68.324 0.062 6.61 1.83 8.81
7/6/2021 9:15:00 PM 20.14 68.252 0.062 6.59 1.89 8.82
7/6/2021 9:30:00 PM 20.1 68.18 0.062 6.58 1.87 8.83
7/6/2021 9:45:00 PM 20.06 68.108 0.062 6.58 1.87 8.84
7/6/2021 10:00:00 PM 20.02 68.036 0.062 6.58 1.93 8.85
7/6/2021 10:15:00 PM 19.98 67.964 0.062 6.56 1.81 8.86
7/6/2021 10:30:00 PM 19.94 67.892 0.062 6.57 1.78 8.87
7/6/2021 10:45:00 PM 19.91 67.838 0.061 6.6 1.76 8.87
7/6/2021 11:00:00 PM 19.87 67.766 0.061 6.59 1.69 8.89
7/6/2021 11:15:00 PM 19.84 67.712 0.061 6.59 1.82 8.89
7/6/2021 11:30:00 PM 19.79 67.622 0.061 6.61 1.69 8.9
7/6/2021 11:45:00 PM 19.75 67.55 0.06 6.61 1.73 8.9
7/7/2021 12:00:00 AM 19.71 67.478 0.06 6.62 1.68 8.92
7/7/2021 12:15:00 AM 19.67 67.406 0.06 6.62 1.71 8.93
7/7/2021 12:30:00 AM 19.62 67.316 0.059 6.62 1.65 8.93
7/7/2021 12:45:00 AM 19.58 67.244 0.059 6.62 1.72 8.94
7/7/2021 1:00:00 AM 19.54 67.172 0.059 6.62 1.71 8.95
7/7/2021 1:15:00 AM 19.49 67.082 0.059 6.61 1.75 8.97
7/7/2021 1:30:00 AM 19.44 66.992 0.059 6.61 1.69 8.97
7/7/2021 1:45:00 AM 19.4 66.92 0.058 6.61 1.73 8.98
7/7/2021 2:00:00 AM 19.35 66.83 0.058 6.6 1.76 8.99
7/7/2021 2:15:00 AM 19.3 66.74 0.058 6.61 1.77 9
7/7/2021 2:30:00 AM 19.25 66.65 0.058 6.6 1.73 9.02
7/7/2021 2:45:00 AM 19.2 66.56 0.058 6.6 1.66 9.03
7/7/2021 3:00:00 AM 19.15 66.47 0.058 6.6 1.78 9.03
7/7/2021 3:15:00 AM 19.1 66.38 0.058 6.6 1.67 9.04
7/7/2021 3:30:00 AM 19.05 66.29 0.058 6.6 1.75 9.05
7/7/2021 3:45:00 AM 19.01 66.218 0.058 6.59 1.77 9.06
7/7/2021 4:00:00 AM 18.96 66.128 0.059 6.59 1.64 9.07
7/7/2021 4:15:00 AM 18.92 66.056 0.059 6.58 1.72 9.08
7/7/2021 4:30:00 AM 18.87 65.966 0.059 6.58 1.73 9.09
7/7/2021 4:45:00 AM 18.82 65.876 0.059 6.58 1.69 9.09
7/7/2021 5:00:00 AM 18.78 65.804 0.06 6.58 1.81 9.1
7/7/2021 5:15:00 AM 18.74 65.732 0.06 6.58 1.79 9.11
7/7/2021 5:30:00 AM 18.7 65.66 0.06 6.58 1.81 9.12
7/7/2021 5:45:00 AM 18.66 65.588 0.06 6.58 1.85 9.12
7/7/2021 6:00:00 AM 18.62 65.516 0.06 6.57 1.8 9.15
7/7/2021 6:15:00 AM 18.58 65.444 0.06 6.58 1.82 9.16
7/7/2021 6:30:00 AM 18.55 65.39 0.06 6.59 1.72 9.2
7/7/2021 6:45:00 AM 18.52 65.336 0.06 6.59 1.77 9.22
7/7/2021 7:00:00 AM 18.5 65.3 0.06 6.6 1.78 9.25
7/7/2021 7:15:00 AM 18.48 65.264 0.06 6.6 1.77 9.27
7/7/2021 7:30:00 AM 18.47 65.246 0.06 6.61 1.73 9.3
7/7/2021 7:45:00 AM 18.47 65.246 0.06 6.62 1.71 9.31
7/7/2021 8:00:00 AM 18.47 65.246 0.061 6.62 1.74 9.34
7/7/2021 8:15:00 AM 18.48 65.264 0.061 6.62 1.7 9.36
7/7/2021 8:30:00 AM 18.49 65.282 0.061 6.63 1.7 9.38
7/7/2021 8:45:00 AM 18.52 65.336 0.061 6.63 1.78 9.4
7/7/2021 9:00:00 AM 18.57 65.426 0.061 6.64 1.74 9.42
7/7/2021 9:15:00 AM 18.63 65.534 0.061 6.65 1.7 9.44
7/7/2021 9:30:00 AM 18.7 65.66 0.061 6.68 1.72 9.45
7/7/2021 9:45:00 AM 18.78 65.804 0.061 6.72 1.68 9.46
7/7/2021 10:00:00 AM 18.88 65.984 0.061 6.74 1.75 9.46
7/7/2021 10:15:00 AM 19.01 66.218 0.061 6.78 1.8 9.47
7/7/2021 10:30:00 AM 19.14 66.452 0.061 6.81 1.73 9.46
7/7/2021 10:45:00 AM 19.28 66.704 0.061 6.83 1.75 9.45
7/7/2021 11:00:00 AM 19.42 66.956 0.061 6.85 1.7 9.44
7/7/2021 11:15:00 AM 19.57 67.226 0.061 6.87 1.65 9.43
7/7/2021 11:30:00 AM 19.75 67.55 0.061 6.89 1.64 9.41
7/7/2021 11:45:00 AM 19.89 67.802 0.061 6.9 1.79 9.38
7/7/2021 12:00:00 PM 20.06 68.108 0.061 6.91 1.64 9.34
7/7/2021 12:15:00 PM 20.3 68.54 0.06 6.93 1.71 9.32
7/7/2021 12:30:00 PM 20.54 68.972 0.06 6.94 1.76 9.28
7/7/2021 12:45:00 PM 20.73 69.314 0.06 6.94 1.71 9.21
7/7/2021 1:00:00 PM 20.96 69.728 0.06 6.94 1.67 9.19
7/7/2021 1:15:00 PM 21.18 70.124 0.06 6.95 1.66 9.14
7/7/2021 1:30:00 PM 21.33 70.394 0.06 6.95 1.68 9.11
7/7/2021 1:45:00 PM 21.5 70.7 0.06 6.95 1.68 9.08
7/7/2021 2:00:00 PM 21.64 70.952 0.06 6.96 1.66 9.04
7/7/2021 2:15:00 PM 21.74 71.132 0.06 6.95 1.72 9.02
7/7/2021 2:30:00 PM 21.8 71.24 0.06 6.95 1.67 8.99
7/7/2021 2:45:00 PM 21.89 71.402 0.06 6.95 1.65 8.97
7/7/2021 3:00:00 PM 21.9 71.42 0.06 6.94 1.62 8.94
7/7/2021 3:15:00 PM 21.86 71.348 0.06 6.93 1.62 8.93
7/7/2021 3:30:00 PM 21.84 71.312 0.06 6.91 1.59 8.91
7/7/2021 3:45:00 PM 21.82 71.276 0.06 6.91 1.6 8.9
7/7/2021 4:00:00 PM 21.78 71.204 0.06 6.9 1.56 8.9
7/7/2021 4:15:00 PM 21.73 71.114 0.06 6.88 1.57 8.87
7/7/2021 4:30:00 PM 21.71 71.078 0.06 6.87 1.6 8.87
7/7/2021 4:45:00 PM 21.69 71.042 0.06 6.86 1.69 8.87
7/7/2021 5:00:00 PM 21.67 71.006 0.06 6.86 1.67 8.87
7/7/2021 5:15:00 PM 21.64 70.952 0.061 6.84 1.6 8.86
7/7/2021 5:30:00 PM 21.6 70.88 0.061 6.84 1.61 8.84
7/7/2021 5:45:00 PM 21.58 70.844 0.061 6.83 1.76 8.83
7/7/2021 6:00:00 PM 21.53 70.754 0.061 6.8 1.6 8.8
7/7/2021 6:15:00 PM 21.49 70.682 0.061 6.79 1.49 8.8
7/7/2021 6:30:00 PM 21.46 70.628 0.061 6.78 1.57 8.79
7/7/2021 6:45:00 PM 21.44 70.592 0.061 6.77 1.58 8.78
7/7/2021 7:00:00 PM 21.41 70.538 0.061 6.75 1.59 8.75
7/7/2021 7:15:00 PM 21.38 70.484 0.061 6.74 1.52 8.73
7/7/2021 7:30:00 PM 21.35 70.43 0.061 6.72 1.6 8.71
7/7/2021 7:45:00 PM 21.32 70.376 0.061 6.71 1.64 8.69
7/7/2021 8:00:00 PM 21.28 70.304 0.061 6.7 1.54 8.66
7/7/2021 8:15:00 PM 21.24 70.232 0.061 6.67 1.54 8.64
7/7/2021 8:30:00 PM 21.2 70.16 0.062 6.66 1.69 8.63
7/7/2021 8:45:00 PM 21.17 70.106 0.062 6.63 1.66 8.61
7/7/2021 9:00:00 PM 21.15 70.07 0.062 6.64 1.69 8.61
7/7/2021 9:15:00 PM 21.09 69.962 0.062 6.66 1.65 8.6
7/7/2021 9:30:00 PM 21.02 69.836 0.062 6.67 1.75 8.62
7/7/2021 9:45:00 PM 20.94 69.692 0.062 6.68 1.67 8.62
7/7/2021 10:00:00 PM 20.86 69.548 0.062 6.68 1.75 8.63
7/7/2021 10:15:00 PM 20.79 69.422 0.062 6.67 1.7 8.64
7/7/2021 10:30:00 PM 20.71 69.278 0.061 6.66 1.71 8.65
7/7/2021 10:45:00 PM 20.64 69.152 0.061 6.66 1.73 8.66
7/7/2021 11:00:00 PM 20.57 69.026 0.061 6.66 1.74 8.67
7/7/2021 11:15:00 PM 20.5 68.9 0.061 6.65 1.83 8.68
7/7/2021 11:30:00 PM 20.42 68.756 0.06 6.63 2.06 8.69
7/7/2021 11:45:00 PM 20.36 68.648 0.06 6.62 2.14 8.7
7/8/2021 12:00:00 AM 20.29 68.522 0.06 6.61 2.28 8.72
7/8/2021 12:15:00 AM 20.23 68.414 0.06 6.61 3.23 8.75
7/8/2021 12:30:00 AM 20.15 68.27 0.06 6.6 7.63 8.81
7/8/2021 12:45:00 AM 20.08 68.144 0.059 6.6 10.88 8.86
7/8/2021 1:00:00 AM 20.05 68.09 0.059 6.58 14.77 8.92
7/8/2021 1:15:00 AM 20.01 68.018 0.061 6.58 18.28 8.94
7/8/2021 1:30:00 AM 19.96 67.92799 0.059 6.56 18.98 8.97
7/8/2021 1:45:00 AM 19.91 67.838 0.055 6.53 13.81 8.99
7/8/2021 2:00:00 AM 19.87 67.766 0.053 6.52 14.85 9
7/8/2021 2:15:00 AM 19.83 67.694 0.053 6.5 16.14 9.01
7/8/2021 2:30:00 AM 19.8 67.64 0.054 6.5 16.01 9.03
7/8/2021 2:45:00 AM 19.76 67.568 0.055 6.5 15.87 9.03
7/8/2021 3:00:00 AM 19.73 67.514 0.055 6.5 15.62 9.05
7/8/2021 3:15:00 AM 19.68 67.424 0.055 6.49 14.14 9.06
7/8/2021 3:30:00 AM 19.64 67.352 0.055 6.47 14.62 9.07
7/8/2021 3:45:00 AM 19.59 67.262 0.055 6.46 14.45 9.08
7/8/2021 4:00:00 AM 19.55 67.19 0.056 6.45 14 9.09
7/8/2021 4:15:00 AM 19.5 67.1 0.057 6.44 13.91 9.1
7/8/2021 4:30:00 AM 19.44 66.992 0.057 6.43 13.55 9.11
7/8/2021 4:45:00 AM 19.4 66.92 0.056 6.42 12.44 9.12
7/8/2021 5:00:00 AM 19.35 66.83 0.055 6.41 12.43 9.13
7/8/2021 5:15:00 AM 19.31 66.758 0.055 6.41 12.13 9.13
7/8/2021 5:30:00 AM 19.26 66.668 0.055 6.39 11.31 9.14
7/8/2021 5:45:00 AM 19.22 66.596 0.056 6.38 11.1 9.15
7/8/2021 6:00:00 AM 19.18 66.524 0.057 6.38 10.63 9.16
7/8/2021 6:15:00 AM 19.14 66.452 0.057 6.36 9.66 9.17
7/8/2021 6:30:00 AM 19.11 66.398 0.057 6.37 9.34 9.18
7/8/2021 6:45:00 AM 19.08 66.344 0.057 6.37 8.92 9.2
7/8/2021 7:00:00 AM 19.05 66.29 0.056 6.36 8.82 9.21
7/8/2021 7:15:00 AM 19.02 66.236 0.056 6.36 8.58 9.22
7/8/2021 7:30:00 AM 19 66.2 0.055 6.37 8.06 9.23
7/8/2021 7:45:00 AM 18.98 66.164 0.055 6.36 7.31 9.24
7/8/2021 8:00:00 AM 18.96 66.128 0.054 6.35 7.11 9.25
7/8/2021 8:15:00 AM 18.94 66.092 0.054 6.35 6.89 9.25
7/8/2021 8:30:00 AM 18.93 66.074 0.054 6.36 6.57 9.25
7/8/2021 8:45:00 AM 18.91 66.038 0.053 6.35 6.4 9.27
7/8/2021 9:00:00 AM 18.9 66.02 0.053 6.35 6.11 9.26
7/8/2021 9:15:00 AM 18.9 66.02 0.053 6.34 6 9.29
7/8/2021 9:30:00 AM 18.9 66.02 0.053 6.35 5.94 9.31
7/8/2021 9:45:00 AM 18.93 66.074 0.053 6.37 5.83 9.33
7/8/2021 10:00:00 AM 18.95 66.11 0.053 6.37 5.76 9.34
7/8/2021 10:15:00 AM 18.98 66.164 0.053 6.38 5.49 9.34
7/8/2021 10:30:00 AM 19.02 66.236 0.053 6.4 5.24 9.34
7/8/2021 10:45:00 AM 19.04 66.272 0.053 6.39 5.19 9.32
7/8/2021 11:00:00 AM 19.05 66.29 0.053 6.4 5.05 9.3
7/8/2021 11:15:00 AM 19.06 66.308 0.053 6.4 4.99 9.31
7/8/2021 11:30:00 AM 19.08 66.344 0.053 6.4 5.19 9.33
7/8/2021 11:45:00 AM 19.1 66.38 0.053 6.42 5.02 9.32
7/8/2021 12:00:00 PM 19.1 66.38 0.053 6.4 4.75 9.29
7/8/2021 12:15:00 PM 19.1 66.38 0.053 6.4 4.61 9.27
7/8/2021 12:30:00 PM 19.11 66.398 0.053 6.4 4.62 9.29
7/8/2021 12:45:00 PM 19.11 66.398 0.053 6.39 4.82 9.29
7/8/2021 1:00:00 PM 19.13 66.434 0.053 6.42 4.69 9.31
7/8/2021 1:15:00 PM 19.17 66.506 0.053 6.43 4.52 9.33
7/8/2021 1:30:00 PM 19.2 66.56 0.053 6.42 4.37 9.31
7/8/2021 1:45:00 PM 19.22 66.596 0.053 6.42 4.47 9.29
7/8/2021 2:00:00 PM 19.26 66.668 0.053 6.42 4.24 9.31
7/8/2021 2:15:00 PM 19.27 66.686 0.053 6.42 4.25 9.28
7/8/2021 2:30:00 PM 19.29 66.722 0.053 6.42 4.18 9.28
7/8/2021 2:45:00 PM 19.32 66.776 0.053 6.43 4.13 9.3
7/8/2021 3:00:00 PM 19.36 66.848 0.053 6.43 4.17 9.29
7/8/2021 3:15:00 PM 19.38 66.884 0.053 6.43 3.86 9.27
7/8/2021 3:30:00 PM 19.4 66.92 0.053 6.42 4.1 9.26
7/8/2021 3:45:00 PM 19.44 66.992 0.053 6.43 3.85 9.26
7/8/2021 4:00:00 PM 19.47 67.046 0.054 6.43 3.79 9.25
7/8/2021 4:15:00 PM 19.49 67.082 0.054 6.42 3.82 9.24
7/8/2021 4:30:00 PM 19.5 67.1 0.054 6.41 3.76 9.21
7/8/2021 4:45:00 PM 19.51 67.118 0.054 6.39 3.79 9.19
7/8/2021 5:00:00 PM 19.51 67.118 0.054 6.37 3.74 9.16
7/8/2021 5:15:00 PM 19.51 67.118 0.054 6.36 3.9 9.15
7/8/2021 5:30:00 PM 19.5 67.1 0.054 6.36 3.73 9.14
7/8/2021 5:45:00 PM 19.5 67.1 0.054 6.34 3.65 9.14
7/8/2021 6:00:00 PM 19.49 67.082 0.054 6.33 3.87 9.13
7/8/2021 6:15:00 PM 19.48 67.064 0.054 6.33 3.73 9.12
7/8/2021 6:30:00 PM 19.47 67.046 0.054 6.31 3.55 9.1
7/8/2021 6:45:00 PM 19.46 67.028 0.055 6.3 3.71 9.09
7/8/2021 7:00:00 PM 19.46 67.028 0.055 6.31 3.47 9.1
7/8/2021 7:15:00 PM 19.44 66.992 0.055 6.32 3.52 9.1
7/8/2021 7:30:00 PM 19.43 66.974 0.055 6.34 3.64 9.1
7/8/2021 7:45:00 PM 19.42 66.956 0.055 6.35 3.48 9.1
7/8/2021 8:00:00 PM 19.4 66.92 0.055 6.36 3.5 9.1
7/8/2021 8:15:00 PM 19.39 66.902 0.055 6.36 3.5 9.1
7/8/2021 8:30:00 PM 19.37 66.866 0.055 6.36 3.49 9.1
7/8/2021 8:45:00 PM 19.35 66.83 0.055 6.36 3.57 9.1
7/8/2021 9:00:00 PM 19.34 66.812 0.055 6.36 3.51 9.1
7/8/2021 9:15:00 PM 19.32 66.776 0.055 6.36 3.46 9.1
7/8/2021 9:30:00 PM 19.31 66.758 0.055 6.36 3.38 9.1
7/8/2021 9:45:00 PM 19.29 66.722 0.055 6.36 3.46 9.11
7/8/2021 10:00:00 PM 19.28 66.704 0.055 6.35 3.53 9.11
7/8/2021 10:15:00 PM 19.27 66.686 0.055 6.36 3.31 9.11
7/8/2021 10:30:00 PM 19.25 66.65 0.055 6.35 3.35 9.12
7/8/2021 10:45:00 PM 19.24 66.632 0.055 6.36 3.36 9.12
7/8/2021 11:00:00 PM 19.24 66.632 0.055 6.35 3.55 9.13
7/8/2021 11:15:00 PM 19.23 66.614 0.055 6.35 3.78 9.13
7/8/2021 11:30:00 PM 19.22 66.596 0.055 6.35 3.52 9.14
7/8/2021 11:45:00 PM 19.21 66.578 0.055 6.34 3.68 9.14
7/9/2021 12:00:00 AM 19.19 66.542 0.055 6.34 3.82 9.14
7/9/2021 12:15:00 AM 19.18 66.524 0.054 6.32 3.6 9.14
7/9/2021 12:30:00 AM 19.17 66.506 0.054 6.32 3.77 9.14
7/9/2021 12:45:00 AM 19.16 66.488 0.054 6.31 3.62 9.14
7/9/2021 1:00:00 AM 19.15 66.47 0.054 6.32 3.74 9.15
7/9/2021 1:15:00 AM 19.14 66.452 0.054 6.32 3.69 9.15
7/9/2021 1:30:00 AM 19.13 66.434 0.054 6.32 3.8 9.15
7/9/2021 1:45:00 AM 19.12 66.416 0.054 6.31 3.75 9.15
7/9/2021 2:00:00 AM 19.11 66.398 0.054 6.31 3.89 9.15
7/9/2021 2:15:00 AM 19.11 66.398 0.054 6.3 3.82 9.15
7/9/2021 2:30:00 AM 19.1 66.38 0.054 6.3 3.82 9.15
7/9/2021 2:45:00 AM 19.1 66.38 0.054 6.31 3.84 9.15
7/9/2021 3:00:00 AM 19.09 66.362 0.054 6.29 3.95 9.15
7/9/2021 3:15:00 AM 19.07 66.326 0.054 6.29 3.84 9.16
7/9/2021 3:30:00 AM 19.06 66.308 0.054 6.3 3.62 9.15
7/9/2021 3:45:00 AM 19.05 66.29 0.054 6.29 3.83 9.16
7/9/2021 4:00:00 AM 19.03 66.254 0.054 6.28 3.76 9.16
7/9/2021 4:15:00 AM 19.01 66.218 0.053 6.28 3.68 9.16
7/9/2021 4:30:00 AM 18.98 66.164 0.053 6.28 3.55 9.17
7/9/2021 4:45:00 AM 18.96 66.128 0.053 6.28 3.6 9.17
7/9/2021 5:00:00 AM 18.93 66.074 0.053 6.27 3.53 9.17
7/9/2021 5:15:00 AM 18.9 66.02 0.053 6.27 3.67 9.18
7/9/2021 5:30:00 AM 18.87 65.966 0.053 6.26 3.56 9.18
7/9/2021 5:45:00 AM 18.84 65.912 0.053 6.26 3.56 9.18
7/9/2021 6:00:00 AM 18.81 65.858 0.053 6.26 3.59 9.19
7/9/2021 6:15:00 AM 18.78 65.804 0.053 6.26 3.76 9.2
7/9/2021 6:30:00 AM 18.76 65.768 0.054 6.26 3.66 9.22
7/9/2021 6:45:00 AM 18.73 65.714 0.054 6.26 3.48 9.23
7/9/2021 7:00:00 AM 18.71 65.67799 0.054 6.26 3.45 9.24
7/9/2021 7:15:00 AM 18.7 65.66 0.054 6.26 3.97 9.25
7/9/2021 7:30:00 AM 18.68 65.624 0.054 6.26 3.5 9.26
7/9/2021 7:45:00 AM 18.67 65.606 0.054 6.26 3.38 9.27
7/9/2021 8:00:00 AM 18.67 65.606 0.054 6.27 3.5 9.28
7/9/2021 8:15:00 AM 18.67 65.606 0.054 6.27 3.38 9.29
7/9/2021 8:30:00 AM 18.67 65.606 0.054 6.27 3.45 9.28
7/9/2021 8:45:00 AM 18.67 65.606 0.054 6.28 3.41 9.3
7/9/2021 9:00:00 AM 18.68 65.624 0.054 6.3 3.4 9.32
7/9/2021 9:15:00 AM 18.7 65.66 0.054 6.3 3.35 9.33
7/9/2021 9:30:00 AM 18.72 65.696 0.054 6.31 3.31 9.34
7/9/2021 9:45:00 AM 18.74 65.732 0.054 6.32 3.4 9.33
7/9/2021 10:00:00 AM 18.79 65.82201 0.054 6.33 3.25 9.35
7/9/2021 10:15:00 AM 18.85 65.93 0.054 6.35 3.32 9.37
7/9/2021 10:30:00 AM 18.89 66.002 0.054 6.36 3.17 9.35
7/9/2021 10:45:00 AM 18.96 66.128 0.054 6.38 3.31 9.36
7/9/2021 11:00:00 AM 19 66.2 0.054 6.38 3.52 9.33
7/9/2021 11:15:00 AM 19.06 66.308 0.054 6.38 3.31 9.3
7/9/2021 11:30:00 AM 19.16 66.488 0.054 6.39 3.18 9.3
7/9/2021 11:45:00 AM 19.32 66.776 0.054 6.4 3.12 9.3
7/9/2021 12:00:00 PM 19.43 66.974 0.054 6.41 3.06 9.27
7/9/2021 12:15:00 PM 19.57 67.226 0.054 6.41 3.07 9.26
7/9/2021 12:30:00 PM 19.64 67.352 0.054 6.41 3.08 9.22
7/9/2021 12:45:00 PM 19.71 67.478 0.054 6.4 3.12 9.2
7/9/2021 1:00:00 PM 19.79 67.622 0.054 6.41 3.17 9.19
7/9/2021 1:15:00 PM 19.83 67.694 0.054 6.41 3.04 9.18
7/9/2021 1:30:00 PM 19.76 67.568 0.054 6.41 3.19 9.19
7/9/2021 1:45:00 PM 19.73 67.514 0.054 6.39 3 9.15
7/9/2021 2:00:00 PM 19.7 67.46 0.054 6.37 2.99 9.14
7/9/2021 2:15:00 PM 19.69 67.442 0.054 6.39 3.07 9.19
7/9/2021 2:30:00 PM 19.73 67.514 0.054 6.4 3.11 9.2
7/9/2021 2:45:00 PM 19.72 67.496 0.054 6.4 2.98 9.19
7/9/2021 3:00:00 PM 19.72 67.496 0.054 6.4 3.32 9.2
7/9/2021 3:15:00 PM 19.72 67.496 0.054 6.4 2.92 9.17
7/9/2021 3:30:00 PM 19.73 67.514 0.053 6.39 2.94 9.15
7/9/2021 3:45:00 PM 19.73 67.514 0.053 6.39 3.35 9.13
7/9/2021 4:00:00 PM 19.71 67.478 0.053 6.39 3.07 9.13
7/9/2021 4:15:00 PM 19.69 67.442 0.053 6.4 3.05 9.15
7/9/2021 4:30:00 PM 19.7 67.46 0.053 6.41 3.08 9.15
7/9/2021 4:45:00 PM 19.68 67.424 0.053 6.4 3.17 9.13
7/9/2021 5:00:00 PM 19.66 67.388 0.053 6.39 3.11 9.1
7/9/2021 5:15:00 PM 19.65 67.37 0.053 6.38 3.03 9.12
7/9/2021 5:30:00 PM 19.64 67.352 0.054 6.38 2.83 9.12
7/9/2021 5:45:00 PM 19.62 67.316 0.054 6.38 2.9 9.11
7/9/2021 6:00:00 PM 19.59 67.262 0.054 6.36 2.94 9.07
7/9/2021 6:15:00 PM 19.55 67.19 0.052 6.35 3.83 9.07
7/9/2021 6:30:00 PM 19.51 67.118 0.051 6.34 3.68 9.08
7/9/2021 6:45:00 PM 19.49 67.082 0.052 6.35 3.43 9.1
7/9/2021 7:00:00 PM 19.46 67.028 0.052 6.36 4.06 9.08
7/9/2021 7:15:00 PM 19.43 66.974 0.052 6.35 6.63 9.07
7/9/2021 7:30:00 PM 19.4 66.92 0.052 6.35 11.57 9.08
7/9/2021 7:45:00 PM 19.37 66.866 0.053 6.36 7.35 9.08
7/9/2021 8:00:00 PM 19.36 66.848 0.053 6.35 5.74 9.08
7/9/2021 8:15:00 PM 19.34 66.812 0.053 6.35 4.95 9.08
7/9/2021 8:30:00 PM 19.33 66.794 0.053 6.35 4.44 9.08
7/9/2021 8:45:00 PM 19.31 66.758 0.053 6.34 4.05 9.08
7/9/2021 9:00:00 PM 19.29 66.722 0.053 6.35 3.68 9.09
7/9/2021 9:15:00 PM 19.27 66.686 0.054 6.35 3.55 9.09
7/9/2021 9:30:00 PM 19.25 66.65 0.054 6.34 3.47 9.1
7/9/2021 9:45:00 PM 19.23 66.614 0.054 6.35 3.44 9.11
7/9/2021 10:00:00 PM 19.19 66.542 0.054 6.36 3.34 9.11
7/9/2021 10:15:00 PM 19.17 66.506 0.054 6.35 3.47 9.12
7/9/2021 10:30:00 PM 19.16 66.488 0.055 6.35 3.34 9.12
7/9/2021 10:45:00 PM 19.14 66.452 0.055 6.35 3.2 9.13
7/9/2021 11:00:00 PM 19.12 66.416 0.055 6.36 3.29 9.13
7/9/2021 11:15:00 PM 19.11 66.398 0.055 6.36 3.11 9.14
7/9/2021 11:30:00 PM 19.1 66.38 0.055 6.35 3.03 9.14
7/9/2021 11:45:00 PM 19.09 66.362 0.055 6.35 3.07 9.14
7/10/2021 12:00:00 AM 19.07 66.326 0.054 6.34 3.26 9.14
7/10/2021 12:15:00 AM 19.06 66.308 0.054 6.35 3.14 9.14
7/10/2021 12:30:00 AM 19.04 66.272 0.055 6.35 3.15 9.14
7/10/2021 12:45:00 AM 19.02 66.236 0.055 6.35 3.08 9.14
7/10/2021 1:00:00 AM 19 66.2 0.055 6.35 3.13 9.15
7/10/2021 1:15:00 AM 18.97 66.146 0.056 6.35 3.33 9.16
7/10/2021 1:30:00 AM 18.94 66.092 0.056 6.35 3.68 9.16
7/10/2021 1:45:00 AM 18.92 66.056 0.056 6.36 3.76 9.16
7/10/2021 2:00:00 AM 18.89 66.002 0.056 6.36 3.67 9.17
7/10/2021 2:15:00 AM 18.87 65.966 0.056 6.36 3.75 9.17
7/10/2021 2:30:00 AM 18.84 65.912 0.056 6.36 3.52 9.18
7/10/2021 2:45:00 AM 18.82 65.876 0.056 6.36 3.52 9.18
7/10/2021 3:00:00 AM 18.8 65.84 0.056 6.36 3.55 9.19
7/10/2021 3:15:00 AM 18.78 65.804 0.056 6.37 3.94 9.2
7/10/2021 3:30:00 AM 18.75 65.75 0.056 6.37 3.84 9.21
7/10/2021 3:45:00 AM 18.73 65.714 0.056 6.37 3.85 9.22
7/10/2021 4:00:00 AM 18.7 65.66 0.056 6.36 3.73 9.23
7/10/2021 4:15:00 AM 18.67 65.606 0.056 6.37 3.71 9.23
7/10/2021 4:30:00 AM 18.64 65.552 0.056 6.37 3.59 9.25
7/10/2021 4:45:00 AM 18.61 65.498 0.056 6.36 3.59 9.25
7/10/2021 5:00:00 AM 18.59 65.462 0.056 6.37 3.59 9.26
7/10/2021 5:15:00 AM 18.56 65.408 0.056 6.37 3.44 9.27
7/10/2021 5:30:00 AM 18.53 65.354 0.056 6.37 3.65 9.27
7/10/2021 5:45:00 AM 18.5 65.3 0.056 6.37 3.89 9.28
7/10/2021 6:00:00 AM 18.47 65.246 0.056 6.38 3.73 9.29
7/10/2021 6:15:00 AM 18.44 65.192 0.056 6.37 3.81 9.3
7/10/2021 6:30:00 AM 18.42 65.156 0.056 6.37 4.05 9.32
7/10/2021 6:45:00 AM 18.4 65.12 0.056 6.37 3.92 9.33
7/10/2021 7:00:00 AM 18.38 65.084 0.056 6.36 3.81 9.35
7/10/2021 7:15:00 AM 18.36 65.048 0.056 6.36 3.97 9.36
7/10/2021 7:30:00 AM 18.34 65.012 0.056 6.38 3.91 9.37
7/10/2021 7:45:00 AM 18.33 64.994 0.056 6.39 3.7 9.4
7/10/2021 8:00:00 AM 18.31 64.958 0.056 6.38 3.83 9.4
7/10/2021 8:15:00 AM 18.3 64.94 0.056 6.38 3.74 9.41
7/10/2021 8:30:00 AM 18.3 64.94 0.056 6.4 3.73 9.43
7/10/2021 8:45:00 AM 18.31 64.958 0.056 6.4 3.57 9.46
7/10/2021 9:00:00 AM 18.31 64.958 0.056 6.4 3.58 9.45
7/10/2021 9:15:00 AM 18.31 64.958 0.057 6.4 3.59 9.44
7/10/2021 9:30:00 AM 18.3 64.94 0.057 6.4 3.42 9.45
7/10/2021 9:45:00 AM 18.31 64.958 0.057 6.41 3.38 9.46
7/10/2021 10:00:00 AM 18.3 64.94 0.057 6.4 3.55 9.46
7/10/2021 10:15:00 AM 18.29 64.922 0.057 6.41 3.34 9.48
7/10/2021 10:30:00 AM 18.33 64.994 0.057 6.41 3.34 9.51
7/10/2021 10:45:00 AM 18.36 65.048 0.056 6.42 3.3 9.5
7/10/2021 11:00:00 AM 18.36 65.048 0.056 6.42 3.38 9.48
7/10/2021 11:15:00 AM 18.37 65.066 0.056 6.41 3.18 9.47
7/10/2021 11:30:00 AM 18.4 65.12 0.056 6.42 3.26 9.5
7/10/2021 11:45:00 AM 18.41 65.138 0.056 6.43 3.35 9.51
7/10/2021 12:00:00 PM 18.46 65.228 0.057 6.43 3.27 9.53
7/10/2021 12:15:00 PM 18.53 65.354 0.057 6.43 3.27 9.51
7/10/2021 12:30:00 PM 18.57 65.426 0.057 6.44 3.36 9.5
7/10/2021 12:45:00 PM 18.69 65.642 0.057 6.45 3.24 9.51
7/10/2021 1:00:00 PM 18.86 65.948 0.057 6.45 3.19 9.48
7/10/2021 1:15:00 PM 18.96 66.128 0.057 6.46 3.06 9.47
7/10/2021 1:30:00 PM 19.05 66.29 0.057 6.46 3.13 9.41
7/10/2021 1:45:00 PM 19.08 66.344 0.057 6.45 3.02 9.38
7/10/2021 2:00:00 PM 19.08 66.344 0.057 6.43 3.1 9.38
7/10/2021 2:15:00 PM 19.11 66.398 0.056 6.45 3.2 9.4
7/10/2021 2:30:00 PM 19.06 66.308 0.056 6.44 3.07 9.39
7/10/2021 2:45:00 PM 19 66.2 0.056 6.42 3.05 9.38
7/10/2021 3:00:00 PM 19 66.2 0.056 6.42 3.07 9.35
7/10/2021 3:15:00 PM 19.01 66.218 0.056 6.42 2.99 9.37
7/10/2021 3:30:00 PM 19.01 66.218 0.056 6.43 3.04 9.38
7/10/2021 3:45:00 PM 19.01 66.218 0.056 6.41 2.93 9.34
7/10/2021 4:00:00 PM 19.03 66.254 0.056 6.39 2.97 9.29
7/10/2021 4:15:00 PM 19.04 66.272 0.056 6.39 2.96 9.29
7/10/2021 4:30:00 PM 19.03 66.254 0.055 6.39 3.02 9.31
7/10/2021 4:45:00 PM 19.01 66.218 0.055 6.4 2.95 9.33
7/10/2021 5:00:00 PM 19.03 66.254 0.055 6.38 3 9.34
7/10/2021 5:15:00 PM 19.05 66.29 0.055 6.38 2.87 9.32
7/10/2021 5:30:00 PM 19.04 66.272 0.055 6.39 2.92 9.3
7/10/2021 5:45:00 PM 19.05 66.29 0.055 6.38 2.82 9.3
7/10/2021 6:00:00 PM 19.05 66.29 0.055 6.38 2.97 9.28
7/10/2021 6:15:00 PM 19.04 66.272 0.055 6.36 2.77 9.29
7/10/2021 6:30:00 PM 19.02 66.236 0.055 6.38 2.91 9.28
7/10/2021 6:45:00 PM 19.02 66.236 0.055 6.37 3.13 9.27
7/10/2021 7:00:00 PM 19.01 66.218 0.055 6.36 2.95 9.26
7/10/2021 7:15:00 PM 18.99 66.182 0.055 6.34 2.87 9.25
7/10/2021 7:30:00 PM 18.96 66.128 0.055 6.32 2.82 9.24
7/10/2021 7:45:00 PM 18.94 66.092 0.055 6.32 2.77 9.24
7/10/2021 8:00:00 PM 18.91 66.038 0.055 6.32 2.75 9.23
7/10/2021 8:15:00 PM 18.89 66.002 0.055 6.32 2.73 9.23
7/10/2021 8:30:00 PM 18.86 65.948 0.055 6.32 2.77 9.22
7/10/2021 8:45:00 PM 18.83 65.894 0.055 6.32 2.68 9.22
7/10/2021 9:00:00 PM 18.8 65.84 0.055 6.32 2.79 9.23
7/10/2021 9:15:00 PM 18.78 65.804 0.055 6.34 2.84 9.23
7/10/2021 9:30:00 PM 18.75 65.75 0.055 6.32 2.93 9.24
7/10/2021 9:45:00 PM 18.72 65.696 0.055 6.32 2.65 9.24
7/10/2021 10:00:00 PM 18.69 65.642 0.055 6.34 2.81 9.25
7/10/2021 10:15:00 PM 18.66 65.588 0.055 6.34 2.81 9.26
7/10/2021 10:30:00 PM 18.63 65.534 0.055 6.35 2.76 9.27
7/10/2021 10:45:00 PM 18.59 65.462 0.055 6.35 2.68 9.27
7/10/2021 11:00:00 PM 18.56 65.408 0.055 6.35 2.58 9.28
7/10/2021 11:15:00 PM 18.53 65.354 0.055 6.34 2.57 9.29
7/10/2021 11:30:00 PM 18.49 65.282 0.055 6.36 2.6 9.3
7/10/2021 11:45:00 PM 18.46 65.228 0.055 6.35 2.54 9.3
7/11/2021 12:00:00 AM 18.42 65.156 0.055 6.34 2.67 9.31
7/11/2021 12:15:00 AM 18.38 65.084 0.055 6.36 2.51 9.32
7/11/2021 12:30:00 AM 18.34 65.012 0.055 6.35 2.58 9.33
7/11/2021 12:45:00 AM 18.31 64.958 0.055 6.35 2.49 9.33
7/11/2021 1:00:00 AM 18.27 64.886 0.055 6.35 2.58 9.34
7/11/2021 1:15:00 AM 18.23 64.814 0.055 6.34 2.47 9.34
7/11/2021 1:30:00 AM 18.19 64.742 0.055 6.34 2.49 9.35
7/11/2021 1:45:00 AM 18.15 64.67 0.055 6.35 2.61 9.36
7/11/2021 2:00:00 AM 18.11 64.598 0.055 6.35 2.53 9.37
7/11/2021 2:15:00 AM 18.07 64.526 0.055 6.34 2.69 9.37
7/11/2021 2:30:00 AM 18.04 64.472 0.055 6.33 2.45 9.38
7/11/2021 2:45:00 AM 18 64.4 0.055 6.35 2.45 9.39
7/11/2021 3:00:00 AM 17.97 64.346 0.055 6.34 2.49 9.39
7/11/2021 3:15:00 AM 17.93 64.274 0.055 6.35 2.5 9.4
7/11/2021 3:30:00 AM 17.89 64.202 0.055 6.34 2.4 9.41
7/11/2021 3:45:00 AM 17.86 64.148 0.056 6.34 2.4 9.42
7/11/2021 4:00:00 AM 17.82 64.076 0.056 6.34 2.44 9.42
7/11/2021 4:15:00 AM 17.79 64.022 0.056 6.33 2.68 9.43
7/11/2021 4:30:00 AM 17.76 63.968 0.056 6.34 2.63 9.43
7/11/2021 4:45:00 AM 17.72 63.896 0.056 6.33 2.5 9.45
7/11/2021 5:00:00 AM 17.69 63.842 0.056 6.32 2.4 9.45
7/11/2021 5:15:00 AM 17.67 63.806 0.056 6.32 2.6 9.45
7/11/2021 5:30:00 AM 17.64 63.752 0.056 6.31 2.61 9.47
7/11/2021 5:45:00 AM 17.61 63.698 0.056 6.33 2.53 9.47
7/11/2021 6:00:00 AM 17.59 63.662 0.056 6.33 2.51 9.48
7/11/2021 6:15:00 AM 17.57 63.626 0.056 6.32 2.57 9.49
7/11/2021 6:30:00 AM 17.55 63.59 0.056 6.32 2.44 9.49
7/11/2021 6:45:00 AM 17.53 63.554 0.056 6.32 2.55 9.51
7/11/2021 7:00:00 AM 17.52 63.536 0.056 6.31 2.53 9.52
7/11/2021 7:15:00 AM 17.51 63.518 0.056 6.33 2.85 9.54
7/11/2021 7:30:00 AM 17.51 63.518 0.056 6.34 2.49 9.56
7/11/2021 7:45:00 AM 17.5 63.5 0.056 6.33 2.39 9.56
7/11/2021 8:00:00 AM 17.5 63.5 0.056 6.34 2.48 9.59
7/11/2021 8:15:00 AM 17.51 63.518 0.056 6.34 2.62 9.61
7/11/2021 8:30:00 AM 17.51 63.518 0.056 6.34 2.48 9.58
7/11/2021 8:45:00 AM 17.52 63.536 0.056 6.32 2.48 9.58
7/11/2021 9:00:00 AM 17.51 63.518 0.056 6.31 2.55 9.57
7/11/2021 9:15:00 AM 17.52 63.536 0.056 6.31 2.42 9.58
7/11/2021 9:30:00 AM 17.52 63.536 0.056 6.3 2.48 9.57
7/11/2021 9:45:00 AM 17.52 63.536 0.056 6.31 2.42 9.57
7/11/2021 10:00:00 AM 17.52 63.536 0.056 6.29 2.51 9.57
7/11/2021 10:15:00 AM 17.52 63.536 0.055 6.29 2.45 9.57
7/11/2021 10:30:00 AM 17.53 63.554 0.055 6.29 2.41 9.56
7/11/2021 10:45:00 AM 17.53 63.554 0.055 6.3 2.51 9.56
7/11/2021 11:00:00 AM 17.55 63.59 0.055 6.33 2.36 9.63
7/11/2021 11:15:00 AM 17.59 63.662 0.055 6.36 2.43 9.66
7/11/2021 11:30:00 AM 17.61 63.698 0.055 6.37 2.35 9.67
7/11/2021 11:45:00 AM 17.64 63.752 0.055 6.38 2.32 9.67
7/11/2021 12:00:00 PM 17.66 63.788 0.055 6.38 2.41 9.66
7/11/2021 12:15:00 PM 17.69 63.842 0.055 6.39 2.26 9.65
7/11/2021 12:30:00 PM 17.72 63.896 0.055 6.41 2.43 9.63
7/11/2021 12:45:00 PM 17.74 63.932 0.055 6.41 2.39 9.64
7/11/2021 1:00:00 PM 17.76 63.968 0.055 6.43 2.35 9.64
7/11/2021 1:15:00 PM 17.78 64.004 0.055 6.44 2.39 9.63
7/11/2021 1:30:00 PM 17.81 64.058 0.055 6.43 2.37 9.63
7/11/2021 1:45:00 PM 17.84 64.112 0.055 6.45 2.32 9.64
7/11/2021 2:00:00 PM 17.86 64.148 0.055 6.43 2.48 9.6
7/11/2021 2:15:00 PM 17.87 64.166 0.056 6.42 2.46 9.56
7/11/2021 2:30:00 PM 17.87 64.166 0.056 6.41 2.35 9.55
7/11/2021 2:45:00 PM 17.88 64.184 0.056 6.4 2.55 9.55
7/11/2021 3:00:00 PM 17.89 64.202 0.056 6.39 2.51 9.53
7/11/2021 3:15:00 PM 17.88 64.184 0.056 6.37 2.49 9.5
7/11/2021 3:30:00 PM 17.88 64.184 0.056 6.36 2.47 9.52
7/11/2021 3:45:00 PM 17.89 64.202 0.056 6.37 2.45 9.53
7/11/2021 4:00:00 PM 17.92 64.256 0.056 6.38 2.43 9.55
7/11/2021 4:15:00 PM 17.93 64.274 0.057 6.37 2.49 9.53
7/11/2021 4:30:00 PM 17.96 64.328 0.057 6.4 2.42 9.57
7/11/2021 4:45:00 PM 18 64.4 0.057 6.39 2.34 9.58
7/11/2021 5:00:00 PM 18.04 64.472 0.057 6.4 2.42 9.57
7/11/2021 5:15:00 PM 18.07 64.526 0.057 6.42 2.37 9.56
7/11/2021 5:30:00 PM 18.09 64.562 0.057 6.41 2.32 9.53
7/11/2021 5:45:00 PM 18.13 64.634 0.057 6.41 2.34 9.52
7/11/2021 6:00:00 PM 18.15 64.67 0.057 6.42 2.28 9.51
7/11/2021 6:15:00 PM 18.17 64.706 0.057 6.4 2.35 9.48
7/11/2021 6:30:00 PM 18.17 64.706 0.057 6.4 2.4 9.45
7/11/2021 6:45:00 PM 18.16 64.688 0.057 6.38 2.53 9.41
7/11/2021 7:00:00 PM 18.16 64.688 0.057 6.37 2.51 9.39
7/11/2021 7:15:00 PM 18.16 64.688 0.057 6.36 2.3 9.38
7/11/2021 7:30:00 PM 18.16 64.688 0.057 6.35 2.52 9.37
7/11/2021 7:45:00 PM 18.16 64.688 0.057 6.33 2.46 9.37
7/11/2021 8:00:00 PM 18.16 64.688 0.057 6.33 2.37 9.36
7/11/2021 8:15:00 PM 18.15 64.67 0.057 6.31 2.23 9.36
7/11/2021 8:30:00 PM 18.15 64.67 0.057 6.3 2.27 9.35
7/11/2021 8:45:00 PM 18.15 64.67 0.058 6.29 2.24 9.34
7/11/2021 9:00:00 PM 18.15 64.67 0.058 6.29 2.27 9.33
7/11/2021 9:15:00 PM 18.16 64.688 0.058 6.29 2.28 9.33
7/11/2021 9:30:00 PM 18.16 64.688 0.058 6.28 2.33 9.33
7/11/2021 9:45:00 PM 18.18 64.724 0.057 6.29 2.49 9.33
7/11/2021 10:00:00 PM 18.2 64.76 0.057 6.32 2.43 9.31
7/11/2021 10:15:00 PM 18.21 64.778 0.057 6.34 2.54 9.32
7/11/2021 10:30:00 PM 18.2 64.76 0.057 6.35 2.45 9.32
7/11/2021 10:45:00 PM 18.2 64.76 0.057 6.36 2.64 9.31
7/11/2021 11:00:00 PM 18.2 64.76 0.056 6.34 2.64 9.32
7/11/2021 11:15:00 PM 18.2 64.76 0.056 6.35 2.78 9.32
7/11/2021 11:30:00 PM 18.19 64.742 0.056 6.34 2.9 9.32
7/11/2021 11:45:00 PM 18.19 64.742 0.056 6.33 3.26 9.33
7/12/2021 12:00:00 AM 18.18 64.724 0.056 6.32 3.48 9.33
7/12/2021 12:15:00 AM 18.18 64.724 0.056 6.35 3.89 9.34
7/12/2021 12:30:00 AM 18.2 64.76 0.056 6.33 4.7 9.35
7/12/2021 12:45:00 AM 18.2 64.76 0.056 6.32 4.91 9.35
7/12/2021 1:00:00 AM 18.22 64.796 0.057 6.31 5.53 9.35
7/12/2021 1:15:00 AM 18.23 64.814 0.056 6.3 6.05 9.35
7/12/2021 1:30:00 AM 18.24 64.832 0.056 6.3 7.01 9.36
7/12/2021 1:45:00 AM 18.24 64.832 0.056 6.3 7.24 9.37
7/12/2021 2:00:00 AM 18.24 64.832 0.057 6.31 7.71 9.37
7/12/2021 2:15:00 AM 18.25 64.85 0.058 6.32 7.8 9.37
7/12/2021 2:30:00 AM 18.25 64.85 0.059 6.31 8.56 9.37
7/12/2021 2:45:00 AM 18.26 64.868 0.059 6.31 9.21 9.38
7/12/2021 3:00:00 AM 18.25 64.85 0.059 6.29 9.29 9.38
7/12/2021 3:15:00 AM 18.24 64.832 0.058 6.28 9.42 9.38
7/12/2021 3:30:00 AM 18.23 64.814 0.057 6.26 9.48 9.38
7/12/2021 3:45:00 AM 18.24 64.832 0.056 6.26 9.38 9.38
7/12/2021 4:00:00 AM 18.26 64.868 0.056 6.26 9.67 9.37
7/12/2021 4:15:00 AM 18.26 64.868 0.057 6.25 9.78 9.37
7/12/2021 4:30:00 AM 18.25 64.85 0.058 6.27 9.77 9.37
7/12/2021 4:45:00 AM 18.24 64.832 0.058 6.26 9.22 9.38
7/12/2021 5:00:00 AM 18.23 64.814 0.059 6.26 9.2 9.37
7/12/2021 5:15:00 AM 18.22 64.796 0.059 6.26 8.98 9.38
7/12/2021 5:30:00 AM 18.22 64.796 0.059 6.27 9.1 9.38
7/12/2021 5:45:00 AM 18.22 64.796 0.059 6.25 8.99 9.38
7/12/2021 6:00:00 AM 18.22 64.796 0.058 6.24 8.25 9.38
7/12/2021 6:15:00 AM 18.22 64.796 0.058 6.23 7.85 9.38
7/12/2021 6:30:00 AM 18.22 64.796 0.057 6.22 7.65 9.38
7/12/2021 6:45:00 AM 18.22 64.796 0.057 6.21 7.32 9.39
7/12/2021 7:00:00 AM 18.22 64.796 0.057 6.21 7.16 9.39
7/12/2021 7:15:00 AM 18.22 64.796 0.057 6.22 6.85 9.41
7/12/2021 7:30:00 AM 18.22 64.796 0.058 6.23 6.41 9.42
7/12/2021 7:45:00 AM 18.22 64.796 0.058 6.23 6.1 9.41
7/12/2021 8:00:00 AM 18.23 64.814 0.058 6.23 6.01 9.42
7/12/2021 8:15:00 AM 18.24 64.832 0.057 6.25 5.56 9.45
7/12/2021 8:30:00 AM 18.25 64.85 0.057 6.26 5.44 9.45
7/12/2021 8:45:00 AM 18.26 64.868 0.057 6.28 5.32 9.46
7/12/2021 9:00:00 AM 18.28 64.904 0.057 6.28 5.46 9.46
7/12/2021 9:15:00 AM 18.29 64.922 0.057 6.29 5.31 9.47
7/12/2021 9:30:00 AM 18.3 64.94 0.056 6.31 4.98 9.47
7/12/2021 9:45:00 AM 18.33 64.994 0.056 6.33 4.69 9.5
7/12/2021 10:00:00 AM 18.36 65.048 0.056 6.36 4.76 9.5
7/12/2021 10:15:00 AM 18.4 65.12 0.056 6.37 4.76 9.49
7/12/2021 10:30:00 AM 18.45 65.21 0.056 6.41 4.74 9.51
7/12/2021 10:45:00 AM 18.47 65.246 0.055 6.41 4.35 9.49
7/12/2021 11:00:00 AM 18.53 65.354 0.055 6.43 4.49 9.51
7/12/2021 11:15:00 AM 18.62 65.516 0.055 6.45 4.45 9.51
7/12/2021 11:30:00 AM 18.71 65.67799 0.055 6.45 4.3 9.49
7/12/2021 11:45:00 AM 18.81 65.858 0.055 6.47 4.22 9.46
7/12/2021 12:00:00 PM 18.94 66.092 0.055 6.46 4.28 9.45
7/12/2021 12:15:00 PM 19.01 66.218 0.055 6.45 4.29 9.43
7/12/2021 12:30:00 PM 19.09 66.362 0.055 6.47 4.05 9.43
7/12/2021 12:45:00 PM 19.22 66.596 0.055 6.47 4.19 9.41
7/12/2021 1:00:00 PM 19.36 66.848 0.055 6.47 3.92 9.4
7/12/2021 1:15:00 PM 19.36 66.848 0.055 6.47 3.88 9.37
7/12/2021 1:30:00 PM 19.48 67.064 0.055 6.48 3.77 9.36
7/12/2021 1:45:00 PM 19.58 67.244 0.055 6.48 3.79 9.35
7/12/2021 2:00:00 PM 19.53 67.154 0.055 6.46 3.82 9.31
7/12/2021 2:15:00 PM 19.57 67.226 0.055 6.46 3.99 9.31
7/12/2021 2:30:00 PM 19.61 67.298 0.055 6.46 3.66 9.3
7/12/2021 2:45:00 PM 19.67 67.406 0.055 6.45 3.82 9.29
7/12/2021 3:00:00 PM 19.8 67.64 0.055 6.46 3.9 9.26
7/12/2021 3:15:00 PM 19.9 67.82 0.055 6.46 3.72 9.23
7/12/2021 3:30:00 PM 19.91 67.838 0.055 6.45 3.68 9.21
7/12/2021 3:45:00 PM 19.95 67.91 0.055 6.45 3.87 9.19
7/12/2021 4:00:00 PM 20 68 0.055 6.43 3.45 9.17
7/12/2021 4:15:00 PM 20.05 68.09 0.055 6.44 3.75 9.14
7/12/2021 4:30:00 PM 20.08 68.144 0.055 6.44 3.48 9.16
7/12/2021 4:45:00 PM 20.1 68.18 0.055 6.42 3.57 9.15
7/12/2021 5:00:00 PM 20.08 68.144 0.055 6.41 3.43 9.11
7/12/2021 5:15:00 PM 20.07 68.126 0.055 6.39 3.4 9.09
7/12/2021 5:30:00 PM 20.06 68.108 0.055 6.38 3.4 9.08
7/12/2021 5:45:00 PM 20.04 68.07201 0.055 6.36 3.37 9.08
7/12/2021 6:00:00 PM 20.01 68.018 0.055 6.35 3.38 9.08
7/12/2021 6:15:00 PM 20 68 0.055 6.34 3.3 9.1
7/12/2021 6:30:00 PM 19.99 67.982 0.055 6.34 3.18 9.09
7/12/2021 6:45:00 PM 19.99 67.982 0.055 6.33 3.69 9.09
7/12/2021 7:00:00 PM 19.99 67.982 0.055 6.32 3.39 9.1
7/12/2021 7:15:00 PM 19.99 67.982 0.055 6.32 3.17 9.09
7/12/2021 7:30:00 PM 19.99 67.982 0.055 6.31 3.16 9.08
7/12/2021 7:45:00 PM 19.99 67.982 0.055 6.3 3.11 9.07
7/12/2021 8:00:00 PM 19.99 67.982 0.055 6.3 3.13 9.07
7/12/2021 8:15:00 PM 19.98 67.964 0.055 6.3 3.03 9.05
7/12/2021 8:30:00 PM 19.96 67.92799 0.055 6.29 3.07 9.04
7/12/2021 8:45:00 PM 19.94 67.892 0.055 6.29 3 9.04
7/12/2021 9:00:00 PM 19.92 67.856 0.055 6.27 3.05 9.04
7/12/2021 9:15:00 PM 19.9 67.82 0.056 6.25 3.35 9.04
7/12/2021 9:30:00 PM 19.88 67.784 0.056 6.25 2.97 9.04
7/12/2021 9:45:00 PM 19.87 67.766 0.056 6.25 3.05 9.05
7/12/2021 10:00:00 PM 19.85 67.73 0.056 6.25 3 9.06
7/12/2021 10:15:00 PM 19.84 67.712 0.056 6.24 2.85 9.06
7/12/2021 10:30:00 PM 19.82 67.676 0.056 6.24 3.03 9.07
7/12/2021 10:45:00 PM 19.81 67.658 0.056 6.25 2.86 9.07
7/12/2021 11:00:00 PM 19.79 67.622 0.056 6.25 2.98 9.08
7/12/2021 11:15:00 PM 19.77 67.586 0.056 6.26 3.02 9.08
7/12/2021 11:30:00 PM 19.75 67.55 0.056 6.25 2.86 9.08
7/12/2021 11:45:00 PM 19.73 67.514 0.056 6.25 2.9 9.08
7/13/2021 12:00:00 AM 19.72 67.496 0.056 6.24 2.98 9.08
7/13/2021 12:15:00 AM 19.7 67.46 0.056 6.24 2.92 9.09
7/13/2021 12:30:00 AM 19.68 67.424 0.056 6.24 2.87 9.09
7/13/2021 12:45:00 AM 19.66 67.388 0.056 6.23 2.94 9.1
7/13/2021 1:00:00 AM 19.64 67.352 0.056 6.23 2.82 9.1
7/13/2021 1:15:00 AM 19.63 67.334 0.056 6.23 2.74 9.1
7/13/2021 1:30:00 AM 19.62 67.316 0.056 6.23 2.79 9.1
7/13/2021 1:45:00 AM 19.6 67.28 0.056 6.23 2.73 9.11
7/13/2021 2:00:00 AM 19.59 67.262 0.056 6.23 2.71 9.11
7/13/2021 2:15:00 AM 19.57 67.226 0.056 6.23 2.59 9.11
7/13/2021 2:30:00 AM 19.55 67.19 0.056 6.23 2.72 9.12
7/13/2021 2:45:00 AM 19.54 67.172 0.056 6.22 2.74 9.12
7/13/2021 3:00:00 AM 19.53 67.154 0.056 6.22 2.58 9.12
7/13/2021 3:15:00 AM 19.52 67.136 0.056 6.23 2.69 9.13
7/13/2021 3:30:00 AM 19.51 67.118 0.056 6.24 2.86 9.13
7/13/2021 3:45:00 AM 19.49 67.082 0.056 6.24 2.65 9.13
7/13/2021 4:00:00 AM 19.48 67.064 0.056 6.23 2.65 9.13
7/13/2021 4:15:00 AM 19.46 67.028 0.056 6.24 2.62 9.13
7/13/2021 4:30:00 AM 19.45 67.01 0.057 6.23 2.67 9.13
7/13/2021 4:45:00 AM 19.43 66.974 0.057 6.23 2.64 9.14
7/13/2021 5:00:00 AM 19.42 66.956 0.057 6.24 2.79 9.14
7/13/2021 5:15:00 AM 19.4 66.92 0.057 6.24 2.61 9.14
7/13/2021 5:30:00 AM 19.38 66.884 0.057 6.24 2.78 9.14
7/13/2021 5:45:00 AM 19.36 66.848 0.057 6.23 2.66 9.15
7/13/2021 6:00:00 AM 19.34 66.812 0.057 6.24 2.67 9.16
7/13/2021 6:15:00 AM 19.33 66.794 0.057 6.25 2.77 9.16
7/13/2021 6:30:00 AM 19.31 66.758 0.057 6.27 2.76 9.18
7/13/2021 6:45:00 AM 19.29 66.722 0.057 6.26 2.62 9.19
7/13/2021 7:00:00 AM 19.27 66.686 0.057 6.26 2.83 9.2
7/13/2021 7:15:00 AM 19.26 66.668 0.057 6.26 2.75 9.21
7/13/2021 7:30:00 AM 19.25 66.65 0.057 6.28 2.68 9.24
7/13/2021 7:45:00 AM 19.25 66.65 0.057 6.28 2.76 9.27
7/13/2021 8:00:00 AM 19.25 66.65 0.057 6.28 2.79 9.28
7/13/2021 8:15:00 AM 19.25 66.65 0.057 6.28 2.77 9.29
7/13/2021 8:30:00 AM 19.26 66.668 0.057 6.28 2.66 9.32
7/13/2021 8:45:00 AM 19.27 66.686 0.057 6.28 2.81 9.33
7/13/2021 9:00:00 AM 19.29 66.722 0.057 6.29 2.66 9.33
7/13/2021 9:15:00 AM 19.3 66.74 0.057 6.3 2.67 9.35
7/13/2021 9:30:00 AM 19.32 66.776 0.057 6.32 2.71 9.35
7/13/2021 9:45:00 AM 19.35 66.83 0.057 6.35 2.64 9.35
7/13/2021 10:00:00 AM 19.37 66.866 0.057 6.37 2.6 9.34
7/13/2021 10:15:00 AM 19.39 66.902 0.057 6.38 2.8 9.33
7/13/2021 10:30:00 AM 19.41 66.938 0.057 6.41 2.74 9.32
7/13/2021 10:45:00 AM 19.41 66.938 0.057 6.39 2.68 9.3
7/13/2021 11:00:00 AM 19.42 66.956 0.057 6.42 2.65 9.34
7/13/2021 11:15:00 AM 19.46 67.028 0.057 6.44 2.78 9.38
7/13/2021 11:30:00 AM 19.51 67.118 0.057 6.45 2.71 9.36
7/13/2021 11:45:00 AM 19.53 67.154 0.057 6.47 2.62 9.33
7/13/2021 12:00:00 PM 19.54 67.172 0.057 6.46 2.67 9.3
7/13/2021 12:15:00 PM 19.57 67.226 0.057 6.47 2.59 9.32
7/13/2021 12:30:00 PM 19.6 67.28 0.057 6.47 2.77 9.33
7/13/2021 12:45:00 PM 19.67 67.406 0.057 6.48 2.79 9.35
7/13/2021 1:00:00 PM 19.7 67.46 0.057 6.51 2.85 9.36
7/13/2021 1:15:00 PM 19.78 67.604 0.057 6.51 2.62 9.35
7/13/2021 1:30:00 PM 19.83 67.694 0.057 6.51 2.66 9.31
7/13/2021 1:45:00 PM 19.94 67.892 0.057 6.53 2.6 9.3
7/13/2021 2:00:00 PM 20 68 0.057 6.53 2.68 9.29
7/13/2021 2:15:00 PM 20.1 68.18 0.057 6.53 2.65 9.28
7/13/2021 2:30:00 PM 20.14 68.252 0.057 6.54 2.45 9.27
7/13/2021 2:45:00 PM 20.17 68.306 0.057 6.55 2.67 9.27
7/13/2021 3:00:00 PM 20.23 68.414 0.057 6.55 2.56 9.25
7/13/2021 3:15:00 PM 20.27 68.486 0.057 6.54 2.5 9.23
7/13/2021 3:30:00 PM 20.29 68.522 0.057 6.54 2.55 9.21
7/13/2021 3:45:00 PM 20.34 68.612 0.057 6.55 2.5 9.21
7/13/2021 4:00:00 PM 20.35 68.63 0.057 6.55 2.59 9.2
7/13/2021 4:15:00 PM 20.34 68.612 0.057 6.54 3.05 9.16
7/13/2021 4:30:00 PM 20.36 68.648 0.057 6.54 2.61 9.17
7/13/2021 4:45:00 PM 20.38 68.684 0.057 6.53 2.41 9.15
7/13/2021 5:00:00 PM 20.4 68.72 0.057 6.53 2.57 9.15
7/13/2021 5:15:00 PM 20.41 68.738 0.057 6.53 2.6 9.12
7/13/2021 5:30:00 PM 20.41 68.738 0.057 6.51 2.49 9.12
7/13/2021 5:45:00 PM 20.44 68.792 0.057 6.51 2.67 9.12
7/13/2021 6:00:00 PM 20.44 68.792 0.057 6.51 2.66 9.08
7/13/2021 6:15:00 PM 20.41 68.738 0.058 6.48 2.62 9.04
7/13/2021 6:30:00 PM 20.38 68.684 0.058 6.46 2.5 9.04
7/13/2021 6:45:00 PM 20.34 68.612 0.058 6.45 2.5 9.04
7/13/2021 7:00:00 PM 20.3 68.54 0.058 6.43 2.53 9.03
7/13/2021 7:15:00 PM 20.27 68.486 0.058 6.42 2.43 9.02
7/13/2021 7:30:00 PM 20.23 68.414 0.058 6.41 2.72 9.01
7/13/2021 7:45:00 PM 20.2 68.36 0.058 6.38 2.46 9
7/13/2021 8:00:00 PM 20.17 68.306 0.058 6.36 2.44 9
7/13/2021 8:15:00 PM 20.14 68.252 0.058 6.35 2.49 9
7/13/2021 8:30:00 PM 20.12 68.216 0.058 6.36 2.44 9
7/13/2021 8:45:00 PM 20.09 68.162 0.058 6.36 2.92 9
7/13/2021 9:00:00 PM 20.08 68.144 0.058 6.35 2.39 9
7/13/2021 9:15:00 PM 20.06 68.108 0.058 6.36 2.53 9.01
7/13/2021 9:30:00 PM 20.05 68.09 0.058 6.35 2.52 9.01
7/13/2021 9:45:00 PM 20.03 68.054 0.058 6.35 2.55 9.01
7/13/2021 10:00:00 PM 20.02 68.036 0.058 6.37 2.5 9.02
7/13/2021 10:15:00 PM 19.99 67.982 0.058 6.4 2.49 9.04
7/13/2021 10:30:00 PM 19.95 67.91 0.058 6.42 2.32 9.04
7/13/2021 10:45:00 PM 19.92 67.856 0.057 6.43 2.69 9.05
7/13/2021 11:00:00 PM 19.86 67.748 0.057 6.42 2.96 9.04
7/13/2021 11:15:00 PM 19.82 67.676 0.057 6.44 2.71 9.05
7/13/2021 11:30:00 PM 19.78 67.604 0.057 6.43 2.85 9.05
7/13/2021 11:45:00 PM 19.74 67.532 0.056 6.43 3.01 9.06
7/14/2021 12:00:00 AM 19.69 67.442 0.056 6.43 3.49 9.06
7/14/2021 12:15:00 AM 19.66 67.388 0.057 6.42 3.74 9.07
7/14/2021 12:30:00 AM 19.61 67.298 0.056 6.42 3.77 9.09
7/14/2021 12:45:00 AM 19.56 67.208 0.055 6.41 4.44 9.09
7/14/2021 1:00:00 AM 19.54 67.172 0.055 6.42 4.42 9.09
7/14/2021 1:15:00 AM 19.52 67.136 0.056 6.42 5.32 9.09
7/14/2021 1:30:00 AM 19.49 67.082 0.057 6.46 8.1 9.11
7/14/2021 1:45:00 AM 19.45 67.01 0.057 6.44 8.97 9.13
7/14/2021 2:00:00 AM 19.41 66.938 0.057 6.44 8.23 9.14
7/14/2021 2:15:00 AM 19.37 66.866 0.057 6.45 7.95 9.16
7/14/2021 2:30:00 AM 19.33 66.794 0.056 6.45 7.86 9.17
7/14/2021 2:45:00 AM 19.29 66.722 0.056 6.45 7.93 9.18
7/14/2021 3:00:00 AM 19.25 66.65 0.056 6.45 7.33 9.2
7/14/2021 3:15:00 AM 19.22 66.596 0.056 6.45 7.72 9.2
7/14/2021 3:30:00 AM 19.19 66.542 0.056 6.44 7.08 9.22
7/14/2021 3:45:00 AM 19.16 66.488 0.056 6.43 6.74 9.23
7/14/2021 4:00:00 AM 19.13 66.434 0.056 6.43 6.91 9.23
7/14/2021 4:15:00 AM 19.1 66.38 0.056 6.42 6.94 9.24
7/14/2021 4:30:00 AM 19.07 66.326 0.056 6.42 7.01 9.25
7/14/2021 4:45:00 AM 19.04 66.272 0.056 6.41 6.65 9.26
7/14/2021 5:00:00 AM 19 66.2 0.056 6.39 6.61 9.27
7/14/2021 5:15:00 AM 18.97 66.146 0.055 6.39 6.6 9.28
7/14/2021 5:30:00 AM 18.93 66.074 0.055 6.38 6.56 9.28
7/14/2021 5:45:00 AM 18.89 66.002 0.055 6.38 6.44 9.29
7/14/2021 6:00:00 AM 18.85 65.93 0.055 6.37 6.47 9.3
7/14/2021 6:15:00 AM 18.81 65.858 0.056 6.37 6.03 9.32
7/14/2021 6:30:00 AM 18.77 65.786 0.056 6.35 5.77 9.33
7/14/2021 6:45:00 AM 18.73 65.714 0.056 6.37 5.97 9.34
7/14/2021 7:00:00 AM 18.7 65.66 0.056 6.34 5.71 9.35
7/14/2021 7:15:00 AM 18.68 65.624 0.056 6.35 5.5 9.37
7/14/2021 7:30:00 AM 18.66 65.588 0.056 6.35 5.59 9.38
7/14/2021 7:45:00 AM 18.65 65.57 0.056 6.34 5.16 9.39
7/14/2021 8:00:00 AM 18.64 65.552 0.056 6.35 5.15 9.4
7/14/2021 8:15:00 AM 18.63 65.534 0.056 6.33 4.95 9.4
7/14/2021 8:30:00 AM 18.63 65.534 0.056 6.33 4.62 9.4
7/14/2021 8:45:00 AM 18.64 65.552 0.055 6.34 4.63 9.43
7/14/2021 9:00:00 AM 18.64 65.552 0.055 6.34 4.7 9.42
7/14/2021 9:15:00 AM 18.66 65.588 0.055 6.33 4.47 9.45
7/14/2021 9:30:00 AM 18.69 65.642 0.055 6.31 4.63 9.46
7/14/2021 9:45:00 AM 18.72 65.696 0.055 6.34 4.26 9.46
7/14/2021 10:00:00 AM 18.76 65.768 0.054 6.36 4.49 9.46
7/14/2021 10:15:00 AM 18.79 65.82201 0.054 6.36 4.25 9.46
7/14/2021 10:30:00 AM 18.81 65.858 0.054 6.37 4.37 9.42
7/14/2021 10:45:00 AM 18.83 65.894 0.054 6.35 4.23 9.41
7/14/2021 11:00:00 AM 18.85 65.93 0.054 6.38 4.16 9.43
7/14/2021 11:15:00 AM 18.94 66.092 0.053 6.4 4.22 9.46
7/14/2021 11:30:00 AM 19.03 66.254 0.053 6.42 4.05 9.45
7/14/2021 11:45:00 AM 19.13 66.434 0.053 6.43 4.34 9.44
7/14/2021 12:00:00 PM 19.19 66.542 0.053 6.44 3.94 9.42
7/14/2021 12:15:00 PM 19.32 66.776 0.053 6.46 4.02 9.41
7/14/2021 12:30:00 PM 19.42 66.956 0.053 6.46 3.81 9.39
7/14/2021 12:45:00 PM 19.42 66.956 0.053 6.45 4.25 9.37
7/14/2021 1:00:00 PM 19.5 67.1 0.053 6.44 3.86 9.36
7/14/2021 1:15:00 PM 19.57 67.226 0.052 6.45 4 9.35
7/14/2021 1:30:00 PM 19.68 67.424 0.052 6.45 3.91 9.32
7/14/2021 1:45:00 PM 19.79 67.622 0.052 6.45 3.62 9.31
7/14/2021 2:00:00 PM 19.9 67.82 0.052 6.46 3.73 9.28
7/14/2021 2:15:00 PM 19.93 67.874 0.052 6.44 3.77 9.25
7/14/2021 2:30:00 PM 19.93 67.874 0.052 6.45 3.71 9.25
7/14/2021 2:45:00 PM 19.97 67.946 0.052 6.43 3.84 9.24
7/14/2021 3:00:00 PM 19.99 67.982 0.052 6.44 3.64 9.22
7/14/2021 3:15:00 PM 19.95 67.91 0.052 6.42 3.49 9.23
7/14/2021 3:30:00 PM 19.97 67.946 0.052 6.42 3.42 9.23
7/14/2021 3:45:00 PM 20.01 68.018 0.052 6.43 3.41 9.23
7/14/2021 4:00:00 PM 20.04 68.07201 0.052 6.44 3.47 9.21
7/14/2021 4:15:00 PM 20.08 68.144 0.052 6.42 3.4 9.18
7/14/2021 4:30:00 PM 20.1 68.18 0.052 6.45 3.41 9.16
7/14/2021 4:45:00 PM 20.09 68.162 0.052 6.43 3.5 9.14
7/14/2021 5:00:00 PM 20.08 68.144 0.052 6.43 3.55 9.14
7/14/2021 5:15:00 PM 20.08 68.144 0.052 6.42 3.46 9.12
7/14/2021 5:30:00 PM 20.09 68.162 0.052 6.42 3.61 9.11
7/14/2021 5:45:00 PM 20.1 68.18 0.052 6.41 3.74 9.11
7/14/2021 6:00:00 PM 20.11 68.198 0.052 6.4 3.35 9.09
7/14/2021 6:15:00 PM 20.11 68.198 0.052 6.4 3.36 9.05
7/14/2021 6:30:00 PM 20.1 68.18 0.052 6.4 3.44 9.06
7/14/2021 6:45:00 PM 20.09 68.162 0.052 6.41 3.34 9.07
7/14/2021 7:00:00 PM 20.09 68.162 0.052 6.41 3.69 9.09
7/14/2021 7:15:00 PM 20.08 68.144 0.052 6.41 3.47 9.06
7/14/2021 7:30:00 PM 20.06 68.108 0.052 6.4 3.5 9.06
7/14/2021 7:45:00 PM 20.04 68.07201 0.052 6.39 3.71 9.05
7/14/2021 8:00:00 PM 20.01 68.018 0.052 6.39 3.56 9.06
7/14/2021 8:15:00 PM 19.99 67.982 0.052 6.39 3.55 9.06
7/14/2021 8:30:00 PM 19.97 67.946 0.052 6.39 3.65 9.06
7/14/2021 8:45:00 PM 19.96 67.92799 0.052 6.39 3.34 9.07
7/14/2021 9:00:00 PM 19.93 67.874 0.053 6.39 3.68 9.07
7/14/2021 9:15:00 PM 19.91 67.838 0.053 6.39 3.65 9.07
7/14/2021 9:30:00 PM 19.88 67.784 0.053 6.39 3.45 9.08
7/14/2021 9:45:00 PM 19.86 67.748 0.052 6.39 3.28 9.08
7/14/2021 10:00:00 PM 19.84 67.712 0.052 6.39 3.52 9.08
7/14/2021 10:15:00 PM 19.82 67.676 0.053 6.39 3.37 9.09
7/14/2021 10:30:00 PM 19.8 67.64 0.053 6.38 3.34 9.09
7/14/2021 10:45:00 PM 19.79 67.622 0.053 6.37 3.29 9.1
7/14/2021 11:00:00 PM 19.77 67.586 0.053 6.37 3.35 9.1
7/14/2021 11:15:00 PM 19.76 67.568 0.053 6.37 3.4 9.11
7/14/2021 11:30:00 PM 19.74 67.532 0.053 6.37 3.14 9.11
7/14/2021 11:45:00 PM 19.72 67.496 0.052 6.36 3.45 9.11
7/15/2021 12:00:00 AM 19.7 67.46 0.052 6.36 3.16 9.12
7/15/2021 12:15:00 AM 19.68 67.424 0.052 6.36 3.25 9.12
7/15/2021 12:30:00 AM 19.65 67.37 0.052 6.36 3.49 9.12
7/15/2021 12:45:00 AM 19.62 67.316 0.052 6.35 3.12 9.13
7/15/2021 1:00:00 AM 19.59 67.262 0.052 6.35 3.21 9.13
7/15/2021 1:15:00 AM 19.56 67.208 0.052 6.35 3.24 9.14
7/15/2021 1:30:00 AM 19.52 67.136 0.052 6.35 3.45 9.14
7/15/2021 1:45:00 AM 19.49 67.082 0.053 6.35 3.04 9.15
7/15/2021 2:00:00 AM 19.46 67.028 0.053 6.34 3.7 9.15
7/15/2021 2:15:00 AM 19.42 66.956 0.053 6.35 3.03 9.16
7/15/2021 2:30:00 AM 19.38 66.884 0.053 6.35 3.33 9.17
7/15/2021 2:45:00 AM 19.34 66.812 0.053 6.34 2.98 9.17
7/15/2021 3:00:00 AM 19.3 66.74 0.053 6.34 3.19 9.18
7/15/2021 3:15:00 AM 19.26 66.668 0.053 6.33 3.31 9.19
7/15/2021 3:30:00 AM 19.22 66.596 0.053 6.33 3.15 9.2
7/15/2021 3:45:00 AM 19.17 66.506 0.053 6.34 3.05 9.2
7/15/2021 4:00:00 AM 19.13 66.434 0.053 6.34 3.02 9.21
7/15/2021 4:15:00 AM 19.08 66.344 0.053 6.34 3.12 9.22
7/15/2021 4:30:00 AM 19.03 66.254 0.053 6.33 4.27 9.23
7/15/2021 4:45:00 AM 18.98 66.164 0.053 6.33 3 9.24
7/15/2021 5:00:00 AM 18.93 66.074 0.053 6.32 3.04 9.25
7/15/2021 5:15:00 AM 18.88 65.984 0.053 6.32 3.14 9.26
7/15/2021 5:30:00 AM 18.83 65.894 0.053 6.33 3.09 9.27
7/15/2021 5:45:00 AM 18.78 65.804 0.053 6.33 3.07 9.27
7/15/2021 6:00:00 AM 18.74 65.732 0.053 6.33 3.36 9.28
7/15/2021 6:15:00 AM 18.69 65.642 0.053 6.33 3.19 9.3
7/15/2021 6:30:00 AM 18.65 65.57 0.053 6.33 3.14 9.31
7/15/2021 6:45:00 AM 18.61 65.498 0.053 6.33 3.12 9.33
7/15/2021 7:00:00 AM 18.58 65.444 0.053 6.33 2.95 9.35
7/15/2021 7:15:00 AM 18.54 65.372 0.053 6.33 3.26 9.36
7/15/2021 7:30:00 AM 18.52 65.336 0.053 6.33 3.09 9.37
7/15/2021 7:45:00 AM 18.49 65.282 0.053 6.34 2.92 9.39
7/15/2021 8:00:00 AM 18.47 65.246 0.053 6.35 3.12 9.41
7/15/2021 8:15:00 AM 18.46 65.228 0.053 6.35 3.04 9.43
7/15/2021 8:30:00 AM 18.46 65.228 0.053 6.35 2.81 9.44
7/15/2021 8:45:00 AM 18.47 65.246 0.053 6.37 2.93 9.47
7/15/2021 9:00:00 AM 18.48 65.264 0.053 6.38 4.02 9.48
7/15/2021 9:15:00 AM 18.51 65.318 0.053 6.39 3.45 9.5
7/15/2021 9:30:00 AM 18.54 65.372 0.053 6.39 2.73 9.51
7/15/2021 9:45:00 AM 18.57 65.426 0.054 6.41 3.02 9.51
7/15/2021 10:00:00 AM 18.61 65.498 0.054 6.4 2.91 9.51
7/15/2021 10:15:00 AM 18.68 65.624 0.054 6.42 2.97 9.51
7/15/2021 10:30:00 AM 18.75 65.75 0.054 6.43 6.98 9.5
7/15/2021 10:45:00 AM 18.84 65.912 0.054 6.45 3.1 9.5
7/15/2021 11:00:00 AM 18.96 66.128 0.054 6.46 2.79 9.48
7/15/2021 11:15:00 AM 19.07 66.326 0.054 6.48 2.88 9.46
7/15/2021 11:30:00 AM 19.19 66.542 0.054 6.49 2.75 9.43
7/15/2021 11:45:00 AM 19.32 66.776 0.054 6.5 2.78 9.41
7/15/2021 12:00:00 PM 19.47 67.046 0.054 6.51 2.82 9.4
7/15/2021 12:15:00 PM 19.6 67.28 0.054 6.51 2.71 9.37
7/15/2021 12:30:00 PM 19.75 67.55 0.054 6.53 2.78 9.35
7/15/2021 12:45:00 PM 19.9 67.82 0.054 6.53 2.69 9.32
7/15/2021 1:00:00 PM 20.03 68.054 0.054 6.54 2.78 9.3
7/15/2021 1:15:00 PM 20.14 68.252 0.054 6.54 2.75 9.27
7/15/2021 1:30:00 PM 20.25 68.45 0.054 6.54 3.09 9.25
7/15/2021 1:45:00 PM 20.34 68.612 0.054 6.54 3.08 9.23
7/15/2021 2:00:00 PM 20.38 68.684 0.054 6.54 3.01 9.22
7/15/2021 2:15:00 PM 20.4 68.72 0.054 6.54 2.78 9.19
7/15/2021 2:30:00 PM 20.44 68.792 0.054 6.55 2.62 9.18
7/15/2021 2:45:00 PM 20.48 68.864 0.054 6.54 2.95 9.16
7/15/2021 3:00:00 PM 20.52 68.936 0.054 6.54 2.82 9.14
7/15/2021 3:15:00 PM 20.57 69.026 0.054 6.53 2.87 9.13
7/15/2021 3:30:00 PM 20.59 69.062 0.054 6.53 2.8 9.12
7/15/2021 3:45:00 PM 20.57 69.026 0.054 6.53 2.73 9.11
7/15/2021 4:00:00 PM 20.53 68.954 0.054 6.51 2.78 9.11
7/15/2021 4:15:00 PM 20.51 68.918 0.054 6.5 2.64 9.12
7/15/2021 4:30:00 PM 20.46 68.828 0.054 6.5 2.59 9.11
7/15/2021 4:45:00 PM 20.43 68.774 0.055 6.5 2.63 9.11
7/15/2021 5:00:00 PM 20.41 68.738 0.055 6.49 2.73 9.11
7/15/2021 5:15:00 PM 20.4 68.72 0.055 6.49 3.06 9.08
7/15/2021 5:30:00 PM 20.39 68.702 0.055 6.47 2.78 9.07
7/15/2021 5:45:00 PM 20.38 68.684 0.055 6.47 2.75 9.06
7/15/2021 6:00:00 PM 20.37 68.666 0.055 6.46 2.89 9.06
7/15/2021 6:15:00 PM 20.36 68.648 0.055 6.44 2.71 9.04
7/15/2021 6:30:00 PM 20.35 68.63 0.055 6.45 2.68 9.03
7/15/2021 6:45:00 PM 20.33 68.594 0.055 6.44 2.81 9.02
7/15/2021 7:00:00 PM 20.32 68.576 0.055 6.42 3.1 8.99
7/15/2021 7:15:00 PM 20.31 68.558 0.055 6.42 2.59 9
7/15/2021 7:30:00 PM 20.3 68.54 0.055 6.41 3 8.99
7/15/2021 7:45:00 PM 20.29 68.522 0.055 6.4 2.6 8.99
7/15/2021 8:00:00 PM 20.27 68.486 0.055 6.38 2.68 8.97
7/15/2021 8:15:00 PM 20.26 68.468 0.055 6.37 2.71 8.96
7/15/2021 8:30:00 PM 20.25 68.45 0.055 6.36 2.5 8.95
7/15/2021 8:45:00 PM 20.24 68.432 0.055 6.36 2.85 8.95
7/15/2021 9:00:00 PM 20.22 68.396 0.055 6.37 2.75 8.94
7/15/2021 9:15:00 PM 20.2 68.36 0.055 6.37 2.62 8.95
7/15/2021 9:30:00 PM 20.18 68.324 0.055 6.37 2.83 8.95
7/15/2021 9:45:00 PM 20.16 68.288 0.055 6.39 2.85 8.96
7/15/2021 10:00:00 PM 20.14 68.252 0.055 6.39 2.56 8.97
7/15/2021 10:15:00 PM 20.12 68.216 0.055 6.39 2.49 8.97
7/15/2021 10:30:00 PM 20.09 68.162 0.055 6.39 2.74 8.97
7/15/2021 10:45:00 PM 20.07 68.126 0.055 6.39 2.54 8.97
7/15/2021 11:00:00 PM 20.04 68.07201 0.055 6.39 3.22 8.98
7/15/2021 11:15:00 PM 20.02 68.036 0.055 6.39 2.65 8.99
7/15/2021 11:30:00 PM 19.99 67.982 0.055 6.39 2.6 8.99
7/15/2021 11:45:00 PM 19.97 67.946 0.055 6.39 2.44 9
7/16/2021 12:00:00 AM 19.94 67.892 0.055 6.38 3.25 8.99
7/16/2021 12:15:00 AM 19.91 67.838 0.055 6.39 2.49 9.01
7/16/2021 12:30:00 AM 19.89 67.802 0.055 6.38 2.65 9.01
7/16/2021 12:45:00 AM 19.86 67.748 0.055 6.38 2.36 9.01
7/16/2021 1:00:00 AM 19.83 67.694 0.055 6.39 2.44 9.02
7/16/2021 1:15:00 AM 19.8 67.64 0.055 6.38 2.42 9.02
7/16/2021 1:30:00 AM 19.77 67.586 0.055 6.38 2.44 9.03
7/16/2021 1:45:00 AM 19.75 67.55 0.055 6.38 2.56 9.04
7/16/2021 2:00:00 AM 19.72 67.496 0.055 6.38 2.42 9.04
7/16/2021 2:15:00 AM 19.7 67.46 0.055 6.38 2.85 9.05
7/16/2021 2:30:00 AM 19.67 67.406 0.055 6.37 2.62 9.05
7/16/2021 2:45:00 AM 19.64 67.352 0.055 6.38 2.54 9.06
7/16/2021 3:00:00 AM 19.61 67.298 0.055 6.38 2.39 9.06
7/16/2021 3:15:00 AM 19.58 67.244 0.055 6.38 2.43 9.06
7/16/2021 3:30:00 AM 19.55 67.19 0.055 6.37 2.63 9.07
7/16/2021 3:45:00 AM 19.52 67.136 0.055 6.37 2.67 9.08
7/16/2021 4:00:00 AM 19.48 67.064 0.055 6.37 2.44 9.08
7/16/2021 4:15:00 AM 19.45 67.01 0.055 6.38 2.4 9.09
7/16/2021 4:30:00 AM 19.41 66.938 0.055 6.37 2.52 9.1
7/16/2021 4:45:00 AM 19.38 66.884 0.055 6.38 2.39 9.1
7/16/2021 5:00:00 AM 19.34 66.812 0.055 6.37 2.4 9.11
7/16/2021 5:15:00 AM 19.31 66.758 0.055 6.36 2.5 9.12
7/16/2021 5:30:00 AM 19.27 66.686 0.055 6.37 2.36 9.13
7/16/2021 5:45:00 AM 19.24 66.632 0.055 6.37 2.77 9.13
7/16/2021 6:00:00 AM 19.2 66.56 0.055 6.36 2.95 9.14
7/16/2021 6:15:00 AM 19.17 66.506 0.055 6.37 2.79 9.15
7/16/2021 6:30:00 AM 19.13 66.434 0.055 6.37 4.26 9.17
7/16/2021 6:45:00 AM 19.1 66.38 0.055 6.37 2.84 9.19
7/16/2021 7:00:00 AM 19.08 66.344 0.055 6.37 2.87 9.2
7/16/2021 7:15:00 AM 19.06 66.308 0.055 6.38 2.39 9.22
7/16/2021 7:30:00 AM 19.04 66.272 0.055 6.37 2.54 9.24
7/16/2021 7:45:00 AM 19.03 66.254 0.055 6.41 2.67 9.25
7/16/2021 8:00:00 AM 19.02 66.236 0.055 6.38 2.69 9.27
7/16/2021 8:15:00 AM 19.02 66.236 0.055 6.38 2.34 9.28
7/16/2021 8:30:00 AM 19.02 66.236 0.055 6.38 2.75 9.29
7/16/2021 8:45:00 AM 19.04 66.272 0.055 6.39 2.5 9.31
7/16/2021 9:00:00 AM 19.06 66.308 0.055 6.4 2.41 9.32
7/16/2021 9:15:00 AM 19.11 66.398 0.055 6.42 2.52 9.33
7/16/2021 9:30:00 AM 19.15 66.47 0.055 6.44 2.3 9.34
7/16/2021 9:45:00 AM 19.21 66.578 0.055 6.46 2.39 9.34
7/16/2021 10:00:00 AM 19.29 66.722 0.055 6.5 2.32 9.34
7/16/2021 10:15:00 AM 19.36 66.848 0.055 6.51 2.33 9.34
7/16/2021 10:30:00 AM 19.44 66.992 0.055 6.52 2.34 9.33
7/16/2021 10:45:00 AM 19.56 67.208 0.055 6.54 2.36 9.32
7/16/2021 11:00:00 AM 19.68 67.424 0.055 6.55 2.54 9.31
7/16/2021 11:15:00 AM 19.82 67.676 0.055 6.56 2.4 9.29
7/16/2021 11:30:00 AM 19.96 67.92799 0.055 6.57 2.33 9.27
7/16/2021 11:45:00 AM 20.13 68.234 0.055 6.58 2.17 9.25
7/16/2021 12:00:00 PM 20.29 68.522 0.055 6.59 2.44 9.23
7/16/2021 12:15:00 PM 20.45 68.81 0.055 6.6 2.26 9.2
7/16/2021 12:30:00 PM 20.63 69.134 0.055 6.6 2.67 9.18
7/16/2021 12:45:00 PM 20.8 69.44 0.055 6.6 2.62 9.15
7/16/2021 1:00:00 PM 20.97 69.746 0.055 6.62 2.6 9.12
7/16/2021 1:15:00 PM 21.13 70.034 0.055 6.62 2.71 9.1
7/16/2021 1:30:00 PM 21.26 70.268 0.055 6.62 2.96 9.07
7/16/2021 1:45:00 PM 21.36 70.448 0.055 6.62 2.39 9.04
7/16/2021 2:00:00 PM 21.42 70.556 0.055 6.62 2.3 9.02
7/16/2021 2:15:00 PM 21.44 70.592 0.055 6.62 2.23 9.01
7/16/2021 2:30:00 PM 21.43 70.574 0.055 6.62 2.22 9
7/16/2021 2:45:00 PM 21.35 70.43 0.055 6.59 2.22 8.95
7/16/2021 3:00:00 PM 21.29 70.32201 0.055 6.54 2.3 8.87
7/16/2021 3:15:00 PM 21.24 70.232 0.055 6.52 2.23 8.84
7/16/2021 3:30:00 PM 21.19 70.142 0.055 6.53 2.62 8.87
7/16/2021 3:45:00 PM 21.15 70.07 0.055 6.55 2.37 8.94
7/16/2021 4:00:00 PM 21.12 70.016 0.055 6.55 2.14 8.95
7/16/2021 4:15:00 PM 21.09 69.962 0.055 6.55 2.2 8.92
7/16/2021 4:30:00 PM 21.08 69.944 0.055 6.55 2.29 8.96
7/16/2021 4:45:00 PM 21.1 69.98 0.055 6.55 4.91 8.98
7/16/2021 5:00:00 PM 21.07 69.926 0.055 6.54 2.17 8.94
7/16/2021 5:15:00 PM 21.04 69.872 0.055 6.54 2.35 8.96
7/16/2021 5:30:00 PM 21 69.8 0.055 6.54 2.2 8.97
7/16/2021 5:45:00 PM 20.99 69.782 0.055 6.54 2.19 8.97
7/16/2021 6:00:00 PM 20.96 69.728 0.055 6.55 2.5 8.96
7/16/2021 6:15:00 PM 20.92 69.656 0.055 6.53 2.27 8.94
7/16/2021 6:30:00 PM 20.88 69.584 0.056 6.51 2.33 8.9
7/16/2021 6:45:00 PM 20.84 69.512 0.056 6.49 2.47 8.9
7/16/2021 7:00:00 PM 20.81 69.458 0.056 6.49 2.27 8.88
7/16/2021 7:15:00 PM 20.79 69.422 0.056 6.48 2.26 8.87
7/16/2021 7:30:00 PM 20.75 69.35 0.056 6.48 2.86 8.86
7/16/2021 7:45:00 PM 20.71 69.278 0.056 6.49 2.41 8.88
7/16/2021 8:00:00 PM 20.68 69.224 0.056 6.49 2.49 8.88
7/16/2021 8:15:00 PM 20.65 69.17 0.056 6.5 2.45 8.88
7/16/2021 8:30:00 PM 20.62 69.116 0.056 6.48 2.41 8.88
7/16/2021 8:45:00 PM 20.6 69.08 0.055 6.48 2.26 8.88
7/16/2021 9:00:00 PM 20.58 69.044 0.055 6.48 2.36 8.88
7/16/2021 9:15:00 PM 20.56 69.008 0.055 6.48 2.43 8.89
7/16/2021 9:30:00 PM 20.54 68.972 0.055 6.49 2.25 8.89
7/16/2021 9:45:00 PM 20.51 68.918 0.055 6.47 2.34 8.9
7/16/2021 10:00:00 PM 20.49 68.882 0.055 6.48 2.25 8.9
7/16/2021 10:15:00 PM 20.46 68.828 0.055 6.47 2.3 8.91
7/16/2021 10:30:00 PM 20.44 68.792 0.055 6.48 2.2 8.92
7/16/2021 10:45:00 PM 20.41 68.738 0.055 6.48 2.23 8.92
7/16/2021 11:00:00 PM 20.38 68.684 0.055 6.47 2.25 8.93
7/16/2021 11:15:00 PM 20.35 68.63 0.055 6.48 2.25 8.93
7/16/2021 11:30:00 PM 20.31 68.558 0.056 6.47 2.29 8.94
7/16/2021 11:45:00 PM 20.28 68.504 0.056 6.47 2.29 8.94
7/17/2021 12:00:00 AM 20.25 68.45 0.056 6.47 2.16 8.96
7/17/2021 12:15:00 AM 20.22 68.396 0.056 6.47 2.32 8.95
7/17/2021 12:30:00 AM 20.18 68.324 0.056 6.47 2.25 8.96
7/17/2021 12:45:00 AM 20.15 68.27 0.056 6.47 2.5 8.97
7/17/2021 1:00:00 AM 20.12 68.216 0.056 6.47 2.48 8.98
7/17/2021 1:15:00 AM 20.1 68.18 0.056 6.47 2.61 8.98
7/17/2021 1:30:00 AM 20.07 68.126 0.056 6.48 2.28 8.99
7/17/2021 1:45:00 AM 20.04 68.07201 0.056 6.47 2.5 8.99
7/17/2021 2:00:00 AM 20.01 68.018 0.056 6.47 2.39 9
7/17/2021 2:15:00 AM 19.98 67.964 0.056 6.46 2.43 9
7/17/2021 2:30:00 AM 19.95 67.91 0.056 6.46 2.24 9
7/17/2021 2:45:00 AM 19.92 67.856 0.056 6.46 2.31 9.01
7/17/2021 3:00:00 AM 19.89 67.802 0.056 6.46 2.33 9.01
7/17/2021 3:15:00 AM 19.86 67.748 0.056 6.45 2.3 9.03
7/17/2021 3:30:00 AM 19.83 67.694 0.056 6.44 2.32 9.03
7/17/2021 3:45:00 AM 19.81 67.658 0.056 6.44 2.38 9.03
7/17/2021 4:00:00 AM 19.78 67.604 0.056 6.44 2.22 9.04
7/17/2021 4:15:00 AM 19.76 67.568 0.056 6.44 2.59 9.04
7/17/2021 4:30:00 AM 19.74 67.532 0.056 6.45 2.13 9.05
7/17/2021 4:45:00 AM 19.71 67.478 0.056 6.44 3.15 9.05
7/17/2021 5:00:00 AM 19.69 67.442 0.056 6.44 2.19 9.06
7/17/2021 5:15:00 AM 19.67 67.406 0.056 6.45 2.32 9.06
7/17/2021 5:30:00 AM 19.64 67.352 0.056 6.45 2.33 9.07
7/17/2021 5:45:00 AM 19.62 67.316 0.056 6.45 2.55 9.07
7/17/2021 6:00:00 AM 19.59 67.262 0.056 6.45 2.65 9.08
7/17/2021 6:15:00 AM 19.57 67.226 0.056 6.45 2.29 9.1
7/17/2021 6:30:00 AM 19.54 67.172 0.056 6.45 2.25 9.1
7/17/2021 6:45:00 AM 19.52 67.136 0.056 6.46 2.52 9.12
7/17/2021 7:00:00 AM 19.5 67.1 0.056 6.46 2.08 9.15
7/17/2021 7:15:00 AM 19.48 67.064 0.056 6.47 2.22 9.17
7/17/2021 7:30:00 AM 19.47 67.046 0.056 6.47 4.98 9.19
7/17/2021 7:45:00 AM 19.46 67.028 0.056 6.47 2.96 9.19
7/17/2021 8:00:00 AM 19.45 67.01 0.056 6.47 2.3 9.2
7/17/2021 8:15:00 AM 19.44 66.992 0.056 6.46 2.26 9.21
7/17/2021 8:30:00 AM 19.43 66.974 0.056 6.47 2.15 9.23
7/17/2021 8:45:00 AM 19.44 66.992 0.056 6.48 2.35 9.26
7/17/2021 9:00:00 AM 19.44 66.992 0.056 6.49 2.59 9.28
7/17/2021 9:15:00 AM 19.45 67.01 0.056 6.5 2.05 9.28
7/17/2021 9:30:00 AM 19.5 67.1 0.056 6.52 2.05 9.32
7/17/2021 9:45:00 AM 19.53 67.154 0.056 6.54 2.31 9.33
7/17/2021 10:00:00 AM 19.56 67.208 0.056 6.55 2.29 9.35
7/17/2021 10:15:00 AM 19.58 67.244 0.056 6.55 2.16 9.34
7/17/2021 10:30:00 AM 19.63 67.334 0.056 6.57 2.08 9.35
7/17/2021 10:45:00 AM 19.7 67.46 0.056 6.58 2.23 9.34
7/17/2021 11:00:00 AM 19.79 67.622 0.055 6.6 2.15 9.33
7/17/2021 11:15:00 AM 19.87 67.766 0.055 6.61 2.46 9.33
7/17/2021 11:30:00 AM 19.95 67.91 0.055 6.62 2.25 9.31
7/17/2021 11:45:00 AM 20.09 68.162 0.055 6.63 2.22 9.3
7/17/2021 12:00:00 PM 20.22 68.396 0.055 6.64 2.33 9.28
7/17/2021 12:15:00 PM 20.34 68.612 0.055 6.64 2.31 9.26
7/17/2021 12:30:00 PM 20.46 68.828 0.055 6.66 2.24 9.25
7/17/2021 12:45:00 PM 20.59 69.062 0.055 6.67 2.01 9.23
7/17/2021 1:00:00 PM 20.68 69.224 0.055 6.67 2.09 9.21
7/17/2021 1:15:00 PM 20.72 69.296 0.055 6.66 2.15 9.19
7/17/2021 1:30:00 PM 20.75 69.35 0.055 6.66 2.11 9.18
7/17/2021 1:45:00 PM 20.87 69.566 0.055 6.66 2.1 9.17
7/17/2021 2:00:00 PM 20.94 69.692 0.055 6.66 2.05 9.14
7/17/2021 2:15:00 PM 21.04 69.872 0.055 6.65 2.34 9.09
7/17/2021 2:30:00 PM 21.04 69.872 0.055 6.65 2.02 9.07
7/17/2021 2:45:00 PM 21.08 69.944 0.055 6.64 2.16 9.04
7/17/2021 3:00:00 PM 21.1 69.98 0.056 6.63 2.23 9.02
7/17/2021 3:15:00 PM 21.18 70.124 0.055 6.63 2.58 9.01
7/17/2021 3:30:00 PM 21.21 70.17799 0.056 6.63 2.16 9
7/17/2021 3:45:00 PM 21.17 70.106 0.056 6.61 3.17 8.97
7/17/2021 4:00:00 PM 21.15 70.07 0.056 6.61 4.31 8.97
7/17/2021 4:15:00 PM 21.12 70.016 0.056 6.6 2.13 8.95
7/17/2021 4:30:00 PM 21.12 70.016 0.056 6.59 2.08 8.93
7/17/2021 4:45:00 PM 21.12 70.016 0.056 6.57 2.3 8.91
7/17/2021 5:00:00 PM 21.12 70.016 0.056 6.56 2.17 8.92
7/17/2021 5:15:00 PM 21.14 70.052 0.056 6.57 2.04 8.94
7/17/2021 5:30:00 PM 21.14 70.052 0.056 6.58 2.3 8.88
7/17/2021 5:45:00 PM 21.11 69.998 0.056 6.57 2.69 8.85
7/17/2021 6:00:00 PM 21.07 69.926 0.056 6.57 2.18 8.84
7/17/2021 6:15:00 PM 21.04 69.872 0.056 6.56 2.23 8.83
7/17/2021 6:30:00 PM 21 69.8 0.056 6.55 2.24 8.81
7/17/2021 6:45:00 PM 20.93 69.674 0.055 6.54 2.74 8.8
7/17/2021 7:00:00 PM 20.88 69.584 0.055 6.51 2.5 8.79
7/17/2021 7:15:00 PM 20.84 69.512 0.055 6.51 2.7 8.79
7/17/2021 7:30:00 PM 20.8 69.44 0.055 6.51 2.74 8.8
7/17/2021 7:45:00 PM 20.75 69.35 0.054 6.51 2.89 8.8
7/17/2021 8:00:00 PM 20.71 69.278 0.054 6.51 4.37 8.81
7/17/2021 8:15:00 PM 20.67 69.206 0.055 6.51 7.3 8.83
7/17/2021 8:30:00 PM 20.63 69.134 0.055 6.5 5.56 8.83
7/17/2021 8:45:00 PM 20.59 69.062 0.055 6.5 4.59 8.83
7/17/2021 9:00:00 PM 20.57 69.026 0.055 6.49 4.93 8.84
7/17/2021 9:15:00 PM 20.55 68.99 0.055 6.49 4.5 8.85
7/17/2021 9:30:00 PM 20.53 68.954 0.055 6.51 8.09 8.88
7/17/2021 9:45:00 PM 20.54 68.972 0.054 6.51 10.48 8.91
7/17/2021 10:00:00 PM 20.55 68.99 0.053 6.5 11.59 8.92
7/17/2021 10:15:00 PM 20.55 68.99 0.05 6.48 11.44 8.93
7/17/2021 10:30:00 PM 20.54 68.972 0.048 6.44 10.52 8.94
7/17/2021 10:45:00 PM 20.53 68.954 0.047 6.42 12.51 8.94
7/17/2021 11:00:00 PM 20.53 68.954 0.046 6.41 12.98 8.94
7/17/2021 11:15:00 PM 20.54 68.972 0.045 6.39 13.53 8.94
7/17/2021 11:30:00 PM 20.54 68.972 0.044 6.38 16.19 8.95
7/17/2021 11:45:00 PM 20.52 68.936 0.044 6.37 16.1 8.95
7/18/2021 12:00:00 AM 20.45 68.81 0.044 6.34 22.41 8.97
7/18/2021 12:15:00 AM 20.37 68.666 0.044 6.32 15.98 8.99
7/18/2021 12:30:00 AM 20.28 68.504 0.045 6.31 14.42 9.01
7/18/2021 12:45:00 AM 20.2 68.36 0.045 6.29 13.43 9.02
7/18/2021 1:00:00 AM 20.13 68.234 0.045 6.28 13.18 9.04
7/18/2021 1:15:00 AM 20.07 68.126 0.046 6.26 13.05 9.05
7/18/2021 1:30:00 AM 20.01 68.018 0.046 6.24 11.71 9.06
7/18/2021 1:45:00 AM 19.96 67.92799 0.047 6.23 10.57 9.07
7/18/2021 2:00:00 AM 19.91 67.838 0.047 6.23 10.21 9.08
7/18/2021 2:15:00 AM 19.87 67.766 0.048 6.22 10.13 9.08
7/18/2021 2:30:00 AM 19.83 67.694 0.048 6.22 9.28 9.09
7/18/2021 2:45:00 AM 19.79 67.622 0.047 6.2 8.87 9.1
7/18/2021 3:00:00 AM 19.75 67.55 0.047 6.2 8.78 9.12
7/18/2021 3:15:00 AM 19.72 67.496 0.047 6.2 8.37 9.11
7/18/2021 3:30:00 AM 19.69 67.442 0.046 6.18 8.03 9.12
7/18/2021 3:45:00 AM 19.66 67.388 0.046 6.18 7.64 9.11
7/18/2021 4:00:00 AM 19.63 67.334 0.046 6.17 7.32 9.12
7/18/2021 4:30:00 AM 19.59 67.262 0.045 6.15 6.91 9.12
7/18/2021 4:45:00 AM 19.57 67.226 0.045 6.15 6.49 9.13
7/18/2021 5:00:00 AM 19.55 67.19 0.045 6.14 6.42 9.13
7/18/2021 5:15:00 AM 19.53 67.154 0.045 6.11 6.2 9.14
7/18/2021 5:30:00 AM 19.52 67.136 0.044 6.13 6.25 9.14
7/18/2021 5:45:00 AM 19.51 67.118 0.044 6.12 6.05 9.14
7/18/2021 6:00:00 AM 19.5 67.1 0.044 6.11 6.1 9.14
7/18/2021 6:15:00 AM 19.49 67.082 0.044 6.12 6.03 9.14
7/18/2021 6:30:00 AM 19.48 67.064 0.044 6.11 6.15 9.15
7/18/2021 6:45:00 AM 19.47 67.046 0.044 6.11 5.81 9.15
7/18/2021 7:00:00 AM 19.47 67.046 0.044 6.13 5.68 9.16
7/18/2021 7:15:00 AM 19.47 67.046 0.044 6.14 5.36 9.17
7/18/2021 7:30:00 AM 19.47 67.046 0.044 6.13 5.51 9.18
7/18/2021 7:45:00 AM 19.47 67.046 0.043 6.16 5.48 9.19
7/18/2021 8:00:00 AM 19.47 67.046 0.043 6.18 5.21 9.19
7/18/2021 8:15:00 AM 19.48 67.064 0.043 6.18 5.24 9.19
7/18/2021 8:30:00 AM 19.48 67.064 0.043 6.19 5.3 9.2
7/18/2021 8:45:00 AM 19.48 67.064 0.043 6.18 5.2 9.21
7/18/2021 9:00:00 AM 19.48 67.064 0.043 6.18 5.08 9.21
7/18/2021 9:15:00 AM 19.48 67.064 0.043 6.19 5 9.21
7/18/2021 9:30:00 AM 19.47 67.046 0.043 6.19 4.99 9.2
7/18/2021 9:45:00 AM 19.47 67.046 0.043 6.2 4.89 9.21
7/18/2021 10:00:00 AM 19.49 67.082 0.043 6.21 4.74 9.24
7/18/2021 10:15:00 AM 19.49 67.082 0.043 6.21 4.89 9.24
7/18/2021 10:30:00 AM 19.49 67.082 0.043 6.22 4.7 9.24
7/18/2021 10:45:00 AM 19.49 67.082 0.043 6.23 4.72 9.25
7/18/2021 11:00:00 AM 19.51 67.118 0.043 6.23 4.64 9.24
7/18/2021 11:15:00 AM 19.51 67.118 0.043 6.23 4.55 9.24
7/18/2021 11:30:00 AM 19.51 67.118 0.043 6.22 4.66 9.22
7/18/2021 11:45:00 AM 19.52 67.136 0.043 6.23 4.52 9.24
7/18/2021 12:00:00 PM 19.52 67.136 0.044 6.23 4.52 9.24
7/18/2021 12:15:00 PM 19.54 67.172 0.044 6.23 4.46 9.25
7/18/2021 12:30:00 PM 19.55 67.19 0.044 6.24 4.46 9.24
7/18/2021 12:45:00 PM 19.54 67.172 0.044 6.23 4.33 9.24
7/18/2021 1:00:00 PM 19.52 67.136 0.044 6.24 4.52 9.23
7/18/2021 1:15:00 PM 19.49 67.082 0.044 6.22 4.43 9.22
7/18/2021 1:30:00 PM 19.46 67.028 0.044 6.24 4.34 9.24
7/18/2021 1:45:00 PM 19.44 66.992 0.045 6.24 4.39 9.26
7/18/2021 2:00:00 PM 19.43 66.974 0.045 6.23 4.33 9.26
7/18/2021 2:15:00 PM 19.41 66.938 0.045 6.23 4.2 9.26
7/18/2021 2:30:00 PM 19.39 66.902 0.045 6.25 4.17 9.26
7/18/2021 2:45:00 PM 19.37 66.866 0.045 6.25 4.02 9.27
7/18/2021 3:00:00 PM 19.35 66.83 0.045 6.25 4.09 9.26
7/18/2021 3:15:00 PM 19.34 66.812 0.045 6.25 4.05 9.27
7/18/2021 3:30:00 PM 19.33 66.794 0.045 6.25 4.13 9.27
7/18/2021 3:45:00 PM 19.32 66.776 0.045 6.25 4.2 9.26
7/18/2021 4:00:00 PM 19.3 66.74 0.046 6.25 4.03 9.26
7/18/2021 4:15:00 PM 19.29 66.722 0.046 6.24 4.04 9.25
7/18/2021 4:30:00 PM 19.28 66.704 0.046 6.24 4.06 9.28
7/18/2021 4:45:00 PM 19.29 66.722 0.046 6.25 4.14 9.29
7/18/2021 5:00:00 PM 19.28 66.704 0.046 6.25 3.78 9.26
7/18/2021 5:15:00 PM 19.27 66.686 0.046 6.24 3.93 9.25
7/18/2021 5:30:00 PM 19.28 66.704 0.046 6.25 3.81 9.27
7/18/2021 5:45:00 PM 19.28 66.704 0.046 6.24 4.08 9.26
7/18/2021 6:00:00 PM 19.27 66.686 0.046 6.24 4.04 9.25
7/18/2021 6:15:00 PM 19.26 66.668 0.046 6.24 3.82 9.25
7/18/2021 6:30:00 PM 19.25 66.65 0.046 6.24 4 9.27
7/18/2021 6:45:00 PM 19.25 66.65 0.046 6.25 3.9 9.25
7/18/2021 7:00:00 PM 19.25 66.65 0.046 6.24 3.89 9.24
7/18/2021 7:15:00 PM 19.24 66.632 0.046 6.24 3.82 9.23
7/18/2021 7:30:00 PM 19.24 66.632 0.046 6.23 3.87 9.23
7/18/2021 7:45:00 PM 19.22 66.596 0.046 6.23 3.84 9.23
7/18/2021 8:00:00 PM 19.21 66.578 0.046 6.22 3.82 9.23
7/18/2021 8:15:00 PM 19.19 66.542 0.046 6.23 3.64 9.23
7/18/2021 8:30:00 PM 19.17 66.506 0.046 6.23 3.77 9.23
7/18/2021 8:45:00 PM 19.15 66.47 0.046 6.22 3.67 9.23
7/18/2021 9:00:00 PM 19.13 66.434 0.046 6.23 3.84 9.23
7/18/2021 9:15:00 PM 19.12 66.416 0.046 6.22 3.71 9.24
7/18/2021 9:30:00 PM 19.1 66.38 0.046 6.22 3.68 9.24
7/18/2021 9:45:00 PM 19.08 66.344 0.046 6.22 3.6 9.25
7/18/2021 10:00:00 PM 19.06 66.308 0.046 6.21 3.78 9.25
7/18/2021 10:15:00 PM 19.04 66.272 0.046 6.21 3.55 9.25
7/18/2021 10:30:00 PM 19.02 66.236 0.046 6.21 3.59 9.26
7/18/2021 10:45:00 PM 19 66.2 0.046 6.22 3.42 9.27
7/18/2021 11:00:00 PM 18.98 66.164 0.046 6.2 3.47 9.26
7/18/2021 11:15:00 PM 18.96 66.128 0.046 6.21 3.53 9.27
7/18/2021 11:30:00 PM 18.94 66.092 0.046 6.21 3.43 9.28
7/18/2021 11:45:00 PM 18.91 66.038 0.046 6.21 3.45 9.28
7/19/2021 12:00:00 AM 18.88 65.984 0.046 6.21 3.36 9.28
7/19/2021 12:15:00 AM 18.85 65.93 0.046 6.21 3.48 9.29
7/19/2021 12:30:00 AM 18.81 65.858 0.046 6.21 3.42 9.3
7/19/2021 12:45:00 AM 18.77 65.786 0.046 6.22 3.42 9.3
7/19/2021 1:00:00 AM 18.74 65.732 0.046 6.22 3.31 9.31
7/19/2021 1:15:00 AM 18.69 65.642 0.046 6.22 3.35 9.32
7/19/2021 1:30:00 AM 18.65 65.57 0.046 6.22 3.24 9.33
7/19/2021 1:45:00 AM 18.61 65.498 0.046 6.21 3.36 9.34
7/19/2021 2:00:00 AM 18.56 65.408 0.046 6.22 3.31 9.34
7/19/2021 2:15:00 AM 18.51 65.318 0.046 6.21 3.36 9.35
7/19/2021 2:30:00 AM 18.46 65.228 0.046 6.22 3.26 9.36
7/19/2021 2:45:00 AM 18.41 65.138 0.046 6.21 3.29 9.37
7/19/2021 3:00:00 AM 18.36 65.048 0.046 6.22 3.23 9.38
7/19/2021 3:15:00 AM 18.31 64.958 0.046 6.22 3.21 9.39
7/19/2021 3:30:00 AM 18.26 64.868 0.046 6.22 3.3 9.4
7/19/2021 3:45:00 AM 18.22 64.796 0.046 6.23 3.26 9.4
7/19/2021 4:00:00 AM 18.17 64.706 0.046 6.21 3.11 9.41
7/19/2021 4:15:00 AM 18.13 64.634 0.046 6.22 3.09 9.42
7/19/2021 4:30:00 AM 18.08 64.544 0.046 6.21 3.24 9.43
7/19/2021 4:45:00 AM 18.04 64.472 0.046 6.21 3.18 9.43
7/19/2021 5:00:00 AM 17.99 64.382 0.046 6.21 3.24 9.45
7/19/2021 5:15:00 AM 17.94 64.292 0.046 6.21 3.19 9.46
7/19/2021 5:30:00 AM 17.89 64.202 0.046 6.22 3.39 9.47
7/19/2021 5:45:00 AM 17.84 64.112 0.046 6.21 3.19 9.48
7/19/2021 6:00:00 AM 17.78 64.004 0.046 6.21 3.3 9.49
7/19/2021 6:15:00 AM 17.73 63.914 0.046 6.22 3.38 9.5
7/19/2021 6:30:00 AM 17.68 63.824 0.046 6.21 3.35 9.51
7/19/2021 6:45:00 AM 17.63 63.734 0.046 6.22 3.16 9.53
7/19/2021 7:00:00 AM 17.59 63.662 0.046 6.22 3.18 9.55
7/19/2021 7:15:00 AM 17.55 63.59 0.046 6.23 3.26 9.57
7/19/2021 7:30:00 AM 17.51 63.518 0.046 6.23 3.13 9.58
7/19/2021 7:45:00 AM 17.49 63.482 0.046 6.24 3.68 9.59
7/19/2021 8:00:00 AM 17.46 63.428 0.046 6.25 3.11 9.61
7/19/2021 8:15:00 AM 17.45 63.41 0.046 6.25 3.16 9.61
7/19/2021 8:30:00 AM 17.45 63.41 0.046 6.26 3.17 9.63
7/19/2021 8:45:00 AM 17.46 63.428 0.046 6.26 3.16 9.64
7/19/2021 9:00:00 AM 17.48 63.464 0.046 6.27 3.09 9.65
7/19/2021 9:15:00 AM 17.51 63.518 0.046 6.27 3.14 9.65
7/19/2021 9:30:00 AM 17.55 63.59 0.046 6.28 3.25 9.65
7/19/2021 9:45:00 AM 17.6 63.68 0.046 6.3 3.14 9.65
7/19/2021 10:00:00 AM 17.67 63.806 0.046 6.3 3.12 9.66
7/19/2021 10:15:00 AM 17.74 63.932 0.046 6.31 3.13 9.65
7/19/2021 10:30:00 AM 17.82 64.076 0.047 6.33 3.02 9.64
7/19/2021 10:45:00 AM 17.91 64.238 0.047 6.33 3.15 9.64
7/19/2021 11:00:00 AM 18.02 64.436 0.047 6.34 3.06 9.62
7/19/2021 11:15:00 AM 18.14 64.652 0.047 6.35 3.06 9.61
7/19/2021 11:30:00 AM 18.26 64.868 0.047 6.37 2.94 9.6
7/19/2021 11:45:00 AM 18.36 65.048 0.047 6.37 3.07 9.57
7/19/2021 12:00:00 PM 18.47 65.246 0.047 6.38 3.03 9.55
7/19/2021 12:15:00 PM 18.59 65.462 0.047 6.38 3.27 9.54
7/19/2021 12:30:00 PM 18.72 65.696 0.047 6.39 3.04 9.52
7/19/2021 12:45:00 PM 18.88 65.984 0.047 6.4 3.01 9.49
7/19/2021 1:00:00 PM 19 66.2 0.047 6.4 3.03 9.46
7/19/2021 1:15:00 PM 19.11 66.398 0.047 6.41 3.13 9.44
7/19/2021 1:30:00 PM 19.21 66.578 0.047 6.4 2.97 9.42
7/19/2021 1:45:00 PM 19.29 66.722 0.047 6.41 2.91 9.38
7/19/2021 2:00:00 PM 19.34 66.812 0.047 6.4 3.1 9.36
7/19/2021 2:15:00 PM 19.42 66.956 0.047 6.4 3.37 9.36
7/19/2021 2:30:00 PM 19.5 67.1 0.047 6.42 3.01 9.34
7/19/2021 2:45:00 PM 19.53 67.154 0.047 6.4 2.98 9.31
7/19/2021 3:00:00 PM 19.57 67.226 0.047 6.4 2.89 9.3
7/19/2021 3:15:00 PM 19.61 67.298 0.047 6.41 3.03 9.3
7/19/2021 3:30:00 PM 19.64 67.352 0.047 6.4 3.1 9.27
7/19/2021 3:45:00 PM 19.65 67.37 0.047 6.38 3.02 9.23
7/19/2021 4:00:00 PM 19.66 67.388 0.047 6.37 2.92 9.22
7/19/2021 4:15:00 PM 19.66 67.388 0.047 6.37 2.91 9.23
7/19/2021 4:30:00 PM 19.67 67.406 0.047 6.37 2.93 9.23
7/19/2021 4:45:00 PM 19.69 67.442 0.047 6.37 2.83 9.23
7/19/2021 5:00:00 PM 19.73 67.514 0.047 6.38 2.97 9.21
7/19/2021 5:15:00 PM 19.75 67.55 0.047 6.37 2.99 9.2
7/19/2021 5:30:00 PM 19.75 67.55 0.048 6.36 2.96 9.17
7/19/2021 5:45:00 PM 19.76 67.568 0.048 6.35 2.94 9.16
7/19/2021 6:00:00 PM 19.77 67.586 0.048 6.34 3.01 9.16
7/19/2021 6:15:00 PM 19.8 67.64 0.048 6.34 2.85 9.17
7/19/2021 6:30:00 PM 19.82 67.676 0.048 6.34 2.91 9.15
7/19/2021 6:45:00 PM 19.83 67.694 0.048 6.34 2.73 9.13
7/19/2021 7:00:00 PM 19.84 67.712 0.048 6.34 2.91 9.12
7/19/2021 7:15:00 PM 19.84 67.712 0.048 6.33 2.86 9.11
7/19/2021 7:30:00 PM 19.84 67.712 0.048 6.32 2.81 9.1
7/19/2021 7:45:00 PM 19.83 67.694 0.048 6.3 2.93 9.09
7/19/2021 8:00:00 PM 19.83 67.694 0.048 6.31 2.89 9.08
7/19/2021 8:15:00 PM 19.83 67.694 0.048 6.31 2.88 9.08
7/19/2021 8:30:00 PM 19.82 67.676 0.048 6.32 2.84 9.07
7/19/2021 8:45:00 PM 19.81 67.658 0.048 6.33 2.88 9.07
7/19/2021 9:00:00 PM 19.8 67.64 0.048 6.33 2.96 9.07
7/19/2021 9:15:00 PM 19.8 67.64 0.048 6.34 2.88 9.07
7/19/2021 9:30:00 PM 19.79 67.622 0.048 6.34 2.88 9.08
7/19/2021 9:45:00 PM 19.78 67.604 0.048 6.34 2.84 9.08
7/19/2021 10:00:00 PM 19.76 67.568 0.048 6.33 2.75 9.08
7/19/2021 10:15:00 PM 19.75 67.55 0.048 6.33 2.71 9.08
7/19/2021 10:30:00 PM 19.73 67.514 0.048 6.33 2.65 9.09
7/19/2021 10:45:00 PM 19.72 67.496 0.048 6.33 2.67 9.09
7/19/2021 11:00:00 PM 19.7 67.46 0.048 6.34 2.67 9.09
7/19/2021 11:15:00 PM 19.68 67.424 0.048 6.33 2.74 9.09
7/19/2021 11:30:00 PM 19.65 67.37 0.048 6.33 2.7 9.1
7/19/2021 11:45:00 PM 19.63 67.334 0.048 6.33 2.62 9.1
7/20/2021 12:00:00 AM 19.61 67.298 0.048 6.33 2.77 9.11
7/20/2021 12:15:00 AM 19.58 67.244 0.048 6.32 2.68 9.11
7/20/2021 12:30:00 AM 19.55 67.19 0.048 6.33 2.69 9.12
7/20/2021 12:45:00 AM 19.52 67.136 0.048 6.32 2.77 9.12
7/20/2021 1:00:00 AM 19.49 67.082 0.048 6.32 2.68 9.12
7/20/2021 1:15:00 AM 19.46 67.028 0.048 6.32 2.51 9.13
7/20/2021 1:30:00 AM 19.43 66.974 0.048 6.32 2.53 9.13
7/20/2021 1:45:00 AM 19.4 66.92 0.048 6.32 2.64 9.14
7/20/2021 2:00:00 AM 19.37 66.866 0.048 6.31 2.54 9.15
7/20/2021 2:15:00 AM 19.33 66.794 0.048 6.31 2.68 9.15
7/20/2021 2:30:00 AM 19.29 66.722 0.048 6.31 2.45 9.16
7/20/2021 2:45:00 AM 19.25 66.65 0.048 6.32 2.59 9.17
7/20/2021 3:00:00 AM 19.21 66.578 0.048 6.31 2.69 9.17
7/20/2021 3:15:00 AM 19.16 66.488 0.048 6.31 2.59 9.18
7/20/2021 3:30:00 AM 19.12 66.416 0.048 6.31 2.54 9.19
7/20/2021 3:45:00 AM 19.07 66.326 0.048 6.31 2.56 9.19
7/20/2021 4:00:00 AM 19.02 66.236 0.048 6.3 2.52 9.21
7/20/2021 4:15:00 AM 18.96 66.128 0.049 6.3 2.52 9.21
7/20/2021 4:30:00 AM 18.91 66.038 0.049 6.31 2.6 9.22
7/20/2021 4:45:00 AM 18.86 65.948 0.049 6.3 2.45 9.23
7/20/2021 5:00:00 AM 18.8 65.84 0.049 6.3 2.49 9.24
7/20/2021 5:15:00 AM 18.75 65.75 0.049 6.29 2.62 9.25
7/20/2021 5:30:00 AM 18.69 65.642 0.049 6.3 2.54 9.26
7/20/2021 5:45:00 AM 18.64 65.552 0.049 6.3 2.55 9.28
7/20/2021 6:00:00 AM 18.59 65.462 0.049 6.31 2.74 9.28
7/20/2021 6:15:00 AM 18.55 65.39 0.049 6.3 2.64 9.3
7/20/2021 6:30:00 AM 18.51 65.318 0.049 6.3 2.71 9.31
7/20/2021 6:45:00 AM 18.47 65.246 0.049 6.31 2.81 9.33
7/20/2021 7:00:00 AM 18.43 65.174 0.049 6.31 2.64 9.35
7/20/2021 7:15:00 AM 18.41 65.138 0.049 6.32 2.61 9.36
7/20/2021 7:30:00 AM 18.39 65.102 0.049 6.34 2.56 9.38
7/20/2021 7:45:00 AM 18.37 65.066 0.049 6.35 2.73 9.39
7/20/2021 8:00:00 AM 18.36 65.048 0.049 6.34 2.62 9.41
7/20/2021 8:15:00 AM 18.35 65.03 0.049 6.35 2.59 9.43
7/20/2021 8:30:00 AM 18.36 65.048 0.049 6.36 2.62 9.45
7/20/2021 8:45:00 AM 18.37 65.066 0.049 6.37 2.55 9.46
7/20/2021 9:00:00 AM 18.38 65.084 0.049 6.38 2.68 9.48
7/20/2021 9:15:00 AM 18.41 65.138 0.049 6.38 2.5 9.49
7/20/2021 9:30:00 AM 18.45 65.21 0.049 6.38 2.45 9.49
7/20/2021 9:45:00 AM 18.5 65.3 0.049 6.41 2.55 9.5
7/20/2021 10:00:00 AM 18.55 65.39 0.049 6.43 2.5 9.5
7/20/2021 10:15:00 AM 18.61 65.498 0.049 6.43 2.6 9.5
7/20/2021 10:30:00 AM 18.68 65.624 0.049 6.44 2.55 9.5
7/20/2021 10:45:00 AM 18.76 65.768 0.049 6.45 2.56 9.49
7/20/2021 11:00:00 AM 18.83 65.894 0.049 6.46 2.56 9.48
7/20/2021 11:15:00 AM 18.91 66.038 0.049 6.47 2.47 9.47
7/20/2021 11:30:00 AM 19.01 66.218 0.049 6.49 2.5 9.47
7/20/2021 11:45:00 AM 19.12 66.416 0.049 6.5 2.58 9.45
7/20/2021 12:00:00 PM 19.22 66.596 0.049 6.52 2.49 9.43
7/20/2021 12:15:00 PM 19.3 66.74 0.049 6.51 2.47 9.42
7/20/2021 12:30:00 PM 19.42 66.956 0.049 6.52 2.72 9.4
7/20/2021 12:45:00 PM 19.49 67.082 0.049 6.51 2.58 9.37
7/20/2021 1:00:00 PM 19.5 67.1 0.049 6.51 2.59 9.35
7/20/2021 1:15:00 PM 19.59 67.262 0.049 6.52 2.59 9.35
7/20/2021 1:30:00 PM 19.69 67.442 0.049 6.52 2.47 9.34
7/20/2021 1:45:00 PM 19.79 67.622 0.049 6.53 2.43 9.31
7/20/2021 2:00:00 PM 19.87 67.766 0.049 6.53 2.54 9.29
7/20/2021 2:15:00 PM 19.88 67.784 0.049 6.53 2.41 9.28
7/20/2021 2:30:00 PM 19.94 67.892 0.049 6.53 2.45 9.27
7/20/2021 2:45:00 PM 20.02 68.036 0.049 6.53 2.55 9.25
7/20/2021 3:00:00 PM 20.07 68.126 0.049 6.53 2.59 9.23
7/20/2021 3:15:00 PM 20.1 68.18 0.049 6.52 2.56 9.22
7/20/2021 3:30:00 PM 20.11 68.198 0.049 6.52 2.6 9.21
7/20/2021 3:45:00 PM 20.16 68.288 0.049 6.51 2.53 9.19
7/20/2021 4:00:00 PM 20.2 68.36 0.049 6.51 2.42 9.17
7/20/2021 4:15:00 PM 20.23 68.414 0.049 6.5 2.42 9.15
7/20/2021 4:30:00 PM 20.25 68.45 0.049 6.5 2.55 9.13
7/20/2021 4:45:00 PM 20.28 68.504 0.049 6.49 2.44 9.12
7/20/2021 5:00:00 PM 20.29 68.522 0.049 6.49 2.44 9.11
7/20/2021 5:15:00 PM 20.3 68.54 0.049 6.48 2.49 9.1
7/20/2021 5:30:00 PM 20.31 68.558 0.049 6.47 2.44 9.08
7/20/2021 5:45:00 PM 20.31 68.558 0.049 6.46 2.55 9.07
7/20/2021 6:00:00 PM 20.32 68.576 0.05 6.44 2.5 9.06
7/20/2021 6:15:00 PM 20.32 68.576 0.05 6.43 2.52 9.04
7/20/2021 6:30:00 PM 20.32 68.576 0.05 6.42 2.58 9.04
7/20/2021 6:45:00 PM 20.31 68.558 0.05 6.42 2.59 9.03
7/20/2021 7:00:00 PM 20.31 68.558 0.05 6.41 2.51 9.02
7/20/2021 7:15:00 PM 20.31 68.558 0.05 6.39 2.4 9.01
7/20/2021 7:30:00 PM 20.31 68.558 0.05 6.38 2.47 8.99
7/20/2021 7:45:00 PM 20.3 68.54 0.05 6.37 2.63 8.97
7/20/2021 8:00:00 PM 20.3 68.54 0.05 6.35 2.85 8.96
7/20/2021 8:15:00 PM 20.29 68.522 0.051 6.35 2.56 8.94
7/20/2021 8:30:00 PM 20.28 68.504 0.051 6.34 2.51 8.94
7/20/2021 8:45:00 PM 20.27 68.486 0.051 6.34 2.42 8.93
7/20/2021 9:00:00 PM 20.25 68.45 0.051 6.35 2.53 8.93
7/20/2021 9:15:00 PM 20.24 68.432 0.051 6.35 2.49 8.93
7/20/2021 9:30:00 PM 20.23 68.414 0.051 6.37 2.47 8.92
7/20/2021 9:45:00 PM 20.21 68.378 0.051 6.37 2.5 8.94
7/20/2021 10:00:00 PM 20.2 68.36 0.051 6.37 2.52 8.95
7/20/2021 10:15:00 PM 20.19 68.342 0.051 6.38 2.33 8.95
7/20/2021 10:30:00 PM 20.17 68.306 0.051 6.38 2.37 8.95
7/20/2021 10:45:00 PM 20.16 68.288 0.051 6.37 2.59 8.96
7/20/2021 11:00:00 PM 20.14 68.252 0.051 6.38 2.35 8.95
7/20/2021 11:15:00 PM 20.13 68.234 0.051 6.37 2.34 8.96
7/20/2021 11:30:00 PM 20.12 68.216 0.051 6.37 2.34 8.96
7/20/2021 11:45:00 PM 20.1 68.18 0.051 6.37 2.24 8.96
7/21/2021 12:00:00 AM 20.09 68.162 0.051 6.37 2.33 8.97
7/21/2021 12:15:00 AM 20.08 68.144 0.051 6.38 2.3 8.98
7/21/2021 12:30:00 AM 20.07 68.126 0.051 6.39 2.29 8.98
7/21/2021 12:45:00 AM 20.05 68.09 0.051 6.4 2.33 8.98
7/21/2021 1:00:00 AM 20.03 68.054 0.051 6.4 2.29 8.98
7/21/2021 1:15:00 AM 20 68 0.051 6.41 2.19 8.98
7/21/2021 1:30:00 AM 19.97 67.946 0.051 6.41 2.28 8.98
7/21/2021 1:45:00 AM 19.94 67.892 0.051 6.41 2.36 8.99
7/21/2021 2:00:00 AM 19.91 67.838 0.051 6.41 2.3 9
7/21/2021 2:15:00 AM 19.87 67.766 0.051 6.41 2.38 9.01
7/21/2021 2:30:00 AM 19.84 67.712 0.051 6.42 2.28 9.01
7/21/2021 2:45:00 AM 19.8 67.64 0.05 6.42 2.37 9.02
7/21/2021 3:00:00 AM 19.76 67.568 0.05 6.42 2.32 9.02
7/21/2021 3:15:00 AM 19.72 67.496 0.051 6.41 2.32 9.03
7/21/2021 3:30:00 AM 19.68 67.424 0.051 6.41 2.31 9.03
7/21/2021 3:45:00 AM 19.63 67.334 0.051 6.41 2.34 9.05
7/21/2021 4:00:00 AM 19.58 67.244 0.051 6.41 2.35 9.05
7/21/2021 4:15:00 AM 19.54 67.172 0.051 6.41 2.35 9.06
7/21/2021 4:30:00 AM 19.49 67.082 0.051 6.41 2.3 9.07
7/21/2021 4:45:00 AM 19.44 66.992 0.051 6.4 2.38 9.07
7/21/2021 5:00:00 AM 19.4 66.92 0.051 6.4 2.34 9.09
7/21/2021 5:15:00 AM 19.35 66.83 0.051 6.41 2.3 9.1
7/21/2021 5:30:00 AM 19.3 66.74 0.051 6.4 2.37 9.11
7/21/2021 5:45:00 AM 19.26 66.668 0.051 6.41 2.46 9.12
7/21/2021 6:00:00 AM 19.21 66.578 0.051 6.4 2.37 9.12
7/21/2021 6:15:00 AM 19.16 66.488 0.05 6.4 2.36 9.14
7/21/2021 6:30:00 AM 19.12 66.416 0.05 6.4 2.42 9.15
7/21/2021 6:45:00 AM 19.08 66.344 0.05 6.41 2.3 9.17
7/21/2021 7:00:00 AM 19.04 66.272 0.05 6.41 2.35 9.19
7/21/2021 7:15:00 AM 19.01 66.218 0.05 6.41 2.38 9.22
7/21/2021 7:30:00 AM 18.98 66.164 0.05 6.42 2.34 9.24
7/21/2021 7:45:00 AM 18.96 66.128 0.05 6.42 2.25 9.27
7/21/2021 8:00:00 AM 18.94 66.092 0.05 6.44 2.42 9.29
7/21/2021 8:15:00 AM 18.93 66.074 0.05 6.45 2.7 9.31
7/21/2021 8:30:00 AM 18.92 66.056 0.05 6.47 2.52 9.34
7/21/2021 8:45:00 AM 18.93 66.074 0.05 6.48 2.34 9.36
7/21/2021 9:00:00 AM 18.93 66.074 0.05 6.48 2.25 9.37
7/21/2021 9:15:00 AM 18.94 66.092 0.05 6.49 2.28 9.37
7/21/2021 9:30:00 AM 18.97 66.146 0.05 6.5 2.48 9.39
7/21/2021 9:45:00 AM 18.99 66.182 0.05 6.5 2.34 9.38
7/21/2021 10:00:00 AM 19.02 66.236 0.05 6.52 2.32 9.39
7/21/2021 10:15:00 AM 19.05 66.29 0.05 6.52 2.17 9.39
7/21/2021 10:30:00 AM 19.09 66.362 0.05 6.53 2.31 9.38
7/21/2021 10:45:00 AM 19.1 66.38 0.05 6.52 2.53 9.35
7/21/2021 11:00:00 AM 19.11 66.398 0.05 6.52 2.2 9.34
7/21/2021 11:15:00 AM 19.15 66.47 0.05 6.54 2.35 9.39
7/21/2021 11:30:00 AM 19.14 66.452 0.05 6.54 2.24 9.35
7/21/2021 11:45:00 AM 19.12 66.416 0.05 6.53 2.15 9.33
7/21/2021 12:00:00 PM 19.11 66.398 0.05 6.53 2.26 9.35
7/21/2021 12:15:00 PM 19.14 66.452 0.05 6.55 2.17 9.38
7/21/2021 12:30:00 PM 19.17 66.506 0.05 6.56 2.25 9.39
7/21/2021 12:45:00 PM 19.27 66.686 0.05 6.59 2.52 9.41
7/21/2021 1:00:00 PM 19.35 66.83 0.05 6.58 2.49 9.37
7/21/2021 1:15:00 PM 19.41 66.938 0.05 6.59 2.47 9.35
7/21/2021 1:30:00 PM 19.5 67.1 0.05 6.6 2.35 9.36
7/21/2021 1:45:00 PM 19.52 67.136 0.05 6.59 2.36 9.32
7/21/2021 2:00:00 PM 19.54 67.172 0.05 6.59 2.18 9.32
7/21/2021 2:15:00 PM 19.57 67.226 0.05 6.59 2.35 9.33
7/21/2021 2:30:00 PM 19.6 67.28 0.05 6.59 2.28 9.32
7/21/2021 2:45:00 PM 19.6 67.28 0.05 6.59 2.23 9.3
7/21/2021 3:00:00 PM 19.59 67.262 0.05 6.57 2.24 9.28
7/21/2021 3:15:00 PM 19.6 67.28 0.05 6.58 2.15 9.29
7/21/2021 3:30:00 PM 19.59 67.262 0.05 6.57 2.13 9.26
7/21/2021 3:45:00 PM 19.55 67.19 0.05 6.56 2.3 9.25
7/21/2021 4:00:00 PM 19.55 67.19 0.05 6.57 2.21 9.27
7/21/2021 4:15:00 PM 19.57 67.226 0.05 6.57 2.29 9.27
7/21/2021 4:30:00 PM 19.57 67.226 0.05 6.56 2.23 9.24
7/21/2021 4:45:00 PM 19.55 67.19 0.05 6.57 2.13 9.25
7/21/2021 5:00:00 PM 19.55 67.19 0.05 6.56 2.2 9.26
7/21/2021 5:15:00 PM 19.54 67.172 0.05 6.56 2.22 9.25
7/21/2021 5:30:00 PM 19.52 67.136 0.05 6.55 2.33 9.23
7/21/2021 5:45:00 PM 19.49 67.082 0.05 6.55 2.21 9.23
7/21/2021 6:00:00 PM 19.44 66.992 0.05 6.53 2.21 9.22
7/21/2021 6:15:00 PM 19.4 66.92 0.05 6.54 2.17 9.23
7/21/2021 6:30:00 PM 19.38 66.884 0.05 6.52 2.18 9.22
7/21/2021 6:45:00 PM 19.36 66.848 0.051 6.52 2.18 9.22
7/21/2021 7:00:00 PM 19.33 66.794 0.051 6.51 2.11 9.22
7/21/2021 7:15:00 PM 19.29 66.722 0.051 6.5 2.15 9.21
7/21/2021 7:30:00 PM 19.25 66.65 0.051 6.51 2.1 9.2
7/21/2021 7:45:00 PM 19.21 66.578 0.051 6.49 2.16 9.2
7/21/2021 8:00:00 PM 19.17 66.506 0.051 6.49 2.13 9.19
7/21/2021 8:15:00 PM 19.13 66.434 0.051 6.47 2.19 9.19
7/21/2021 8:30:00 PM 19.08 66.344 0.051 6.48 2.08 9.2
7/21/2021 8:45:00 PM 19.03 66.254 0.051 6.48 2.16 9.2
7/21/2021 9:00:00 PM 18.99 66.182 0.051 6.47 2.12 9.2
7/21/2021 9:15:00 PM 18.95 66.11 0.051 6.46 2.18 9.21
7/21/2021 9:30:00 PM 18.91 66.038 0.051 6.47 2.13 9.22
7/21/2021 9:45:00 PM 18.86 65.948 0.051 6.47 2.13 9.23
7/21/2021 10:00:00 PM 18.82 65.876 0.051 6.46 2.13 9.24
7/21/2021 10:15:00 PM 18.76 65.768 0.051 6.47 2.25 9.25
7/21/2021 10:30:00 PM 18.71 65.67799 0.051 6.46 2.17 9.26
7/21/2021 10:45:00 PM 18.65 65.57 0.051 6.46 2.1 9.27
7/21/2021 11:00:00 PM 18.59 65.462 0.051 6.45 2.07 9.29
7/21/2021 11:15:00 PM 18.52 65.336 0.051 6.45 2.22 9.3
7/21/2021 11:30:00 PM 18.46 65.228 0.051 6.46 2.08 9.31
7/21/2021 11:45:00 PM 18.4 65.12 0.051 6.45 2.15 9.32
7/22/2021 12:00:00 AM 18.34 65.012 0.051 6.46 2.14 9.34
7/22/2021 12:15:00 AM 18.28 64.904 0.051 6.46 2.03 9.35
7/22/2021 12:30:00 AM 18.21 64.778 0.051 6.45 2.09 9.36
7/22/2021 12:45:00 AM 18.15 64.67 0.051 6.46 2.05 9.37
7/22/2021 1:00:00 AM 18.09 64.562 0.051 6.46 2.07 9.39
7/22/2021 1:15:00 AM 18.03 64.454 0.051 6.45 2.1 9.4
7/22/2021 1:30:00 AM 17.97 64.346 0.051 6.46 2.1 9.41
7/22/2021 1:45:00 AM 17.9 64.22 0.051 6.46 2.11 9.42
7/22/2021 2:00:00 AM 17.84 64.112 0.051 6.45 2.12 9.44
7/22/2021 2:15:00 AM 17.78 64.004 0.051 6.45 1.99 9.45
7/22/2021 2:30:00 AM 17.72 63.896 0.051 6.45 2.12 9.46
7/22/2021 2:45:00 AM 17.66 63.788 0.051 6.45 1.95 9.48
7/22/2021 3:00:00 AM 17.6 63.68 0.051 6.45 2.14 9.49
7/22/2021 3:15:00 AM 17.54 63.572 0.051 6.45 1.99 9.51
7/22/2021 3:30:00 AM 17.48 63.464 0.051 6.44 2.02 9.51
7/22/2021 3:45:00 AM 17.42 63.356 0.051 6.44 2.01 9.53
7/22/2021 4:00:00 AM 17.36 63.248 0.051 6.43 2.07 9.53
7/22/2021 4:15:00 AM 17.3 63.14 0.051 6.44 2.02 9.55
7/22/2021 4:30:00 AM 17.24 63.032 0.051 6.44 2.01 9.56
7/22/2021 4:45:00 AM 17.18 62.924 0.051 6.44 2.01 9.57
7/22/2021 5:00:00 AM 17.13 62.834 0.051 6.43 2.04 9.59
7/22/2021 5:15:00 AM 17.07 62.726 0.051 6.43 2.09 9.6
7/22/2021 5:30:00 AM 17.02 62.636 0.051 6.43 2.12 9.61
7/22/2021 5:45:00 AM 16.97 62.546 0.051 6.42 2.19 9.62
7/22/2021 6:00:00 AM 16.92 62.456 0.051 6.42 2.16 9.64
7/22/2021 6:15:00 AM 16.86 62.348 0.051 6.42 2.02 9.65
7/22/2021 6:30:00 AM 16.81 62.258 0.051 6.43 2.13 9.67
7/22/2021 6:45:00 AM 16.77 62.186 0.051 6.44 2.11 9.7
7/22/2021 7:00:00 AM 16.72 62.096 0.051 6.43 2.04 9.72
7/22/2021 7:15:00 AM 16.69 62.042 0.051 6.44 2.13 9.74
7/22/2021 7:30:00 AM 16.66 61.988 0.051 6.45 2.08 9.76
7/22/2021 7:45:00 AM 16.63 61.934 0.051 6.46 2.07 9.79
7/22/2021 8:00:00 AM 16.62 61.916 0.051 6.47 1.98 9.81
7/22/2021 8:15:00 AM 16.62 61.916 0.051 6.48 2.02 9.85
7/22/2021 8:30:00 AM 16.62 61.916 0.051 6.49 2.06 9.87
7/22/2021 8:45:00 AM 16.65 61.97 0.051 6.5 2.03 9.89
7/22/2021 9:00:00 AM 16.67 62.006 0.051 6.52 2.04 9.89
7/22/2021 9:15:00 AM 16.71 62.078 0.051 6.53 2.09 9.9
7/22/2021 9:30:00 AM 16.76 62.168 0.051 6.54 2.07 9.92
7/22/2021 9:45:00 AM 16.8 62.24 0.051 6.56 2.11 9.92
7/22/2021 10:00:00 AM 16.85 62.33 0.051 6.57 2.09 9.92
7/22/2021 10:15:00 AM 16.9 62.42 0.051 6.58 2.16 9.91
7/22/2021 10:30:00 AM 17 62.6 0.051 6.59 2.15 9.92
7/22/2021 10:45:00 AM 17.06 62.708 0.051 6.6 2.15 9.92
7/22/2021 11:00:00 AM 17.13 62.834 0.051 6.62 2.02 9.91
7/22/2021 11:15:00 AM 17.21 62.978 0.051 6.61 2.06 9.89
7/22/2021 11:30:00 AM 17.31 63.158 0.051 6.63 2.15 9.89
7/22/2021 11:45:00 AM 17.41 63.338 0.051 6.63 2.03 9.86
7/22/2021 12:00:00 PM 17.53 63.554 0.051 6.65 2.03 9.85
7/22/2021 12:15:00 PM 17.68 63.824 0.051 6.65 2.13 9.83
7/22/2021 12:30:00 PM 17.81 64.058 0.051 6.65 2.22 9.79
7/22/2021 12:45:00 PM 17.89 64.202 0.05 6.65 2.07 9.77
7/22/2021 1:00:00 PM 18.02 64.436 0.05 6.67 2.07 9.77
7/22/2021 1:15:00 PM 18.15 64.67 0.05 6.67 2.02 9.74
7/22/2021 1:30:00 PM 18.24 64.832 0.05 6.68 2.05 9.72
7/22/2021 1:45:00 PM 18.33 64.994 0.05 6.69 1.98 9.69
7/22/2021 2:00:00 PM 18.36 65.048 0.05 6.68 1.99 9.68
7/22/2021 2:15:00 PM 18.38 65.084 0.05 6.68 2.01 9.66
7/22/2021 2:30:00 PM 18.37 65.066 0.05 6.66 2.03 9.63
7/22/2021 2:45:00 PM 18.42 65.156 0.05 6.67 2.04 9.64
7/22/2021 3:00:00 PM 18.43 65.174 0.05 6.66 1.98 9.61
7/22/2021 3:15:00 PM 18.49 65.282 0.051 6.66 2.04 9.6
7/22/2021 3:30:00 PM 18.5 65.3 0.051 6.65 2 9.57
7/22/2021 3:45:00 PM 18.48 65.264 0.051 6.63 2.03 9.52
7/22/2021 4:00:00 PM 18.48 65.264 0.051 6.62 1.99 9.51
7/22/2021 4:15:00 PM 18.49 65.282 0.051 6.63 2.04 9.53
7/22/2021 4:30:00 PM 18.49 65.282 0.051 6.63 1.98 9.55
7/22/2021 4:45:00 PM 18.5 65.3 0.051 6.63 1.94 9.55
7/22/2021 5:00:00 PM 18.51 65.318 0.051 6.62 1.98 9.54
7/22/2021 5:15:00 PM 18.54 65.372 0.051 6.62 2.04 9.53
7/22/2021 5:30:00 PM 18.55 65.39 0.051 6.62 2.01 9.52
7/22/2021 5:45:00 PM 18.53 65.354 0.051 6.6 1.94 9.48
7/22/2021 6:00:00 PM 18.52 65.336 0.051 6.58 2 9.46
7/22/2021 6:15:00 PM 18.5 65.3 0.051 6.57 2.02 9.47
7/22/2021 6:30:00 PM 18.48 65.264 0.051 6.56 1.97 9.46
7/22/2021 6:45:00 PM 18.47 65.246 0.051 6.55 2.03 9.45
7/22/2021 7:00:00 PM 18.45 65.21 0.051 6.55 1.97 9.44
7/22/2021 7:15:00 PM 18.42 65.156 0.051 6.55 2.05 9.43
7/22/2021 7:30:00 PM 18.38 65.084 0.051 6.53 2.07 9.42
7/22/2021 7:45:00 PM 18.35 65.03 0.052 6.54 1.87 9.42
7/22/2021 8:00:00 PM 18.31 64.958 0.052 6.53 1.91 9.41
7/22/2021 8:15:00 PM 18.27 64.886 0.052 6.53 2.01 9.4
7/22/2021 8:30:00 PM 18.23 64.814 0.052 6.53 2.06 9.4
7/22/2021 8:45:00 PM 18.19 64.742 0.052 6.52 2.05 9.4
7/22/2021 9:00:00 PM 18.15 64.67 0.052 6.51 2.05 9.4
7/22/2021 9:15:00 PM 18.11 64.598 0.052 6.5 2.04 9.41
7/22/2021 9:30:00 PM 18.07 64.526 0.052 6.51 1.94 9.41
7/22/2021 9:45:00 PM 18.02 64.436 0.052 6.51 1.96 9.42
7/22/2021 10:00:00 PM 17.97 64.346 0.052 6.5 1.96 9.44
7/22/2021 10:15:00 PM 17.92 64.256 0.052 6.49 2.09 9.45
7/22/2021 10:30:00 PM 17.87 64.166 0.052 6.5 1.99 9.46
7/22/2021 10:45:00 PM 17.82 64.076 0.052 6.49 1.91 9.47
7/22/2021 11:00:00 PM 17.76 63.968 0.052 6.49 1.93 9.48
7/22/2021 11:15:00 PM 17.71 63.878 0.052 6.49 1.92 9.49
7/22/2021 11:30:00 PM 17.66 63.788 0.052 6.49 1.95 9.5
7/22/2021 11:45:00 PM 17.6 63.68 0.052 6.49 1.89 9.51
7/23/2021 12:00:00 AM 17.54 63.572 0.052 6.48 1.9 9.53
7/23/2021 12:15:00 AM 17.48 63.464 0.052 6.48 1.88 9.53
7/23/2021 12:30:00 AM 17.42 63.356 0.052 6.47 1.84 9.55
7/23/2021 12:45:00 AM 17.36 63.248 0.052 6.47 1.94 9.57
7/23/2021 1:00:00 AM 17.3 63.14 0.052 6.48 2.02 9.58
7/23/2021 1:15:00 AM 17.24 63.032 0.052 6.47 2 9.59
7/23/2021 1:30:00 AM 17.18 62.924 0.052 6.47 1.86 9.6
7/23/2021 1:45:00 AM 17.12 62.816 0.052 6.47 2.02 9.61
7/23/2021 2:00:00 AM 17.06 62.708 0.052 6.47 1.94 9.62
7/23/2021 2:15:00 AM 17.01 62.618 0.052 6.47 1.89 9.64
7/23/2021 2:30:00 AM 16.95 62.51 0.052 6.46 1.89 9.64
7/23/2021 2:45:00 AM 16.89 62.402 0.052 6.46 1.82 9.66
7/23/2021 3:00:00 AM 16.84 62.312 0.052 6.46 1.91 9.67
7/23/2021 3:15:00 AM 16.78 62.204 0.052 6.47 1.81 9.68
7/23/2021 3:30:00 AM 16.73 62.114 0.052 6.46 1.88 9.69
7/23/2021 3:45:00 AM 16.67 62.006 0.052 6.46 1.91 9.7
7/23/2021 4:00:00 AM 16.61 61.898 0.052 6.46 1.92 9.71
7/23/2021 4:15:00 AM 16.56 61.808 0.052 6.46 1.89 9.72
7/23/2021 4:30:00 AM 16.5 61.7 0.052 6.45 1.83 9.74
7/23/2021 4:45:00 AM 16.45 61.61 0.052 6.45 1.89 9.75
7/23/2021 5:00:00 AM 16.39 61.502 0.052 6.45 1.86 9.76
7/23/2021 5:15:00 AM 16.34 61.412 0.052 6.45 1.96 9.77
7/23/2021 5:30:00 AM 16.28 61.304 0.052 6.45 1.85 9.79
7/23/2021 5:45:00 AM 16.23 61.214 0.052 6.45 1.85 9.81
7/23/2021 6:00:00 AM 16.18 61.124 0.052 6.44 1.86 9.82
7/23/2021 6:15:00 AM 16.13 61.034 0.052 6.45 1.94 9.84
7/23/2021 6:30:00 AM 16.08 60.944 0.052 6.45 1.89 9.86
7/23/2021 6:45:00 AM 16.03 60.854 0.052 6.46 1.91 9.88
7/23/2021 7:00:00 AM 16 60.8 0.052 6.47 1.93 9.91
7/23/2021 7:15:00 AM 15.96 60.728 0.052 6.47 1.85 9.93
7/23/2021 7:30:00 AM 15.94 60.692 0.052 6.49 1.87 9.95
7/23/2021 7:45:00 AM 15.92 60.656 0.052 6.48 1.84 9.97
7/23/2021 8:00:00 AM 15.91 60.638 0.052 6.48 1.89 9.99
7/23/2021 8:15:00 AM 15.91 60.638 0.052 6.51 1.84 10.01
7/23/2021 8:30:00 AM 15.92 60.656 0.052 6.51 1.87 10.02
7/23/2021 8:45:00 AM 15.94 60.692 0.052 6.53 1.81 10.03
7/23/2021 9:00:00 AM 15.98 60.764 0.052 6.53 1.94 10.05
7/23/2021 9:15:00 AM 16.04 60.872 0.052 6.53 1.89 10.05
7/23/2021 9:30:00 AM 16.1 60.98 0.052 6.55 1.88 10.04
7/23/2021 9:45:00 AM 16.17 61.106 0.052 6.56 1.86 10.05
7/23/2021 10:00:00 AM 16.26 61.268 0.052 6.58 1.9 10.05
7/23/2021 10:15:00 AM 16.36 61.448 0.052 6.6 1.89 10.05
7/23/2021 10:30:00 AM 16.47 61.646 0.052 6.61 1.84 10.05
7/23/2021 10:45:00 AM 16.6 61.88 0.052 6.62 1.81 10.04
7/23/2021 11:00:00 AM 16.75 62.15 0.052 6.64 1.82 10.02